
Distance (Route):
Temperature : 15.7°C
Humidity : 38.1%
Pressure : 0hPa| Receiver | Frames | First received | Last received |
|---|---|---|---|
| IW2NTF | 799 | 2026-09-05 10:03:39 | 2026-09-05 12:10:47 |
| AUTORXJP | 130 | 2026-09-05 10:45:14 | 2026-09-05 11:58:47 |
| DO3MHA-12 | 104 | 2026-09-05 11:12:28 | 2026-09-05 11:53:18 |
| DB0UT-7 | 78 | 2026-09-05 11:07:24 | 2026-09-05 11:54:19 |
| OE5DXL-15 | 9 | 2026-09-05 11:41:40 | 2026-09-05 11:50:13 |
| Receiver | Date | Latitude | Longitude | Direction | Speed | Altitude | Climb | Temperature | Humidity | Pressure | Voltage | Killtimer | Uptime | BKT | XDATA |
|---|---|---|---|---|---|---|---|---|---|---|---|---|---|---|---|
| IW2NTF | 2026-09-05 12:10:47 | 44.22755 | 8.16750 | 117° | 31km/h | 2390m | -15.1m/s | 15.7°C | 38.1% | 0hPa | 2.7V | 08:09:26 | 02:34:25 | 00:00:00 | |
| IW2NTF | 2026-09-05 12:10:40 | 44.22773 | 8.16687 | 116° | 31km/h | 2477m | -15m/s | 14.9°C | 41.1% | 0hPa | 2.7V | 08:09:32 | 02:34:19 | 00:00:00 | |
| IW2NTF | 2026-09-05 12:10:35 | 44.22787 | 8.16647 | 119° | 33km/h | 2536m | -15.1m/s | 14.8°C | 29.4% | 0hPa | 2.7V | 08:09:36 | 02:34:15 | 00:00:00 | |
| IW2NTF | 2026-09-05 12:10:28 | 44.22819 | 8.16573 | 121° | 31km/h | 2652m | -14.3m/s | 13.8°C | 27.5% | 0hPa | 2.7V | 08:09:44 | 02:34:07 | 00:00:00 | |
| IW2NTF | 2026-09-05 12:10:23 | 44.22846 | 8.16523 | 129° | 31km/h | 2735m | -12.9m/s | 13.5°C | 19.9% | 0hPa | 2.7V | 08:09:50 | 02:34:01 | 00:00:00 | |
| IW2NTF | 2026-09-05 12:10:17 | 44.22867 | 8.16496 | 148° | 27km/h | 2788m | -13.2m/s | 13.7°C | 13.1% | 0hPa | 2.6V | 08:09:54 | 02:33:57 | 00:00:00 | |
| IW2NTF | 2026-09-05 12:10:11 | 44.22911 | 8.16468 | 159° | 26km/h | 2896m | -14.7m/s | 13.3°C | 12.2% | 0hPa | 2.6V | 08:10:02 | 02:33:49 | 00:00:00 | |
| IW2NTF | 2026-09-05 12:10:05 | 44.22934 | 8.16460 | 170° | 22km/h | 2954m | -15.3m/s | 12.8°C | 13.5% | 0hPa | 2.7V | 08:10:06 | 02:33:45 | 00:00:00 | |
| IW2NTF | 2026-09-05 12:09:58 | 44.22965 | 8.16451 | 164° | 20km/h | 3047m | -16.2m/s | 12°C | 13.1% | 0hPa | 2.7V | 08:10:12 | 02:33:39 | 00:00:00 | |
| IW2NTF | 2026-09-05 12:09:51 | 44.22993 | 8.16435 | 150° | 18km/h | 3138m | -15.9m/s | 11.4°C | 14% | 0hPa | 2.7V | 08:10:18 | 02:33:33 | 00:00:00 | |
| IW2NTF | 2026-09-05 12:09:45 | 44.23017 | 8.16414 | 135° | 15km/h | 3229m | -15.1m/s | 11°C | 16.3% | 0hPa | 2.7V | 08:10:24 | 02:33:27 | 00:00:00 | |
| IW2NTF | 2026-09-05 12:09:39 | 44.23035 | 8.16392 | 130° | 16km/h | 3319m | -15.8m/s | 10.4°C | 20.5% | 0hPa | 2.7V | 08:10:30 | 02:33:21 | 00:00:00 | |
| IW2NTF | 2026-09-05 12:09:30 | 44.23050 | 8.16372 | 135° | 16km/h | 3409m | -15.7m/s | 9.5°C | 23.3% | 0hPa | 2.6V | 08:10:36 | 02:33:15 | 00:00:00 | |
| IW2NTF | 2026-09-05 12:09:25 | 44.23066 | 8.16355 | 153° | 15km/h | 3496m | -14.8m/s | 8.7°C | 25.5% | 0hPa | 2.6V | 08:10:42 | 02:33:09 | 00:00:00 | |
| IW2NTF | 2026-09-05 12:09:25 | 44.23085 | 8.16340 | 157° | 15km/h | 3584m | -16.1m/s | 8°C | 26.6% | 0hPa | 2.7V | 08:10:48 | 02:33:03 | 00:00:00 | |
| IW2NTF | 2026-09-05 12:09:19 | 44.23099 | 8.16331 | 151° | 15km/h | 3641m | -14.9m/s | 7.5°C | 27.7% | 0hPa | 2.7V | 08:10:52 | 02:32:59 | 00:00:00 | |
| IW2NTF | 2026-09-05 12:09:12 | 44.23130 | 8.16310 | 159° | 18km/h | 3757m | -14.6m/s | 6.4°C | 29.7% | 0hPa | 2.7V | 08:11:00 | 02:32:51 | 00:00:00 | |
| IW2NTF | 2026-09-05 12:09:06 | 44.23158 | 8.16295 | 164° | 20km/h | 3843m | -15.9m/s | 5.7°C | 30.1% | 0hPa | 2.7V | 08:11:06 | 02:32:45 | 00:00:00 | |
| IW2NTF | 2026-09-05 12:09:00 | 44.23191 | 8.16273 | 155° | 27km/h | 3930m | -15.1m/s | 5.2°C | 29% | 0hPa | 2.7V | 08:11:12 | 02:32:39 | 00:00:00 | |
| IW2NTF | 2026-09-05 12:08:54 | 44.23234 | 8.16239 | 154° | 38km/h | 4022m | -16.6m/s | 5.1°C | 44.8% | 0hPa | 2.7V | 08:11:18 | 02:32:33 | 00:00:00 | |
| IW2NTF | 2026-09-05 12:08:48 | 44.23286 | 8.16194 | 146° | 42km/h | 4105m | -14.8m/s | 5.2°C | 54.3% | 0hPa | 2.7V | 08:11:24 | 02:32:27 | 00:00:00 | |
| IW2NTF | 2026-09-05 12:08:42 | 44.23336 | 8.16140 | 139° | 38km/h | 4197m | -17.9m/s | 4.7°C | 55.3% | 0hPa | 2.6V | 08:11:30 | 02:32:21 | 00:00:00 | |
| IW2NTF | 2026-09-05 12:08:36 | 44.23380 | 8.16087 | 138° | 40km/h | 4299m | -16.2m/s | 4°C | 51.2% | 0hPa | 2.6V | 08:11:36 | 02:32:15 | 00:00:00 | |
| IW2NTF | 2026-09-05 12:08:30 | 44.23423 | 8.16034 | 134° | 38km/h | 4385m | -15.1m/s | 3.9°C | 44.1% | 0hPa | 2.6V | 08:11:42 | 02:32:09 | 00:00:00 | |
| IW2NTF | 2026-09-05 12:08:24 | 44.23460 | 8.15979 | 132° | 31km/h | 4473m | -14.9m/s | 3.2°C | 42.6% | 0hPa | 2.6V | 08:11:48 | 02:32:03 | 00:00:00 | |
| IW2NTF | 2026-09-05 12:08:13 | 44.23489 | 8.15925 | 121° | 33km/h | 4557m | -15.5m/s | 2.6°C | 43.5% | 0hPa | 2.6V | 08:11:54 | 02:31:57 | 00:00:00 | |
| IW2NTF | 2026-09-05 12:08:13 | 44.23519 | 8.15850 | 121° | 27km/h | 4676m | -15m/s | 1.6°C | 44.8% | 0hPa | 2.7V | 08:12:02 | 02:31:49 | 00:00:00 | |
| IW2NTF | 2026-09-05 12:08:07 | 44.23531 | 8.15816 | 114° | 24km/h | 4732m | -15.7m/s | 1°C | 45% | 0hPa | 2.7V | 08:12:06 | 02:31:45 | 00:00:00 | |
| IW2NTF | 2026-09-05 12:07:59 | 44.23545 | 8.15765 | 109° | 26km/h | 4817m | -13.1m/s | 0.5°C | 36.7% | 0hPa | 2.7V | 08:12:12 | 02:31:39 | 00:00:00 | |
| IW2NTF | 2026-09-05 12:07:54 | 44.23555 | 8.15711 | 105° | 27km/h | 4899m | -14.8m/s | -0.2°C | 32% | 0hPa | 2.7V | 08:12:18 | 02:31:33 | 00:00:00 | |
| IW2NTF | 2026-09-05 12:07:45 | 44.23566 | 8.15657 | 107° | 27km/h | 4983m | -13.9m/s | -0.9°C | 30.8% | 0hPa | 2.7V | 08:12:24 | 02:31:27 | 00:00:00 | |
| IW2NTF | 2026-09-05 12:07:39 | 44.23593 | 8.15564 | 110° | 31km/h | 5124m | -14.4m/s | -1.9°C | 34.3% | 0hPa | 2.7V | 08:12:34 | 02:31:17 | 00:00:00 | |
| IW2NTF | 2026-09-05 12:07:23 | 44.23627 | 8.15464 | 119° | 31km/h | 5268m | -15.4m/s | -2.7°C | 30.5% | 0hPa | 2.6V | 08:12:44 | 02:31:07 | 00:00:00 | |
| IW2NTF | 2026-09-05 12:07:17 | 44.23671 | 8.15351 | 116° | 42km/h | 5413m | -15.1m/s | -3.8°C | 21.9% | 0hPa | 2.6V | 08:12:54 | 02:30:57 | 00:00:00 | |
| IW2NTF | 2026-09-05 12:07:03 | 44.23718 | 8.15223 | 119° | 42km/h | 5558m | -14.9m/s | -4.8°C | 25.3% | 0hPa | 2.6V | 08:13:04 | 02:30:47 | 00:00:00 | |
| IW2NTF | 2026-09-05 12:06:58 | 44.23763 | 8.15090 | 113° | 44km/h | 5702m | -15.2m/s | -6°C | 24.5% | 0hPa | 2.6V | 08:13:14 | 02:30:37 | 00:00:00 | |
| IW2NTF | 2026-09-05 12:06:45 | 44.23806 | 8.14954 | 115° | 46km/h | 5851m | -15.9m/s | -7.2°C | 23.1% | 0hPa | 2.6V | 08:13:24 | 02:30:27 | 00:00:00 | |
| IW2NTF | 2026-09-05 12:06:38 | 44.23858 | 8.14811 | 118° | 46km/h | 5997m | -15.2m/s | -7.6°C | 17% | 0hPa | 2.6V | 08:13:34 | 02:30:17 | 00:00:00 | |
| IW2NTF | 2026-09-05 12:06:24 | 44.23915 | 8.14669 | 119° | 49km/h | 6127m | -12.1m/s | -8.5°C | 21.7% | 0hPa | 2.6V | 08:13:44 | 02:30:07 | 00:00:00 | |
| IW2NTF | 2026-09-05 12:06:18 | 44.23982 | 8.14522 | 120° | 49km/h | 6246m | -12.3m/s | -9.2°C | 32.2% | 0hPa | 2.6V | 08:13:54 | 02:29:57 | 00:00:00 | |
| IW2NTF | 2026-09-05 12:06:06 | 44.24054 | 8.14373 | 121° | 51km/h | 6364m | -11.7m/s | -10.1°C | 26.8% | 0hPa | 2.6V | 08:14:04 | 02:29:47 | 00:00:00 | |
| IW2NTF | 2026-09-05 12:05:53 | 44.24131 | 8.14223 | 125° | 55km/h | 6474m | -11.5m/s | -11.1°C | 54.8% | 0hPa | 2.6V | 08:14:14 | 02:29:37 | 00:00:00 | |
| IW2NTF | 2026-09-05 12:05:48 | 44.24210 | 8.14070 | 125° | 51km/h | 6605m | -14.8m/s | -12.1°C | 43.5% | 0hPa | 2.6V | 08:14:24 | 02:29:27 | 00:00:00 | |
| IW2NTF | 2026-09-05 12:05:33 | 44.24280 | 8.13920 | 122° | 47km/h | 6724m | -12m/s | -12.7°C | 21.1% | 0hPa | 2.6V | 08:14:34 | 02:29:17 | 00:00:00 | |
| IW2NTF | 2026-09-05 12:05:28 | 44.24350 | 8.13774 | 122° | 51km/h | 6854m | -13.3m/s | -13.7°C | 55.5% | 0hPa | 2.6V | 08:14:44 | 02:29:07 | 00:00:00 | |
| IW2NTF | 2026-09-05 12:05:15 | 44.24423 | 8.13626 | 123° | 55km/h | 6984m | -14m/s | -14.9°C | 67.9% | 0hPa | 2.6V | 08:14:54 | 02:28:57 | 00:00:00 | |
| IW2NTF | 2026-09-05 12:05:08 | 44.24499 | 8.13470 | 123° | 53km/h | 7122m | -12.6m/s | -15.9°C | 53.1% | 0hPa | 2.6V | 08:15:04 | 02:28:47 | 00:00:00 | |
| IW2NTF | 2026-09-05 12:04:55 | 44.24573 | 8.13319 | 125° | 53km/h | 7271m | -15.4m/s | -17°C | 65.6% | 0hPa | 2.6V | 08:15:14 | 02:28:37 | 00:00:00 | |
| IW2NTF | 2026-09-05 12:04:48 | 44.24651 | 8.13175 | 129° | 51km/h | 7420m | -16.2m/s | -18.1°C | 60% | 0hPa | 2.5V | 08:15:24 | 02:28:27 | 00:00:00 | |
| IW2NTF | 2026-09-05 12:04:37 | 44.24741 | 8.13036 | 136° | 37km/h | 7596m | -14.4m/s | -19°C | 56.3% | 0hPa | 2.6V | 08:15:36 | 02:28:15 | 00:00:00 | |
| IW2NTF | 2026-09-05 12:04:20 | 44.24821 | 8.12924 | 141° | 40km/h | 7774m | -13.9m/s | -20.4°C | 59.5% | 0hPa | 2.6V | 08:15:48 | 02:28:03 | 00:00:00 | |
| IW2NTF | 2026-09-05 12:04:13 | 44.24900 | 8.12824 | 132° | 42km/h | 7914m | -15.2m/s | -21.4°C | 54.4% | 0hPa | 2.5V | 08:15:58 | 02:27:53 | 00:00:00 | |
| IW2NTF | 2026-09-05 12:04:01 | 44.24982 | 8.12714 | 135° | 47km/h | 8046m | -13.4m/s | -22.3°C | 51% | 0hPa | 2.6V | 08:16:08 | 02:27:43 | 00:00:00 | |
| IW2NTF | 2026-09-05 12:03:54 | 44.25072 | 8.12603 | 140° | 47km/h | 8188m | -16.1m/s | -23.4°C | 52.2% | 0hPa | 2.6V | 08:16:18 | 02:27:33 | 00:00:00 | |
| IW2NTF | 2026-09-05 12:03:41 | 44.25171 | 8.12486 | 138° | 51km/h | 8335m | -15m/s | -24.6°C | 56.2% | 0hPa | 2.5V | 08:16:28 | 02:27:23 | 00:00:00 | |
| IW2NTF | 2026-09-05 12:03:34 | 44.25274 | 8.12359 | 137° | 55km/h | 8484m | -15.8m/s | -25.6°C | 49.6% | 0hPa | 2.5V | 08:16:38 | 02:27:13 | 00:00:00 | |
| IW2NTF | 2026-09-05 12:03:20 | 44.25375 | 8.12232 | 139° | 53km/h | 8636m | -15.8m/s | -26.6°C | 41.9% | 0hPa | 2.5V | 08:16:48 | 02:27:03 | 00:00:00 | |
| IW2NTF | 2026-09-05 12:03:14 | 44.25484 | 8.12109 | 142° | 57km/h | 8785m | -16.1m/s | -27.6°C | 35.6% | 0hPa | 2.5V | 08:16:58 | 02:26:53 | 00:00:00 | |
| IW2NTF | 2026-09-05 12:03:04 | 44.25600 | 8.11979 | 141° | 55km/h | 8938m | -16.4m/s | -28.7°C | 31.9% | 0hPa | 2.6V | 08:17:08 | 02:26:43 | 00:00:00 | |
| IW2NTF | 2026-09-05 12:02:54 | 44.25709 | 8.11854 | 142° | 51km/h | 9095m | -16.7m/s | -29.8°C | 28% | 0hPa | 2.5V | 08:17:18 | 02:26:33 | 00:00:00 | |
| IW2NTF | 2026-09-05 12:02:44 | 44.25819 | 8.11740 | 144° | 51km/h | 9254m | -16.4m/s | -31.2°C | 29.6% | 0hPa | 2.6V | 08:17:28 | 02:26:23 | 00:00:00 | |
| IW2NTF | 2026-09-05 12:02:34 | 44.25932 | 8.11638 | 146° | 51km/h | 9410m | -16.5m/s | -32.6°C | 29.9% | 0hPa | 2.6V | 08:17:38 | 02:26:13 | 00:00:00 | |
| IW2NTF | 2026-09-05 12:02:25 | 44.26054 | 8.11540 | 151° | 55km/h | 9567m | -16.8m/s | -33.6°C | 22.2% | 0hPa | 2.6V | 08:17:48 | 02:26:03 | 00:00:00 | |
| IW2NTF | 2026-09-05 12:02:14 | 44.26180 | 8.11441 | 150° | 53km/h | 9726m | -16.5m/s | -34.5°C | 17.1% | 0hPa | 2.6V | 08:17:58 | 02:25:53 | 00:00:00 | |
| IW2NTF | 2026-09-05 12:02:00 | 44.26299 | 8.11341 | 147° | 53km/h | 9886m | -17.1m/s | -35.8°C | 17.7% | 0hPa | 2.6V | 08:18:08 | 02:25:43 | 00:00:00 | |
| IW2NTF | 2026-09-05 12:01:52 | 44.26439 | 8.11217 | 145° | 57km/h | 10079m | -16.6m/s | -37.3°C | 15.6% | 0hPa | 2.6V | 08:18:20 | 02:25:31 | 00:00:00 | |
| IW2NTF | 2026-09-05 12:01:36 | 44.26597 | 8.11067 | 147° | 51km/h | 10307m | -17.2m/s | -39.2°C | 16.7% | 0hPa | 2.6V | 08:18:34 | 02:25:17 | 00:00:00 | |
| IW2NTF | 2026-09-05 12:01:26 | 44.26702 | 8.10964 | 147° | 51km/h | 10475m | -17.2m/s | -40.8°C | 18.4% | 0hPa | 2.6V | 08:18:44 | 02:25:07 | 00:00:00 | |
| IW2NTF | 2026-09-05 12:01:17 | 44.26806 | 8.10867 | 148° | 51km/h | 10644m | -16.9m/s | -42.4°C | 21.1% | 0hPa | 2.6V | 08:18:54 | 02:24:57 | 00:00:00 | |
| IW2NTF | 2026-09-05 12:01:05 | 44.26913 | 8.10774 | 149° | 53km/h | 10812m | -17.6m/s | -44°C | 23.8% | 0hPa | 2.6V | 08:19:04 | 02:24:47 | 00:00:00 | |
| IW2NTF | 2026-09-05 12:00:55 | 44.27026 | 8.10691 | 149° | 53km/h | 10983m | -17.2m/s | -45.6°C | 27.2% | 0hPa | 2.6V | 08:19:14 | 02:24:37 | 00:00:00 | |
| IW2NTF | 2026-09-05 12:00:45 | 44.27145 | 8.10609 | 151° | 51km/h | 11154m | -17.9m/s | -47.2°C | 31.2% | 0hPa | 2.6V | 08:19:24 | 02:24:27 | 00:00:00 | |
| IW2NTF | 2026-09-05 12:00:34 | 44.27270 | 8.10528 | 154° | 55km/h | 11325m | -17.5m/s | -48.6°C | 35.5% | 0hPa | 2.6V | 08:19:34 | 02:24:17 | 00:00:00 | |
| IW2NTF | 2026-09-05 12:00:25 | 44.27396 | 8.10440 | 154° | 57km/h | 11497m | -17.9m/s | -50°C | 41.4% | 0hPa | 2.6V | 08:19:44 | 02:24:07 | 00:00:00 | |
| IW2NTF | 2026-09-05 12:00:15 | 44.27523 | 8.10341 | 148° | 60km/h | 11671m | -17.8m/s | -51.6°C | 47.6% | 0hPa | 2.6V | 08:19:54 | 02:23:57 | 00:00:00 | |
| IW2NTF | 2026-09-05 12:00:05 | 44.27651 | 8.10242 | 148° | 60km/h | 11845m | -18m/s | -53.1°C | 55% | 0hPa | 2.6V | 08:20:04 | 02:23:47 | 00:00:00 | |
| IW2NTF | 2026-09-05 11:59:55 | 44.27782 | 8.10148 | 150° | 57km/h | 12021m | -19m/s | -54.6°C | 57.1% | 0hPa | 2.7V | 08:20:14 | 02:23:37 | 00:00:00 | |
| IW2NTF | 2026-09-05 11:59:45 | 44.27915 | 8.10063 | 152° | 55km/h | 12202m | -19.3m/s | -56°C | 53.3% | 0hPa | 2.6V | 08:20:24 | 02:23:27 | 00:00:00 | |
| IW2NTF | 2026-09-05 11:59:34 | 44.28051 | 8.09978 | 156° | 57km/h | 12384m | -19.3m/s | -57.6°C | 48.1% | 0hPa | 2.6V | 08:20:34 | 02:23:17 | 00:00:00 | |
| IW2NTF | 2026-09-05 11:59:27 | 44.28194 | 8.09898 | 161° | 66km/h | 12573m | -19.2m/s | -59.1°C | 42.9% | 0hPa | 2.7V | 08:20:44 | 02:23:07 | 00:00:00 | |
| IW2NTF | 2026-09-05 11:59:12 | 44.28374 | 8.09812 | 159° | 58km/h | 12805m | -20m/s | -61°C | 36.8% | 0hPa | 2.7V | 08:20:56 | 02:22:55 | 00:00:00 | |
| IW2NTF | 2026-09-05 11:59:05 | 44.28513 | 8.09736 | 155° | 55km/h | 13002m | -20.6m/s | -62.7°C | 35.3% | 0hPa | 2.6V | 08:21:06 | 02:22:45 | 00:00:00 | |
| IW2NTF | 2026-09-05 11:58:55 | 44.28643 | 8.09636 | 146° | 57km/h | 13201m | -20.9m/s | -63.9°C | 32.8% | 0hPa | 2.6V | 08:21:16 | 02:22:35 | 00:00:00 | |
| AUTORXJP | 2026-09-05 11:58:47 | 44.28681 | 8.09600 | 147° | 64km/h | 13263m | -20.9m/s | -64.4°C | 23.8% | -1.0hPa | 2.6V | 00:00:00 | 00:00:00 | 00:00:00 | |
| IW2NTF | 2026-09-05 11:58:45 | 44.28782 | 8.09518 | 149° | 69km/h | 13405m | -21m/s | -65.1°C | 30.3% | 0hPa | 2.6V | 08:21:26 | 02:22:25 | 00:00:00 | |
| IW2NTF | 2026-09-05 11:58:32 | 44.28918 | 8.09409 | 143° | 51km/h | 13610m | -21m/s | -64.5°C | 24.8% | 0hPa | 2.6V | 08:21:36 | 02:22:15 | 00:00:00 | |
| IW2NTF | 2026-09-05 11:58:25 | 44.29004 | 8.09298 | 128° | 44km/h | 13818m | -21.7m/s | -64.9°C | 23.4% | 0hPa | 2.6V | 08:21:46 | 02:22:05 | 00:00:00 | |
| AUTORXJP | 2026-09-05 11:58:16 | 44.29029 | 8.09247 | 121° | 49km/h | 13903m | -21.3m/s | -65.6°C | 15.7% | -1.0hPa | 2.6V | 00:00:00 | 00:00:00 | 00:00:00 | |
| IW2NTF | 2026-09-05 11:58:14 | 44.29077 | 8.09138 | 118° | 55km/h | 14049m | -21.4m/s | -66.7°C | 22% | 0hPa | 2.6V | 08:21:57 | 02:21:54 | 00:00:00 | |
| IW2NTF | 2026-09-05 11:57:53 | 44.29192 | 8.08668 | 117° | 75km/h | 14495m | -22m/s | -66.4°C | 14.8% | 0hPa | 2.6V | 08:22:18 | 02:21:33 | 00:00:00 | |
| AUTORXJP | 2026-09-05 11:57:45 | 44.29219 | 8.08603 | 120° | 71km/h | 14558m | -21.6m/s | -65.5°C | 7.0% | -1.0hPa | 2.6V | 00:00:00 | 00:00:00 | 00:00:00 | |
| IW2NTF | 2026-09-05 11:57:07 | 44.29429 | 8.07836 | 97° | 40km/h | 15528m | -24.6m/s | -62.1°C | 7.5% | 0hPa | 2.6V | 08:23:04 | 02:20:47 | 00:00:00 | |
| IW2NTF | 2026-09-05 11:56:55 | 44.29435 | 8.07647 | 88° | 49km/h | 15818m | -25.2m/s | -62.9°C | 7.6% | 0hPa | 2.6V | 08:23:16 | 02:20:35 | 00:00:00 | |
| IW2NTF | 2026-09-05 11:56:45 | 44.29464 | 8.07477 | 111° | 42km/h | 16064m | -25.1m/s | -63.1°C | 7.1% | 0hPa | 2.6V | 08:23:26 | 02:20:25 | 00:00:00 | |
| AUTORXJP | 2026-09-05 11:56:43 | 44.29456 | 8.07506 | 109° | 46km/h | 16015m | -24.7m/s | -62.9°C | 2.8% | -1.0hPa | 2.6V | 00:00:00 | 00:00:00 | 00:00:00 | |
| IW2NTF | 2026-09-05 11:56:33 | 44.29525 | 8.07340 | 135° | 35km/h | 16368m | -26.5m/s | -62.6°C | 6.5% | 0hPa | 2.6V | 08:23:38 | 02:20:13 | 00:00:00 | |
| AUTORXJP | 2026-09-05 11:56:12 | 44.29640 | 8.07144 | 127° | 57km/h | 16809m | -26.8m/s | -64.3°C | 2.5% | -1.0hPa | 2.7V | 00:00:00 | 00:00:00 | 00:00:00 | |
| AUTORXJP | 2026-09-05 11:55:41 | 44.29685 | 8.06802 | 75° | 51km/h | 17635m | -28.0m/s | -59.5°C | 1.4% | -1.0hPa | 2.7V | 00:00:00 | 00:00:00 | 00:00:00 | |
| AUTORXJP | 2026-09-05 11:55:10 | 44.29732 | 8.06532 | 146° | 24km/h | 18498m | -29.5m/s | -58.5°C | 1.2% | -1.0hPa | 2.7V | 00:00:00 | 00:00:00 | 00:00:00 | |
| AUTORXJP | 2026-09-05 11:54:38 | 44.29834 | 8.06398 | 143° | 9km/h | 19417m | -30.6m/s | -57.4°C | 1.1% | -1.0hPa | 2.7V | 00:00:00 | 00:00:00 | 00:00:00 | |
| IW2NTF | 2026-09-05 11:54:25 | 44.29828 | 8.06322 | 128° | 16km/h | 19882m | -32.4m/s | -56.3°C | 4.2% | 0hPa | 2.7V | 08:25:43 | 02:18:08 | 00:00:00 | |
| DB0UT-7 | 2026-09-05 11:54:19 | 44.29841 | 8.06313 | 184° | 11km/h | 20006m | -31.9m/s | -56.3°C | 4.3% | 0hPa | 2.6V | 00:00:00 | 02:18:04 | 00:00:00 | |
| IW2NTF | 2026-09-05 11:54:15 | 44.29846 | 8.06306 | 75° | 7km/h | 20200m | -33.4m/s | -55.9°C | 4% | 0hPa | 2.7V | 08:25:53 | 02:17:58 | 00:00:00 | |
| AUTORXJP | 2026-09-05 11:54:07 | 44.29837 | 8.06280 | 72° | 15km/h | 20393m | -33.5m/s | -56.2°C | 0.9% | -1.0hPa | 2.6V | 00:00:00 | 00:00:00 | 00:00:00 | |
| IW2NTF | 2026-09-05 11:54:06 | 44.29835 | 8.06267 | 27° | 4km/h | 20527m | -33.3m/s | -55.9°C | 4.1% | 0hPa | 2.6V | 08:26:03 | 02:17:48 | 00:00:00 | |
| IW2NTF | 2026-09-05 11:53:55 | 44.29811 | 8.06260 | 27° | 16km/h | 20856m | -33.6m/s | -57.3°C | 4.9% | 0hPa | 2.7V | 08:26:13 | 02:17:38 | 00:00:00 | |
| DB0UT-7 | 2026-09-05 11:53:49 | 44.29798 | 8.06240 | 64° | 15km/h | 20991m | -35.4m/s | -57.2°C | 4.9% | 0hPa | 2.6V | 00:00:00 | 00:00:00 | 00:00:00 | |
| IW2NTF | 2026-09-05 11:53:45 | 44.29803 | 8.06205 | 159° | 11km/h | 21203m | -35.5m/s | -55.6°C | 4.3% | 0hPa | 2.6V | 08:26:23 | 02:17:28 | 00:00:00 | |
| AUTORXJP | 2026-09-05 11:53:36 | 44.29814 | 8.06220 | 285° | 13km/h | 21455m | -35.9m/s | -54.9°C | 0.9% | -1.0hPa | 2.6V | 00:00:00 | 00:00:00 | 00:00:00 | |
| IW2NTF | 2026-09-05 11:53:35 | 44.29811 | 8.06232 | 301° | 11km/h | 21562m | -36.9m/s | -54.4°C | 4% | 0hPa | 2.6V | 08:26:33 | 02:17:18 | 00:00:00 | |
| IW2NTF | 2026-09-05 11:53:25 | 44.29779 | 8.06214 | 73° | 18km/h | 21929m | -37.5m/s | -53°C | 3.5% | 0hPa | 2.7V | 08:26:43 | 02:17:08 | 00:00:00 | |
| DB0UT-7 | 2026-09-05 11:53:19 | 44.29778 | 8.06192 | 118° | 13km/h | 22078m | -37.9m/s | -53.7°C | 3.8% | 0hPa | 2.6V | 00:00:00 | 02:17:04 | 00:00:00 | |
| DO3MHA-12 | 2026-09-05 11:53:18 | 44.29780 | 8.06189 | 143° | 7km/h | 22116m | -37.9m/s | -53.9°C | 3.8% | 0hPa | 2.6V | 00:00:00 | 02:17:03 | 00:00:00 | |
| IW2NTF | 2026-09-05 11:53:16 | 44.29789 | 8.06192 | 268° | 7km/h | 22375m | -37.8m/s | -54°C | 4.1% | 0hPa | 2.6V | 08:26:55 | 02:16:56 | 00:00:00 | |
| IW2NTF | 2026-09-05 11:53:05 | 44.29769 | 8.06161 | 106° | 16km/h | 22761m | -39.9m/s | -53.2°C | 3.8% | 0hPa | 2.7V | 08:27:05 | 02:16:46 | 00:00:00 | |
| DO3MHA-12 | 2026-09-05 11:53:05 | 44.29773 | 8.06186 | 52° | 16km/h | 22606m | -39.0m/s | -53.3°C | 3.9% | 0hPa | 2.6V | 00:00:00 | 02:16:50 | 00:00:00 | |
| IW2NTF | 2026-09-05 11:52:55 | 44.29793 | 8.06184 | 273° | 22km/h | 23153m | -40.3m/s | -51.5°C | 3.4% | 0hPa | 2.6V | 08:27:15 | 02:16:36 | 00:00:00 | |
| DO3MHA-12 | 2026-09-05 11:52:55 | 44.29786 | 8.06160 | 233° | 18km/h | 22998m | -38.5m/s | -52.2°C | 3.6% | 0hPa | 2.7V | 00:00:00 | 02:16:40 | 00:00:00 | |
| DB0UT-7 | 2026-09-05 11:52:49 | 44.29790 | 8.06197 | 312° | 16km/h | 23232m | -39.1m/s | -51.7°C | 3.4% | 0hPa | 2.7V | 08:27:00 | 00:00:00 | 00:00:00 | |
| IW2NTF | 2026-09-05 11:52:45 | 44.29754 | 8.06214 | 7° | 15km/h | 23559m | -43.3m/s | -52°C | 3.5% | 0hPa | 2.7V | 08:27:25 | 02:16:26 | 00:00:00 | |
| DO3MHA-12 | 2026-09-05 11:52:45 | 44.29772 | 8.06210 | 351° | 18km/h | 23391m | -41.5m/s | -51.7°C | 3.5% | 0hPa | 2.6V | 00:00:00 | 02:16:30 | 00:00:00 | |
| IW2NTF | 2026-09-05 11:52:35 | 44.29753 | 8.06224 | 223° | 15km/h | 24002m | -44.4m/s | -51.9°C | 3.6% | 0hPa | 2.6V | 08:27:35 | 02:16:16 | 00:00:00 | |
| AUTORXJP | 2026-09-05 11:52:34 | 44.29746 | 8.06216 | 236° | 9km/h | 23869m | -44.9m/s | -51.9°C | 0.7% | -1.0hPa | 2.6V | 00:00:00 | 00:00:00 | 00:00:00 | |
| IW2NTF | 2026-09-05 11:52:26 | 44.29739 | 8.06280 | 342° | 26km/h | 24447m | -44.8m/s | -51.8°C | 3.5% | 0hPa | 2.6V | 08:27:45 | 02:16:06 | 00:00:00 | |
| DB0UT-7 | 2026-09-05 11:52:19 | 44.29725 | 8.06285 | 349° | 13km/h | 24535m | -44.0m/s | -51.4°C | 3.6% | 0hPa | 2.6V | 00:00:00 | 02:16:04 | 00:00:00 | |
| IW2NTF | 2026-09-05 11:52:15 | 44.29682 | 8.06292 | 332° | 15km/h | 24897m | -47.9m/s | -51.2°C | 3.6% | 0hPa | 2.6V | 08:27:55 | 02:15:56 | 00:00:00 | |
| IW2NTF | 2026-09-05 11:52:06 | 44.29648 | 8.06285 | 5° | 2km/h | 25455m | -53.1m/s | -49.6°C | 3.4% | 0hPa | 2.7V | 08:28:06 | 02:15:45 | 00:00:00 | |
| AUTORXJP | 2026-09-05 11:52:03 | 44.29651 | 8.06290 | 42° | 9km/h | 25299m | -52.6m/s | -50.8°C | 0.7% | -1.0hPa | 2.7V | 00:00:00 | 00:00:00 | 00:00:00 | |
| IW2NTF | 2026-09-05 11:51:55 | 44.29641 | 8.06278 | 4° | 9km/h | 26002m | -56.7m/s | -47.7°C | 2.8% | 0hPa | 2.7V | 08:28:16 | 02:15:35 | 00:00:00 | |
| DB0UT-7 | 2026-09-05 11:51:49 | 44.29639 | 8.06277 | 10° | 20km/h | 26058m | -56.7m/s | -47.6°C | 2.8% | 0hPa | 2.7V | 00:00:00 | 00:00:00 | 00:00:00 | |
| IW2NTF | 2026-09-05 11:51:46 | 44.29608 | 8.06261 | 43° | 16km/h | 26522m | -44.3m/s | -47.6°C | 2.9% | 0hPa | 2.7V | 08:28:26 | 02:15:25 | 00:00:00 | |
| IW2NTF | 2026-09-05 11:51:35 | 44.29622 | 8.06233 | 214° | 15km/h | 27015m | -55.3m/s | -47.7°C | 3% | 0hPa | 2.7V | 08:28:36 | 02:15:15 | 00:00:00 | |
| AUTORXJP | 2026-09-05 11:51:32 | 44.29616 | 8.06227 | 222° | 9km/h | 26902m | -60.2m/s | -47.1°C | 0.4% | -1.0hPa | 2.6V | 00:00:00 | 00:00:00 | 00:00:00 | |
| IW2NTF | 2026-09-05 11:51:25 | 44.29585 | 8.06234 | 36° | 35km/h | 27567m | -58m/s | -47.1°C | 3% | 0hPa | 2.6V | 08:30:00 | 02:15:05 | 00:00:00 | |
| DB0UT-7 | 2026-09-05 11:51:19 | 44.29578 | 8.06226 | 42° | 18km/h | 27625m | -58.1m/s | -46.8°C | 2.9% | 0hPa | 2.7V | 00:00:00 | 02:15:04 | 00:00:00 | |
| IW2NTF | 2026-09-05 11:51:15 | 44.29570 | 8.06134 | 116° | 26km/h | 28162m | -63.1m/s | -45.8°C | 2.8% | 0hPa | 2.7V | 08:30:00 | 02:14:55 | 00:00:00 | |
| IW2NTF | 2026-09-05 11:51:05 | 44.29606 | 8.06105 | 213° | 11km/h | 28787m | -64.2m/s | -45.2°C | 2.7% | 0hPa | 2.7V | 08:30:00 | 02:14:45 | 00:00:00 | |
| AUTORXJP | 2026-09-05 11:51:01 | 44.29606 | 8.06105 | 213° | 11km/h | 28787m | -64.3m/s | -45.2°C | 0.4% | -1.0hPa | 2.6V | 00:00:00 | 00:00:00 | 00:00:00 | |
| IW2NTF | 2026-09-05 11:50:55 | 44.29605 | 8.06102 | 83° | 9km/h | 29453m | -69.5m/s | -44.4°C | 2.6% | 0hPa | 2.6V | 08:30:00 | 02:14:35 | 00:00:00 | |
| DO3MHA-12 | 2026-09-05 11:50:50 | 44.29606 | 8.06102 | 84° | 7km/h | 29453m | -69.4m/s | -44.3°C | 2.6% | 0hPa | 2.7V | 00:00:00 | 02:14:35 | 00:00:00 | |
| DB0UT-7 | 2026-09-05 11:50:49 | 44.29606 | 8.06099 | 111° | 13km/h | 29522m | -69.2m/s | -44.2°C | 2.6% | 0hPa | 2.7V | 00:00:00 | 00:00:00 | 00:00:00 | |
| IW2NTF | 2026-09-05 11:50:45 | 44.29621 | 8.06102 | 224° | 11km/h | 30131m | -62.4m/s | -43.2°C | 2.5% | 0hPa | 2.7V | 08:30:00 | 02:14:25 | 00:00:00 | |
| DO3MHA-12 | 2026-09-05 11:50:40 | 44.29621 | 8.06101 | 225° | 11km/h | 30132m | -62.3m/s | -43.1°C | 2.5% | 0hPa | 2.6V | 00:00:00 | 02:14:25 | 00:00:00 | |
| IW2NTF | 2026-09-05 11:50:35 | 44.29650 | 8.06125 | 166° | 22km/h | 30664m | -55.9m/s | -41.6°C | 2.3% | 0hPa | 2.6V | 08:30:00 | 02:14:15 | 00:00:00 | |
| AUTORXJP | 2026-09-05 11:50:30 | 44.29655 | 8.06124 | 170° | 15km/h | 30721m | -58.8m/s | -41.5°C | 0.3% | -1.0hPa | 2.6V | 00:00:00 | 00:00:00 | 00:00:00 | |
| IW2NTF | 2026-09-05 11:50:26 | 44.29679 | 8.06160 | 263° | 24km/h | 31255m | -58.6m/s | -38.5°C | 1.9% | 0hPa | 2.6V | 08:30:00 | 02:14:05 | 00:00:00 | |
| DO3MHA-12 | 2026-09-05 11:50:21 | 44.29678 | 8.06152 | 254° | 18km/h | 31197m | -58.5m/s | -38.9°C | 2.0% | 0hPa | 2.7V | 00:00:00 | 02:14:06 | 08:30:00 | |
| DB0UT-7 | 2026-09-05 11:50:19 | 44.29680 | 8.06169 | 265° | 18km/h | 31314m | -59.5m/s | -38.3°C | 1.9% | 0hPa | 2.7V | 00:00:00 | 02:14:04 | 00:00:00 | |
| IW2NTF | 2026-09-05 11:50:15 | 44.29676 | 8.06218 | 286° | 20km/h | 31835m | -59.4m/s | -38.7°C | 1.9% | 0hPa | 2.7V | 08:30:00 | 02:13:55 | 00:00:00 | |
| OE5DXL-15 | 2026-09-05 11:50:13 | 44.29677 | 8.06212 | 275° | 29km/h | 31777m | -57.8m/s | -39.0°C | 2.0% | 0hPa | 2.6V | 00:00:00 | 00:00:00 | 00:00:00 | |
| DO3MHA-12 | 2026-09-05 11:50:11 | 44.29677 | 8.06212 | 275° | 15km/h | 31777m | -57.8m/s | -39.0°C | 2.0% | 0hPa | 2.6V | 00:00:00 | 02:13:56 | 00:00:00 | |
| IW2NTF | 2026-09-05 11:50:05 | 44.29656 | 8.06289 | 28° | 7km/h | 32380m | -51.1m/s | -37.5°C | 1.9% | 0hPa | 2.6V | 08:30:00 | 02:13:45 | 00:00:00 | |
| AUTORXJP | 2026-09-05 11:49:59 | 44.29653 | 8.06284 | 70° | 13km/h | 32478m | -48.5m/s | -37.2°C | 0% | -1.0hPa | 2.7V | 00:00:00 | 00:00:00 | 00:00:00 | |
| DO3MHA-12 | 2026-09-05 11:49:58 | 44.29653 | 8.06284 | 71° | 13km/h | 32478m | -48.5m/s | -37.1°C | 1.8% | 0hPa | 2.7V | 00:00:00 | 02:13:43 | 00:00:00 | |
| IW2NTF | 2026-09-05 11:49:55 | 44.29637 | 8.06320 | 276° | 51km/h | 32932m | -48m/s | -36°C | 1.6% | 0hPa | 2.7V | 08:30:00 | 02:13:33 | 00:00:00 | |
| DB0UT-7 | 2026-09-05 11:49:49 | 44.29639 | 8.06303 | 278° | 16km/h | 32887m | -45.4m/s | -36.1°C | 1.6% | 0hPa | 2.7V | 00:00:00 | 00:00:00 | 00:00:00 | |
| IW2NTF | 2026-09-05 11:49:44 | 44.29623 | 8.06346 | 71° | 11km/h | 33298m | -10.2m/s | -36°C | 1.7% | 0hPa | 2.6V | 08:30:00 | 02:13:23 | 00:00:00 | |
| DO3MHA-12 | 2026-09-05 11:49:34 | 44.29623 | 8.06328 | 107° | 13km/h | 33302m | 4.9m/s | -36.0°C | 1.7% | 0hPa | 2.7V | 00:00:00 | 02:13:19 | 00:00:00 | |
| IW2NTF | 2026-09-05 11:49:32 | 44.29628 | 8.06344 | 275° | 15km/h | 33262m | 5.2m/s | -35.7°C | 1.7% | 0hPa | 2.7V | 08:30:00 | 02:13:12 | 00:00:00 | |
| OE5DXL-15 | 2026-09-05 11:49:29 | 44.29629 | 8.06339 | 277° | 13km/h | 33267m | 5.3m/s | -35.6°C | 1.7% | 0hPa | 2.6V | 00:00:00 | 00:00:00 | 00:00:00 | |
| AUTORXJP | 2026-09-05 11:49:28 | 44.29628 | 8.06344 | 275° | 13km/h | 33262m | 5.2m/s | -35.7°C | 0.2% | -1.0hPa | 2.6V | 00:00:00 | 00:00:00 | 00:00:00 | |
| DO3MHA-12 | 2026-09-05 11:49:24 | 44.29629 | 8.06352 | 201° | 9km/h | 33246m | 4.8m/s | -35.7°C | 1.6% | 0hPa | 2.6V | 00:00:00 | 02:13:09 | 00:00:00 | |
| IW2NTF | 2026-09-05 11:49:23 | 44.29613 | 8.06344 | 359° | 9km/h | 33207m | 5.5m/s | -36°C | 1.6% | 0hPa | 2.6V | 08:30:00 | 02:13:02 | 00:00:00 | |
| DB0UT-7 | 2026-09-05 11:49:19 | 44.29620 | 8.06345 | 13° | 13km/h | 33218m | 5.4m/s | -35.9°C | 1.7% | 0hPa | 2.7V | 00:00:00 | 02:13:04 | 00:00:00 | |
| DO3MHA-12 | 2026-09-05 11:49:14 | 44.29613 | 8.06347 | 228° | 11km/h | 33190m | 4.7m/s | -36.1°C | 1.7% | 0hPa | 2.7V | 00:00:00 | 02:12:59 | 00:00:00 | |
| IW2NTF | 2026-09-05 11:49:12 | 44.29604 | 8.06363 | 3° | 13km/h | 33151m | 6.1m/s | -36.3°C | 1.7% | 0hPa | 2.7V | 08:30:00 | 02:12:52 | 00:00:00 | |
| DO3MHA-12 | 2026-09-05 11:49:03 | 44.29593 | 8.06360 | 355° | 9km/h | 33132m | 4.1m/s | -36.4°C | 1.6% | 0hPa | 2.6V | 00:00:00 | 02:12:48 | 00:00:00 | |
| IW2NTF | 2026-09-05 11:49:02 | 44.29564 | 8.06378 | 330° | 15km/h | 33099m | 5.6m/s | -36.4°C | 1.7% | 0hPa | 2.6V | 08:30:00 | 02:12:42 | 00:00:00 | |
| AUTORXJP | 2026-09-05 11:48:57 | 44.29562 | 8.06380 | 336° | 5km/h | 33093m | 5.9m/s | -36.5°C | 0.2% | -1.0hPa | 2.7V | 00:00:00 | 00:00:00 | 00:00:00 | |
| DO3MHA-12 | 2026-09-05 11:48:53 | 44.29561 | 8.06375 | 69° | 7km/h | 33078m | 4.3m/s | -36.8°C | 1.7% | 0hPa | 2.7V | 00:00:00 | 02:12:38 | 00:00:00 | |
| IW2NTF | 2026-09-05 11:48:52 | 44.29535 | 8.06379 | 324° | 20km/h | 33045m | 5.4m/s | -36.9°C | 1.7% | 0hPa | 2.7V | 08:30:00 | 02:12:32 | 00:00:00 | |
| DB0UT-7 | 2026-09-05 11:48:49 | 44.29545 | 8.06373 | 345° | 11km/h | 33056m | 4.8m/s | -37.0°C | 1.7% | 0hPa | 2.6V | 00:00:00 | 00:00:00 | 00:00:00 | |
| IW2NTF | 2026-09-05 11:48:42 | 44.29531 | 8.06415 | 0° | 4km/h | 32989m | 6.4m/s | -36.9°C | 1.8% | 0hPa | 2.6V | 08:30:00 | 02:12:22 | 00:00:00 | |
| DO3MHA-12 | 2026-09-05 11:48:35 | 44.29530 | 8.06413 | 64° | 9km/h | 32977m | 4.9m/s | -37.0°C | 1.8% | 0hPa | 2.7V | 00:00:00 | 02:12:20 | 00:00:00 | |
| IW2NTF | 2026-09-05 11:48:32 | 44.29517 | 8.06431 | 228° | 7km/h | 32934m | 6.5m/s | -37.2°C | 1.8% | 0hPa | 2.7V | 08:30:00 | 02:12:12 | 00:00:00 | |
| OE5DXL-15 | 2026-09-05 11:48:31 | 44.29520 | 8.06420 | 313° | 13km/h | 32950m | 4.5m/s | -37.0°C | 1.8% | 0hPa | 2.7V | 00:00:00 | 00:00:00 | 00:00:00 | |
| AUTORXJP | 2026-09-05 11:48:25 | 44.29522 | 8.06430 | 155° | 13km/h | 32923m | 5.4m/s | -37.2°C | 0.2% | -1.0hPa | 2.7V | 00:00:00 | 00:00:00 | 00:00:00 | |
| IW2NTF | 2026-09-05 11:48:22 | 44.29514 | 8.06420 | 317° | 7km/h | 32878m | 5.4m/s | -37.2°C | 1.8% | 0hPa | 2.7V | 08:30:00 | 02:12:02 | 00:00:00 | |
| DO3MHA-12 | 2026-09-05 11:48:21 | 44.29525 | 8.06420 | 30° | 9km/h | 32901m | 5.7m/s | -37.4°C | 1.8% | 0hPa | 2.6V | 00:00:00 | 02:12:06 | 08:30:00 | |
| DB0UT-7 | 2026-09-05 11:48:19 | 44.29519 | 8.06418 | 360° | 11km/h | 32890m | 5.5m/s | -37.2°C | 1.8% | 0hPa | 2.7V | 00:00:00 | 02:12:04 | 08:30:00 | |
| IW2NTF | 2026-09-05 11:48:12 | 44.29518 | 8.06424 | 97° | 13km/h | 32822m | 4m/s | -37.6°C | 1.8% | 0hPa | 2.6V | 08:30:00 | 02:11:52 | 00:00:00 | |
| DO3MHA-12 | 2026-09-05 11:48:11 | 44.29514 | 8.06436 | 202° | 15km/h | 32846m | 5.5m/s | -37.5°C | 1.8% | 0hPa | 2.7V | 00:00:00 | 02:11:56 | 00:00:00 | |
| DO3MHA-12 | 2026-09-05 11:48:01 | 44.29495 | 8.06431 | 316° | 11km/h | 32790m | 5.1m/s | -37.8°C | 1.8% | 0hPa | 2.7V | 00:00:00 | 02:11:46 | 00:00:00 | |
| IW2NTF | 2026-09-05 11:47:59 | 44.29494 | 8.06443 | 173° | 11km/h | 32766m | 5.2m/s | -38°C | 1.8% | 0hPa | 2.7V | 08:30:00 | 02:11:42 | 00:00:00 | |
| AUTORXJP | 2026-09-05 11:47:55 | 44.29499 | 8.06440 | 17° | 0km/h | 32752m | 5.8m/s | -38.2°C | 0.3% | -1.0hPa | 2.6V | 00:00:00 | 00:00:00 | 00:00:00 | |
| OE5DXL-15 | 2026-09-05 11:47:54 | 44.29498 | 8.06441 | 336° | 18km/h | 32746m | 6.0m/s | -38.2°C | 1.8% | 0hPa | 2.6V | 00:00:00 | 00:00:00 | 00:00:00 | |
| IW2NTF | 2026-09-05 11:47:52 | 44.29468 | 8.06465 | 339° | 16km/h | 32712m | 5.9m/s | -38.1°C | 1.9% | 0hPa | 2.6V | 08:30:00 | 02:11:32 | 00:00:00 | |
| DO3MHA-12 | 2026-09-05 11:47:51 | 44.29490 | 8.06448 | 327° | 18km/h | 32734m | 5.7m/s | -38.3°C | 1.9% | 0hPa | 2.7V | 00:00:00 | 02:11:36 | 00:00:00 | |
| DB0UT-7 | 2026-09-05 11:47:49 | 44.29478 | 8.06458 | 329° | 16km/h | 32724m | 5.3m/s | -38.4°C | 1.9% | 0hPa | 2.7V | 00:00:00 | 00:00:00 | 00:00:00 | |
| IW2NTF | 2026-09-05 11:47:41 | 44.29441 | 8.06512 | 296° | 15km/h | 32647m | 5.3m/s | -38.2°C | 1.8% | 0hPa | 2.7V | 08:30:00 | 02:11:21 | 00:00:00 | |
| DO3MHA-12 | 2026-09-05 11:47:41 | 44.29452 | 8.06480 | 299° | 18km/h | 32677m | 5.8m/s | -38.1°C | 1.8% | 0hPa | 2.7V | 00:00:00 | 02:11:26 | 00:00:00 | |
| IW2NTF | 2026-09-05 11:47:31 | 44.29412 | 8.06544 | 348° | 16km/h | 32589m | 5.2m/s | -38.5°C | 1.8% | 0hPa | 2.7V | 08:30:00 | 02:11:11 | 00:00:00 | |
| AUTORXJP | 2026-09-05 11:47:23 | 44.29401 | 8.06557 | 298° | 24km/h | 32571m | 5.3m/s | -38.4°C | 0.3% | -1.0hPa | 2.6V | 00:00:00 | 00:00:00 | 00:00:00 | |
| IW2NTF | 2026-09-05 11:47:21 | 44.29389 | 8.06590 | 321° | 11km/h | 32529m | 6.4m/s | -38.9°C | 1.9% | 0hPa | 2.6V | 08:30:00 | 02:11:01 | 00:00:00 | |
| DO3MHA-12 | 2026-09-05 11:47:21 | 44.29396 | 8.06573 | 292° | 13km/h | 32560m | 6.3m/s | -38.5°C | 1.8% | 0hPa | 2.7V | 00:00:00 | 02:11:06 | 00:00:00 | |
| DB0UT-7 | 2026-09-05 11:47:15 | 44.29386 | 8.06593 | 320° | 15km/h | 32523m | 6.1m/s | -38.9°C | 1.9% | 0hPa | 2.7V | 00:00:00 | 02:11:00 | 00:00:00 | |
| IW2NTF | 2026-09-05 11:47:12 | 44.29359 | 8.06619 | 312° | 20km/h | 32469m | 6.4m/s | -38.9°C | 2% | 0hPa | 2.7V | 08:30:00 | 02:10:51 | 00:00:00 | |
| DO3MHA-12 | 2026-09-05 11:47:11 | 44.29375 | 8.06606 | 331° | 15km/h | 32501m | 6.9m/s | -38.9°C | 2.0% | 0hPa | 2.6V | 00:00:00 | 02:10:56 | 00:00:00 | |
| IW2NTF | 2026-09-05 11:47:02 | 44.29350 | 8.06647 | 316° | 13km/h | 32409m | 5.6m/s | -38.9°C | 1.9% | 0hPa | 2.6V | 08:30:00 | 02:10:41 | 00:00:00 | |
| AUTORXJP | 2026-09-05 11:46:52 | 44.29332 | 8.06653 | 4° | 22km/h | 32383m | 5.4m/s | -38.8°C | 0.2% | -1.0hPa | 2.6V | 00:00:00 | 00:00:00 | 00:00:00 | |
| IW2NTF | 2026-09-05 11:46:51 | 44.29313 | 8.06668 | 261° | 13km/h | 32349m | 4.8m/s | -39.1°C | 2% | 0hPa | 2.6V | 08:30:00 | 02:10:31 | 00:00:00 | |
| DO3MHA-12 | 2026-09-05 11:46:51 | 44.29326 | 8.06652 | 1° | 13km/h | 32379m | 4.7m/s | -38.8°C | 1.9% | 0hPa | 2.6V | 00:00:00 | 02:10:36 | 08:30:00 | |
| OE5DXL-15 | 2026-09-05 11:46:48 | 44.29313 | 8.06668 | 262° | 24km/h | 32349m | 4.7m/s | -39.1°C | 2.0% | 0hPa | 2.6V | 00:00:00 | 00:00:00 | 00:00:00 | |
| DB0UT-7 | 2026-09-05 11:46:45 | 44.29314 | 8.06671 | 244° | 22km/h | 32344m | 5.3m/s | -39.1°C | 2.0% | 0hPa | 2.6V | 00:00:00 | 00:00:00 | 00:00:00 | |
| IW2NTF | 2026-09-05 11:46:41 | 44.29275 | 8.06686 | 311° | 31km/h | 32288m | 5.8m/s | -39.3°C | 2% | 0hPa | 2.7V | 08:30:00 | 02:10:21 | 00:00:00 | |
| DO3MHA-12 | 2026-09-05 11:46:41 | 44.29308 | 8.06668 | 19° | 24km/h | 32319m | 5.8m/s | -39.2°C | 2.0% | 0hPa | 2.6V | 00:00:00 | 02:10:26 | 00:00:00 | |
| IW2NTF | 2026-09-05 11:46:31 | 44.29238 | 8.06724 | 319° | 33km/h | 32227m | 5.8m/s | -38.9°C | 2% | 0hPa | 2.6V | 08:30:00 | 02:10:11 | 00:00:00 | |
| DO3MHA-12 | 2026-09-05 11:46:31 | 44.29260 | 8.06709 | 1° | 24km/h | 32259m | 5.4m/s | -39.2°C | 2.0% | 0hPa | 2.6V | 00:00:00 | 02:10:16 | 00:00:00 | |
| IW2NTF | 2026-09-05 11:46:21 | 44.29206 | 8.06802 | 296° | 15km/h | 32167m | 6.8m/s | -38.6°C | 1.9% | 0hPa | 2.6V | 08:30:00 | 02:10:01 | 00:00:00 | |
| DO3MHA-12 | 2026-09-05 11:46:21 | 44.29214 | 8.06762 | 294° | 18km/h | 32198m | 5.1m/s | -38.7°C | 1.9% | 0hPa | 2.6V | 00:00:00 | 02:10:06 | 00:00:00 | |
| OE5DXL-15 | 2026-09-05 11:46:18 | 44.29208 | 8.06788 | 281° | 27km/h | 32179m | 5.5m/s | -38.5°C | 1.9% | 0hPa | 2.7V | 00:00:00 | 00:00:00 | 08:30:00 | |
| DB0UT-7 | 2026-09-05 11:46:15 | 44.29204 | 8.06806 | 320° | 24km/h | 32161m | 7.4m/s | -38.6°C | 1.9% | 0hPa | 2.7V | 00:00:00 | 02:10:00 | 00:00:00 | |
| IW2NTF | 2026-09-05 11:46:11 | 44.29180 | 8.06866 | 285° | 31km/h | 32105m | 6.6m/s | -38.4°C | 1.8% | 0hPa | 2.7V | 08:30:00 | 02:09:51 | 00:00:00 | |
| DO3MHA-12 | 2026-09-05 11:46:11 | 44.29192 | 8.06815 | 308° | 26km/h | 32137m | 6.7m/s | -38.3°C | 1.9% | 0hPa | 2.6V | 00:00:00 | 02:09:56 | 00:00:00 | |
| IW2NTF | 2026-09-05 11:46:01 | 44.29170 | 8.06933 | 277° | 20km/h | 32042m | 5.7m/s | -38.8°C | 1.8% | 0hPa | 2.6V | 08:30:00 | 02:09:41 | 00:00:00 | |
| DO3MHA-12 | 2026-09-05 11:46:01 | 44.29171 | 8.06900 | 280° | 20km/h | 32074m | 7.5m/s | -38.7°C | 1.8% | 0hPa | 2.6V | 00:00:00 | 02:09:46 | 00:00:00 | |
| IW2NTF | 2026-09-05 11:45:51 | 44.29172 | 8.07031 | 273° | 11km/h | 31982m | 5.3m/s | -40°C | 1.9% | 0hPa | 2.6V | 08:30:00 | 02:09:31 | 00:00:00 | |
| AUTORXJP | 2026-09-05 11:45:50 | 44.29172 | 8.06999 | 265° | 35km/h | 32007m | 4.5m/s | -39.2°C | 0.3% | -1.0hPa | 2.7V | 00:00:00 | 00:00:00 | 00:00:00 | |
| DB0UT-7 | 2026-09-05 11:45:45 | 44.29172 | 8.07034 | 256° | 27km/h | 31977m | 5.0m/s | -40.0°C | 2.0% | 0hPa | 2.7V | 00:00:00 | 00:00:00 | 00:00:00 | |
| IW2NTF | 2026-09-05 11:45:41 | 44.29192 | 8.07145 | 276° | 27km/h | 31910m | 4.8m/s | -40.3°C | 2.1% | 0hPa | 2.7V | 08:30:00 | 02:09:19 | 00:00:00 | |
| IW2NTF | 2026-09-05 11:45:27 | 44.29206 | 8.07216 | 254° | 44km/h | 31851m | 5.3m/s | -40.4°C | 2.1% | 0hPa | 2.7V | 08:30:00 | 02:09:09 | 00:00:00 | |
| AUTORXJP | 2026-09-05 11:45:19 | 44.29202 | 8.07272 | 300° | 18km/h | 31822m | 5.4m/s | -40.5°C | 0.3% | -1.0hPa | 2.6V | 00:00:00 | 00:00:00 | 00:00:00 | |
| IW2NTF | 2026-09-05 11:45:17 | 44.29202 | 8.07311 | 262° | 37km/h | 31793m | 5.9m/s | -40.3°C | 2.1% | 0hPa | 2.6V | 08:30:00 | 02:08:59 | 00:00:00 | |
| DB0UT-7 | 2026-09-05 11:45:16 | 44.29201 | 8.07299 | 260° | 33km/h | 31799m | 5.9m/s | -40.3°C | 2.1% | 0hPa | 2.7V | 00:00:00 | 02:09:00 | 00:00:00 | |
| IW2NTF | 2026-09-05 11:45:05 | 44.29197 | 8.07443 | 275° | 29km/h | 31733m | 6.6m/s | -40.1°C | 2% | 0hPa | 2.7V | 08:30:00 | 02:08:49 | 00:00:00 | |
| IW2NTF | 2026-09-05 11:44:55 | 44.29208 | 8.07570 | 272° | 35km/h | 31674m | 4.5m/s | -40°C | 2% | 0hPa | 2.6V | 08:30:00 | 02:08:39 | 00:00:00 | |
| AUTORXJP | 2026-09-05 11:44:48 | 44.29209 | 8.07614 | 258° | 18km/h | 31639m | 4.8m/s | -39.9°C | 0.3% | -1.0hPa | 2.7V | 00:00:00 | 00:00:00 | 00:00:00 | |
| IW2NTF | 2026-09-05 11:44:45 | 44.29212 | 8.07657 | 262° | 40km/h | 31615m | 5.7m/s | -40°C | 2% | 0hPa | 2.7V | 08:30:00 | 02:08:29 | 00:00:00 | |
| DB0UT-7 | 2026-09-05 11:44:45 | 44.29211 | 8.07644 | 267° | 24km/h | 31621m | 5.8m/s | -40.0°C | 2.1% | 0hPa | 2.7V | 00:00:00 | 00:00:00 | 00:00:00 | |
| IW2NTF | 2026-09-05 11:44:36 | 44.29230 | 8.07732 | 198° | 13km/h | 31556m | 5.7m/s | -39.9°C | 2% | 0hPa | 2.7V | 08:30:00 | 02:08:19 | 00:00:00 | |
| IW2NTF | 2026-09-05 11:44:25 | 44.29266 | 8.07807 | 224° | 22km/h | 31498m | 5.8m/s | -39.6°C | 1.9% | 0hPa | 2.6V | 08:30:00 | 02:08:09 | 00:00:00 | |
| DO3MHA-12 | 2026-09-05 11:44:23 | 44.29269 | 8.07812 | 232° | 20km/h | 31493m | 6.4m/s | -39.6°C | 2.0% | 0hPa | 2.7V | 00:00:00 | 02:08:08 | 00:00:00 | |
| IW2NTF | 2026-09-05 11:44:15 | 44.29306 | 8.07864 | 235° | 27km/h | 31440m | 6.5m/s | -39.5°C | 1.9% | 0hPa | 2.7V | 08:30:00 | 02:07:59 | 00:00:00 | |
| DB0UT-7 | 2026-09-05 11:44:15 | 44.29301 | 8.07856 | 227° | 24km/h | 31446m | 6.3m/s | -39.5°C | 1.9% | 0hPa | 2.7V | 00:00:00 | 02:08:00 | 00:00:00 | |
| DO3MHA-12 | 2026-09-05 11:44:13 | 44.29309 | 8.07872 | 244° | 22km/h | 31434m | 4.9m/s | -39.6°C | 2.0% | 0hPa | 2.7V | 00:00:00 | 02:07:58 | 00:00:00 | |
| IW2NTF | 2026-09-05 11:44:05 | 44.29351 | 8.07913 | 212° | 20km/h | 31383m | 5.5m/s | -39.6°C | 1.9% | 0hPa | 2.7V | 08:30:00 | 02:07:49 | 00:00:00 | |
| IW2NTF | 2026-09-05 11:43:55 | 44.29394 | 8.07955 | 202° | 24km/h | 31327m | 6.3m/s | -39.9°C | 1.9% | 0hPa | 2.6V | 08:30:00 | 02:07:39 | 00:00:00 | |
| IW2NTF | 2026-09-05 11:43:48 | 44.29473 | 8.07972 | 207° | 16km/h | 31255m | 6.7m/s | -40.6°C | 2% | 0hPa | 2.6V | 08:30:00 | 02:07:27 | 00:00:00 | |
| AUTORXJP | 2026-09-05 11:43:46 | 44.29458 | 8.07966 | 189° | 24km/h | 31273m | 5.8m/s | -40.5°C | 0.3% | -1.0hPa | 2.6V | 00:00:00 | 00:00:00 | 00:00:00 | |
| OE5DXL-15 | 2026-09-05 11:43:45 | 44.29464 | 8.07968 | 194° | 27km/h | 31268m | 5.4m/s | 0°C | 0% | 0hPa | 2.6V | 00:00:00 | 00:00:00 | 00:00:00 | |
| DB0UT-7 | 2026-09-05 11:43:44 | 44.29464 | 8.07968 | 194° | 27km/h | 31268m | 5.4m/s | -40.6°C | 2.0% | 0hPa | 2.6V | 00:00:00 | 00:00:00 | 08:30:00 | |
| IW2NTF | 2026-09-05 11:43:35 | 44.29540 | 8.07976 | 187° | 29km/h | 31197m | 5.5m/s | -41.2°C | 2.1% | 0hPa | 2.7V | 08:30:00 | 02:07:17 | 00:00:00 | |
| IW2NTF | 2026-09-05 11:43:25 | 44.29602 | 8.07990 | 171° | 35km/h | 31139m | 7.1m/s | -42.2°C | 2.2% | 0hPa | 2.7V | 08:30:00 | 02:07:07 | 00:00:00 | |
| IW2NTF | 2026-09-05 11:43:16 | 44.29667 | 8.07978 | 181° | 20km/h | 31084m | 6.3m/s | -42.5°C | 2.2% | 0hPa | 2.6V | 08:30:00 | 02:06:57 | 00:00:00 | |
| AUTORXJP | 2026-09-05 11:43:15 | 44.29659 | 8.07975 | 202° | 15km/h | 31095m | 4.9m/s | -42.4°C | 0.3% | -1.0hPa | 2.7V | 00:00:00 | 00:00:00 | 00:00:00 | |
| DB0UT-7 | 2026-09-05 11:43:14 | 44.29659 | 8.07975 | 203° | 18km/h | 31095m | 4.9m/s | -42.4°C | 2.2% | 0hPa | 2.7V | 00:00:00 | 02:06:59 | 00:00:00 | |
| IW2NTF | 2026-09-05 11:43:06 | 44.29720 | 8.07965 | 198° | 20km/h | 31027m | 6.5m/s | -42.4°C | 2.3% | 0hPa | 2.7V | 08:30:00 | 02:06:47 | 00:00:00 | |
| IW2NTF | 2026-09-05 11:42:56 | 44.29753 | 8.07956 | 162° | 15km/h | 30970m | 5.7m/s | -42.2°C | 2.2% | 0hPa | 2.7V | 08:30:00 | 02:06:37 | 00:00:00 | |
| IW2NTF | 2026-09-05 11:42:45 | 44.29780 | 8.07991 | 200° | 13km/h | 30914m | 4.6m/s | -42.3°C | 2.2% | 0hPa | 2.7V | 08:30:00 | 02:06:27 | 00:00:00 | |
| AUTORXJP | 2026-09-05 11:42:44 | 44.29777 | 8.07989 | 215° | 15km/h | 30920m | 5.4m/s | -42.4°C | 0.3% | -1.0hPa | 2.6V | 00:00:00 | 00:00:00 | 00:00:00 | |
| IW2NTF | 2026-09-05 11:42:35 | 44.29791 | 8.08030 | 224° | 22km/h | 30860m | 4.9m/s | -42.3°C | 2.2% | 0hPa | 2.6V | 08:30:00 | 02:06:17 | 00:00:00 | |
| IW2NTF | 2026-09-05 11:42:25 | 44.29791 | 8.08073 | 217° | 16km/h | 30803m | 6.4m/s | -42.4°C | 2.3% | 0hPa | 2.7V | 08:30:00 | 02:06:07 | 00:00:00 | |
| IW2NTF | 2026-09-05 11:42:16 | 44.29802 | 8.08103 | 279° | 4km/h | 30746m | 5.2m/s | -42.9°C | 2.3% | 0hPa | 2.7V | 08:30:00 | 02:05:57 | 00:00:00 | |
| DB0UT-7 | 2026-09-05 11:42:14 | 44.29802 | 8.08100 | 295° | 11km/h | 30758m | 6.2m/s | -42.7°C | 2.3% | 0hPa | 2.6V | 00:00:00 | 02:05:59 | 00:00:00 | |
| AUTORXJP | 2026-09-05 11:42:13 | 44.29802 | 8.08103 | 279° | 4km/h | 30746m | 5.2m/s | -42.9°C | 0.4% | -1.0hPa | 2.7V | 00:00:00 | 00:00:00 | 00:00:00 | |
| OE5DXL-15 | 2026-09-05 11:42:12 | 44.29801 | 8.08103 | 280° | 15km/h | 30746m | 5.2m/s | 0°C | 0% | 0hPa | 2.7V | 00:00:00 | 02:05:57 | 00:00:00 | |
| IW2NTF | 2026-09-05 11:42:05 | 44.29823 | 8.08148 | 252° | 15km/h | 30688m | 5.5m/s | -42.5°C | 2.3% | 0hPa | 2.7V | 08:30:00 | 02:05:47 | 00:00:00 | |
| IW2NTF | 2026-09-05 11:41:55 | 44.29827 | 8.08174 | 246° | 22km/h | 30631m | 4.7m/s | -42.2°C | 2.2% | 0hPa | 2.6V | 08:30:00 | 02:05:37 | 00:00:00 | |
| IW2NTF | 2026-09-05 11:41:45 | 44.29835 | 8.08208 | 271° | 15km/h | 30577m | 4.8m/s | -42.1°C | 2.2% | 0hPa | 2.7V | 08:30:00 | 02:05:27 | 00:00:00 | |
| DB0UT-7 | 2026-09-05 11:41:44 | 44.29837 | 8.08199 | 304° | 15km/h | 30588m | 5.5m/s | -42.1°C | 2.2% | 0hPa | 2.7V | 00:00:00 | 00:00:00 | 00:00:00 | |
| AUTORXJP | 2026-09-05 11:41:41 | 44.29836 | 8.08213 | 248° | 13km/h | 30573m | 5.6m/s | -42.0°C | 0.3% | -1.0hPa | 2.7V | 00:00:00 | 00:00:00 | 00:00:00 | |
| OE5DXL-15 | 2026-09-05 11:41:40 | 44.29838 | 8.08217 | 223° | 13km/h | 30567m | 6.2m/s | 0°C | 0% | 0hPa | 2.7V | 00:00:00 | 00:00:00 | 00:00:00 | |
| IW2NTF | 2026-09-05 11:41:37 | 44.29856 | 8.08243 | 247° | 18km/h | 30522m | 5.6m/s | -42.2°C | 2.2% | 0hPa | 2.7V | 08:30:00 | 02:05:17 | 00:00:00 | |
| DO3MHA-12 | 2026-09-05 11:41:33 | 44.29854 | 8.08237 | 252° | 13km/h | 30529m | 5.6m/s | -42.1°C | 2.2% | 0hPa | 2.7V | 00:00:00 | 02:05:18 | 00:00:00 | |
| IW2NTF | 2026-09-05 11:41:25 | 44.29873 | 8.08271 | 204° | 29km/h | 30470m | 6.3m/s | -42.9°C | 2.2% | 0hPa | 2.7V | 08:30:00 | 02:05:07 | 00:00:00 | |
| DO3MHA-12 | 2026-09-05 11:41:20 | 44.29888 | 8.08277 | 190° | 18km/h | 30460m | 4.5m/s | -42.9°C | 2.2% | 0hPa | 2.7V | 00:00:00 | 02:05:05 | 08:30:00 | |
| IW2NTF | 2026-09-05 11:41:15 | 44.29907 | 8.08293 | 211° | 11km/h | 30415m | 5.3m/s | -43.5°C | 2.3% | 0hPa | 2.6V | 08:30:00 | 02:04:57 | 00:00:00 | |
| DB0UT-7 | 2026-09-05 11:41:14 | 44.29904 | 8.08287 | 263° | 16km/h | 30426m | 5.6m/s | -43.5°C | 2.3% | 0hPa | 2.6V | 00:00:00 | 02:04:59 | 00:00:00 | |
| AUTORXJP | 2026-09-05 11:41:10 | 44.29914 | 8.08295 | 170° | 16km/h | 30403m | 6.5m/s | -43.6°C | 0.4% | -1.0hPa | 2.6V | 00:00:00 | 00:00:00 | 00:00:00 | |
| DO3MHA-12 | 2026-09-05 11:41:07 | 44.29930 | 8.08288 | 167° | 13km/h | 30387m | 4.6m/s | -43.5°C | 2.3% | 0hPa | 2.6V | 00:00:00 | 02:04:52 | 00:00:00 | |
| IW2NTF | 2026-09-05 11:41:05 | 44.29959 | 8.08291 | 188° | 16km/h | 30358m | 6.2m/s | -43.6°C | 2.3% | 0hPa | 2.6V | 08:30:00 | 02:04:47 | 00:00:00 | |
| IW2NTF | 2026-09-05 11:40:55 | 44.29991 | 8.08280 | 170° | 20km/h | 30299m | 5.1m/s | -44°C | 2.4% | 0hPa | 2.7V | 08:30:00 | 02:04:37 | 00:00:00 | |
| DO3MHA-12 | 2026-09-05 11:40:55 | 44.29976 | 8.08282 | 174° | 18km/h | 30317m | 5.1m/s | -43.9°C | 2.3% | 0hPa | 2.7V | 00:00:00 | 02:04:40 | 00:00:00 | |
| IW2NTF | 2026-09-05 11:40:46 | 44.30019 | 8.08269 | 114° | 15km/h | 30243m | 6.7m/s | -44.7°C | 2.4% | 0hPa | 2.7V | 08:30:00 | 02:04:27 | 00:00:00 | |
| DB0UT-7 | 2026-09-05 11:40:44 | 44.30018 | 8.08278 | 89° | 15km/h | 30255m | 5.1m/s | -44.6°C | 2.5% | 0hPa | 2.6V | 00:00:00 | 00:00:00 | 00:00:00 | |
| AUTORXJP | 2026-09-05 11:40:39 | 44.30030 | 8.08256 | 145° | 22km/h | 30226m | 5.4m/s | -44.8°C | 0.4% | -1.0hPa | 2.7V | 00:00:00 | 00:00:00 | 00:00:00 | |
| IW2NTF | 2026-09-05 11:40:35 | 44.30052 | 8.08222 | 141° | 7km/h | 30186m | 6.1m/s | -45.2°C | 2.5% | 0hPa | 2.7V | 08:30:00 | 02:04:17 | 00:00:00 | |
| DO3MHA-12 | 2026-09-05 11:40:32 | 44.30052 | 8.08222 | 142° | 7km/h | 30186m | 6.0m/s | -45.1°C | 2.5% | 0hPa | 2.7V | 00:00:00 | 02:04:17 | 00:00:00 | |
| IW2NTF | 2026-09-05 11:40:25 | 44.30053 | 8.08203 | 124° | 11km/h | 30130m | 4.5m/s | -45.3°C | 2.6% | 0hPa | 2.6V | 08:30:00 | 02:04:07 | 00:00:00 | |
| DO3MHA-12 | 2026-09-05 11:40:21 | 44.30054 | 8.08199 | 99° | 16km/h | 30126m | 6.0m/s | -45.3°C | 2.6% | 0hPa | 2.7V | 00:00:00 | 02:04:06 | 00:00:00 | |
| IW2NTF | 2026-09-05 11:40:16 | 44.30047 | 8.08152 | 319° | 7km/h | 30060m | 5.7m/s | -45.1°C | 2.5% | 0hPa | 2.7V | 08:30:00 | 02:03:55 | 00:00:00 | |
| DB0UT-7 | 2026-09-05 11:40:14 | 44.30047 | 8.08148 | 107° | 9km/h | 30083m | 6.0m/s | -45.1°C | 2.5% | 0hPa | 2.6V | 00:00:00 | 02:03:59 | 00:00:00 | |
| AUTORXJP | 2026-09-05 11:40:08 | 44.30043 | 8.08153 | 24° | 9km/h | 30048m | 5.7m/s | -45.3°C | 0.4% | -1.0hPa | 2.6V | 00:00:00 | 00:00:00 | 00:00:00 | |
| IW2NTF | 2026-09-05 11:40:05 | 44.30045 | 8.08126 | 65° | 9km/h | 30003m | 5.8m/s | -45.5°C | 2.6% | 0hPa | 2.6V | 08:30:00 | 02:03:45 | 00:00:00 | |
| IW2NTF | 2026-09-05 11:39:55 | 44.30040 | 8.08149 | 83° | 5km/h | 29947m | 5.5m/s | -45.6°C | 2.7% | 0hPa | 2.6V | 08:30:00 | 02:03:35 | 00:00:00 | |
| DB0UT-7 | 2026-09-05 11:39:44 | 44.30045 | 8.08128 | 70° | 13km/h | 29911m | 6.2m/s | -45.4°C | 2.6% | 0hPa | 2.6V | 00:00:00 | 00:00:00 | 00:00:00 | |
| IW2NTF | 2026-09-05 11:39:43 | 44.30041 | 8.08136 | 274° | 11km/h | 29876m | 5m/s | -45.5°C | 2.7% | 0hPa | 2.6V | 08:30:00 | 02:03:23 | 00:00:00 | |
| AUTORXJP | 2026-09-05 11:39:37 | 44.30040 | 8.08139 | 301° | 5km/h | 29870m | 6.4m/s | -45.4°C | 0.5% | -1.0hPa | 2.6V | 00:00:00 | 00:00:00 | 00:00:00 | |
| IW2NTF | 2026-09-05 11:39:33 | 44.30038 | 8.08105 | 76° | 7km/h | 29816m | 6.4m/s | -45.2°C | 2.5% | 0hPa | 2.6V | 08:30:00 | 02:03:13 | 00:00:00 | |
| IW2NTF | 2026-09-05 11:39:24 | 44.30031 | 8.08101 | 98° | 26km/h | 29757m | 6m/s | -45.2°C | 2.5% | 0hPa | 2.7V | 08:30:00 | 02:03:03 | 00:00:00 | |
| DB0UT-7 | 2026-09-05 11:39:14 | 44.30041 | 8.08071 | 123° | 16km/h | 29736m | 5.3m/s | -45.2°C | 2.5% | 0hPa | 2.7V | 00:00:00 | 02:02:59 | 08:30:00 | |
| IW2NTF | 2026-09-05 11:39:13 | 44.30045 | 8.08072 | 239° | 15km/h | 29700m | 6.3m/s | -45.4°C | 2.5% | 0hPa | 2.7V | 08:30:00 | 02:02:53 | 00:00:00 | |
| AUTORXJP | 2026-09-05 11:39:06 | 44.30051 | 8.08078 | 195° | 15km/h | 29690m | 4.1m/s | -45.6°C | 0.5% | -1.0hPa | 2.6V | 00:00:00 | 00:00:00 | 00:00:00 | |
| IW2NTF | 2026-09-05 11:39:03 | 44.30073 | 8.08031 | 142° | 13km/h | 29642m | 5.5m/s | -45.6°C | 2.6% | 0hPa | 2.6V | 08:30:00 | 02:02:43 | 00:00:00 | |
| IW2NTF | 2026-09-05 11:38:53 | 44.30104 | 8.08032 | 137° | 16km/h | 29588m | 6.1m/s | -46°C | 2.7% | 0hPa | 2.7V | 08:30:00 | 02:02:33 | 00:00:00 | |
| DB0UT-7 | 2026-09-05 11:38:44 | 44.30107 | 8.08004 | 90° | 18km/h | 29563m | 5.4m/s | -45.7°C | 2.7% | 0hPa | 2.7V | 00:00:00 | 00:00:00 | 00:00:00 | |
| IW2NTF | 2026-09-05 11:38:43 | 44.30120 | 8.07980 | 159° | 11km/h | 29526m | 5.8m/s | -45.6°C | 2.6% | 0hPa | 2.7V | 08:30:00 | 02:02:23 | 00:00:00 | |
| AUTORXJP | 2026-09-05 11:38:35 | 44.30130 | 8.07977 | 167° | 15km/h | 29508m | 6.3m/s | -45.4°C | 0.5% | -1.0hPa | 2.7V | 00:00:00 | 00:00:00 | 00:00:00 | |
| IW2NTF | 2026-09-05 11:38:33 | 44.30138 | 8.07939 | 93° | 13km/h | 29468m | 6.2m/s | -45.5°C | 2.6% | 0hPa | 2.7V | 08:30:00 | 02:02:13 | 00:00:00 | |
| DO3MHA-12 | 2026-09-05 11:38:29 | 44.30138 | 8.07945 | 86° | 27km/h | 29474m | 4.9m/s | -45.4°C | 2.6% | 0hPa | 2.7V | 00:00:00 | 02:02:14 | 00:00:00 | |
| IW2NTF | 2026-09-05 11:38:23 | 44.30170 | 8.07938 | 150° | 31km/h | 29409m | 6.1m/s | -45.5°C | 2.7% | 0hPa | 2.7V | 08:30:00 | 02:02:03 | 00:00:00 | |
| DO3MHA-12 | 2026-09-05 11:38:16 | 44.30183 | 8.07923 | 134° | 18km/h | 29398m | 5.4m/s | -45.3°C | 2.7% | 0hPa | 2.7V | 00:00:00 | 02:02:01 | 00:00:00 | |
| DB0UT-7 | 2026-09-05 11:38:14 | 44.30191 | 8.07906 | 115° | 20km/h | 29386m | 5.3m/s | -45.1°C | 2.6% | 0hPa | 2.6V | 00:00:00 | 02:01:59 | 00:00:00 | |
| IW2NTF | 2026-09-05 11:38:13 | 44.30207 | 8.07904 | 220° | 20km/h | 29351m | 5.2m/s | -45°C | 2.5% | 0hPa | 2.6V | 08:30:00 | 02:01:53 | 00:00:00 | |
| DO3MHA-12 | 2026-09-05 11:38:05 | 44.30218 | 8.07910 | 164° | 24km/h | 29335m | 5.2m/s | -44.9°C | 2.6% | 0hPa | 2.6V | 00:00:00 | 02:01:50 | 00:00:00 | |
| AUTORXJP | 2026-09-05 11:38:04 | 44.30222 | 8.07908 | 144° | 20km/h | 29329m | 5.7m/s | -45.0°C | 0.5% | -1.0hPa | 2.6V | 00:00:00 | 00:00:00 | 00:00:00 | |
| IW2NTF | 2026-09-05 11:38:03 | 44.30255 | 8.07864 | 133° | 22km/h | 29294m | 6m/s | -45.2°C | 2.6% | 0hPa | 2.6V | 08:30:00 | 02:01:43 | 00:00:00 | |
| DO3MHA-12 | 2026-09-05 11:37:55 | 44.30265 | 8.07859 | 202° | 18km/h | 29278m | 7.0m/s | -45.0°C | 2.5% | 0hPa | 2.6V | 00:00:00 | 02:01:40 | 00:00:00 | |
| IW2NTF | 2026-09-05 11:37:53 | 44.30293 | 8.07870 | 117° | 18km/h | 29238m | 5.5m/s | -44.9°C | 2.5% | 0hPa | 2.6V | 08:30:00 | 02:01:33 | 00:00:00 | |
| DO3MHA-12 | 2026-09-05 11:37:45 | 44.30301 | 8.07850 | 136° | 18km/h | 29222m | 6.3m/s | -44.8°C | 2.6% | 0hPa | 2.7V | 00:00:00 | 02:01:30 | 08:30:00 | |
| DB0UT-7 | 2026-09-05 11:37:44 | 44.30306 | 8.07845 | 153° | 22km/h | 29216m | 5.7m/s | -44.8°C | 2.5% | 0hPa | 2.6V | 00:00:00 | 00:00:00 | 00:00:00 | |
| IW2NTF | 2026-09-05 11:37:43 | 44.30331 | 8.07843 | 165° | 7km/h | 29182m | 4.6m/s | -45.1°C | 2.5% | 0hPa | 2.6V | 08:30:00 | 02:01:23 | 00:00:00 | |
| DO3MHA-12 | 2026-09-05 11:37:35 | 44.30339 | 8.07835 | 139° | 22km/h | 29164m | 5.6m/s | -44.9°C | 2.5% | 0hPa | 2.7V | 00:00:00 | 02:01:20 | 00:00:00 | |
| IW2NTF | 2026-09-05 11:37:34 | 44.30367 | 8.07796 | 161° | 27km/h | 29125m | 6.7m/s | -45.3°C | 2.6% | 0hPa | 2.7V | 08:30:00 | 02:01:13 | 00:00:00 | |
| AUTORXJP | 2026-09-05 11:37:33 | 44.30350 | 8.07818 | 123° | 22km/h | 29147m | 5.5m/s | -45.0°C | 0.4% | -1.0hPa | 2.7V | 00:00:00 | 00:00:00 | 00:00:00 | |
| IW2NTF | 2026-09-05 11:37:23 | 44.30410 | 8.07764 | 121° | 29km/h | 29068m | 5.6m/s | -45.4°C | 2.5% | 0hPa | 2.7V | 08:30:00 | 02:01:03 | 00:00:00 | |
| DB0UT-7 | 2026-09-05 11:37:14 | 44.30429 | 8.07732 | 141° | 22km/h | 29047m | 5.0m/s | -45.5°C | 2.6% | 0hPa | 2.6V | 00:00:00 | 02:00:59 | 00:00:00 | |
| IW2NTF | 2026-09-05 11:37:11 | 44.30465 | 8.07695 | 102° | 18km/h | 29003m | 4.4m/s | -45.8°C | 2.6% | 0hPa | 2.6V | 08:30:00 | 02:00:51 | 00:00:00 | |
| IW2NTF | 2026-09-05 11:37:02 | 44.30503 | 8.07620 | 137° | 11km/h | 28947m | 6.3m/s | -46°C | 2.7% | 0hPa | 2.6V | 08:30:00 | 02:00:41 | 00:00:00 | |
| IW2NTF | 2026-09-05 11:36:49 | 44.30530 | 8.07550 | 126° | 18km/h | 28879m | 6.2m/s | -46°C | 2.7% | 0hPa | 2.7V | 08:30:00 | 02:00:29 | 00:00:00 | |
| DB0UT-7 | 2026-09-05 11:36:40 | 44.30540 | 8.07538 | 154° | 20km/h | 28856m | 5.3m/s | -45.9°C | 2.7% | 0hPa | 2.6V | 00:00:00 | 00:00:00 | 00:00:00 | |
| IW2NTF | 2026-09-05 11:36:39 | 44.30550 | 8.07507 | 107° | 27km/h | 28823m | 6.4m/s | -46.2°C | 2.8% | 0hPa | 2.6V | 08:30:00 | 02:00:19 | 00:00:00 | |
| AUTORXJP | 2026-09-05 11:36:31 | 44.30567 | 8.07471 | 132° | 27km/h | 28802m | 6.0m/s | -46.0°C | 0.5% | -1.0hPa | 2.6V | 00:00:00 | 00:00:00 | 00:00:00 | |
| IW2NTF | 2026-09-05 11:36:29 | 44.30579 | 8.07449 | 123° | 15km/h | 28769m | 5.7m/s | -45.8°C | 2.6% | 0hPa | 2.6V | 08:30:00 | 02:00:09 | 00:00:00 | |
| IW2NTF | 2026-09-05 11:36:19 | 44.30593 | 8.07382 | 125° | 20km/h | 28715m | 4.3m/s | -45.7°C | 2.7% | 0hPa | 2.6V | 08:30:00 | 01:59:59 | 00:00:00 | |
| DB0UT-7 | 2026-09-05 11:36:10 | 44.30601 | 8.07357 | 102° | 27km/h | 28694m | 4.9m/s | -45.8°C | 2.6% | 0hPa | 2.7V | 00:00:00 | 01:59:55 | 00:00:00 | |
| IW2NTF | 2026-09-05 11:36:09 | 44.30609 | 8.07311 | 88° | 27km/h | 28661m | 6m/s | -46°C | 2.7% | 0hPa | 2.7V | 08:30:00 | 01:59:49 | 00:00:00 | |
| AUTORXJP | 2026-09-05 11:36:00 | 44.30612 | 8.07263 | 115° | 27km/h | 28634m | 5.4m/s | -46.0°C | 0.5% | -1.0hPa | 2.6V | 00:00:00 | 00:00:00 | 00:00:00 | |
| IW2NTF | 2026-09-05 11:35:59 | 44.30624 | 8.07211 | 100° | 33km/h | 28607m | 5.1m/s | -46.1°C | 2.7% | 0hPa | 2.6V | 08:30:00 | 01:59:39 | 00:00:00 | |
| IW2NTF | 2026-09-05 11:35:49 | 44.30636 | 8.07106 | 106° | 27km/h | 28551m | 5.1m/s | -46°C | 2.7% | 0hPa | 2.6V | 08:30:00 | 01:59:29 | 00:00:00 | |
| IW2NTF | 2026-09-05 11:35:42 | 44.30645 | 8.07008 | 97° | 26km/h | 28499m | 5.5m/s | -45.9°C | 2.7% | 0hPa | 2.7V | 08:30:00 | 01:59:19 | 00:00:00 | |
| DB0UT-7 | 2026-09-05 11:35:40 | 44.30641 | 8.07067 | 88° | 26km/h | 28531m | 5.0m/s | -46.0°C | 2.7% | 0hPa | 2.6V | 00:00:00 | 00:00:00 | 00:00:00 | |
| IW2NTF | 2026-09-05 11:35:29 | 44.30643 | 8.06930 | 60° | 15km/h | 28449m | 5m/s | -45.7°C | 2.6% | 0hPa | 2.6V | 08:30:00 | 01:59:09 | 00:00:00 | |
| AUTORXJP | 2026-09-05 11:35:29 | 44.30643 | 8.06950 | 96° | 20km/h | 28469m | 5.5m/s | -45.7°C | 0.5% | -1.0hPa | 2.6V | 00:00:00 | 00:00:00 | 00:00:00 | |
| IW2NTF | 2026-09-05 11:35:19 | 44.30622 | 8.06838 | 63° | 24km/h | 28399m | 4.5m/s | -46°C | 2.7% | 0hPa | 2.6V | 08:30:00 | 01:58:59 | 00:00:00 | |
| DB0UT-7 | 2026-09-05 11:35:10 | 44.30616 | 8.06807 | 86° | 22km/h | 28380m | 5.7m/s | -46.1°C | 2.7% | 0hPa | 2.7V | 00:00:00 | 01:58:55 | 00:00:00 | |
| IW2NTF | 2026-09-05 11:35:09 | 44.30598 | 8.06765 | 51° | 37km/h | 28349m | 5.2m/s | -46.2°C | 2.7% | 0hPa | 2.7V | 08:30:00 | 01:58:49 | 00:00:00 | |
| IW2NTF | 2026-09-05 11:35:00 | 44.30563 | 8.06707 | 54° | 26km/h | 28301m | 4.9m/s | -45.9°C | 2.6% | 0hPa | 2.6V | 08:30:00 | 01:58:39 | 00:00:00 | |
| AUTORXJP | 2026-09-05 11:34:57 | 44.30572 | 8.06719 | 27° | 11km/h | 28316m | 4.6m/s | -46.0°C | 0.5% | -1.0hPa | 2.6V | 00:00:00 | 00:00:00 | 00:00:00 | |
| IW2NTF | 2026-09-05 11:34:49 | 44.30531 | 8.06636 | 5° | 5km/h | 28245m | 5.3m/s | -45.9°C | 2.6% | 0hPa | 2.6V | 08:30:00 | 01:58:29 | 00:00:00 | |
| DB0UT-7 | 2026-09-05 11:34:40 | 44.30525 | 8.06633 | 59° | 18km/h | 28225m | 4.4m/s | -46.0°C | 2.7% | 0hPa | 2.7V | 00:00:00 | 00:00:00 | 08:30:00 | |
| IW2NTF | 2026-09-05 11:34:39 | 44.30520 | 8.06588 | 67° | 27km/h | 28193m | 6m/s | -46.8°C | 2.7% | 0hPa | 2.7V | 08:30:00 | 01:58:19 | 00:00:00 | |
| IW2NTF | 2026-09-05 11:34:29 | 44.30500 | 8.06555 | 88° | 18km/h | 28141m | 5.6m/s | -46.6°C | 2.7% | 0hPa | 2.7V | 08:30:00 | 01:58:09 | 00:00:00 | |
| AUTORXJP | 2026-09-05 11:34:26 | 44.30499 | 8.06563 | 129° | 5km/h | 28152m | 4.5m/s | -46.7°C | 0.5% | -1.0hPa | 2.7V | 00:00:00 | 00:00:00 | 00:00:00 | |
| IW2NTF | 2026-09-05 11:34:19 | 44.30492 | 8.06483 | 69° | 5km/h | 28086m | 6.2m/s | -47.4°C | 2.9% | 0hPa | 2.7V | 08:30:00 | 01:57:59 | 00:00:00 | |
| DB0UT-7 | 2026-09-05 11:34:10 | 44.30494 | 8.06463 | 89° | 27km/h | 28066m | 5.6m/s | -47.4°C | 2.9% | 0hPa | 2.6V | 00:00:00 | 01:57:55 | 00:00:00 | |
| IW2NTF | 2026-09-05 11:34:09 | 44.30488 | 8.06395 | 92° | 31km/h | 28034m | 5m/s | -47.4°C | 2.9% | 0hPa | 2.6V | 08:30:00 | 01:57:49 | 00:00:00 | |
| IW2NTF | 2026-09-05 11:33:59 | 44.30477 | 8.06314 | 80° | 20km/h | 27980m | 5.1m/s | -47.4°C | 2.9% | 0hPa | 2.6V | 08:30:00 | 01:57:39 | 00:00:00 | |
| AUTORXJP | 2026-09-05 11:33:55 | 44.30478 | 8.06321 | 87° | 18km/h | 27986m | 4.7m/s | -47.4°C | 0.6% | -1.0hPa | 2.6V | 00:00:00 | 00:00:00 | 00:00:00 | |
| IW2NTF | 2026-09-05 11:33:49 | 44.30450 | 8.06225 | 56° | 26km/h | 27923m | 5.3m/s | -47.4°C | 2.9% | 0hPa | 2.6V | 08:30:00 | 01:57:29 | 00:00:00 | |
| DB0UT-7 | 2026-09-05 11:33:40 | 44.30439 | 8.06199 | 67° | 24km/h | 27900m | 4.5m/s | -47.3°C | 2.9% | 0hPa | 2.7V | 00:00:00 | 00:00:00 | 00:00:00 | |
| IW2NTF | 2026-09-05 11:33:39 | 44.30417 | 8.06158 | 60° | 31km/h | 27866m | 6.3m/s | -47.1°C | 2.8% | 0hPa | 2.7V | 08:30:00 | 01:57:19 | 00:00:00 | |
| IW2NTF | 2026-09-05 11:33:29 | 44.30375 | 8.06086 | 47° | 16km/h | 27812m | 4.8m/s | -47°C | 2.8% | 0hPa | 2.7V | 08:30:00 | 01:57:09 | 00:00:00 | |
| AUTORXJP | 2026-09-05 11:33:24 | 44.30375 | 8.06086 | 47° | 16km/h | 27813m | 4.8m/s | -47.0°C | 0.5% | -1.0hPa | 2.7V | 00:00:00 | 00:00:00 | 00:00:00 | |
| IW2NTF | 2026-09-05 11:33:19 | 44.30336 | 8.06025 | 36° | 24km/h | 27755m | 5.9m/s | -47.2°C | 2.8% | 0hPa | 2.7V | 08:30:00 | 01:56:59 | 00:00:00 | |
| DB0UT-7 | 2026-09-05 11:33:10 | 44.30319 | 8.06010 | 38° | 27km/h | 27732m | 4.9m/s | -47.3°C | 2.9% | 0hPa | 2.6V | 00:00:00 | 01:56:55 | 00:00:00 | |
| IW2NTF | 2026-09-05 11:33:09 | 44.30290 | 8.05980 | 45° | 27km/h | 27699m | 6.5m/s | -47.6°C | 2.8% | 0hPa | 2.6V | 08:30:00 | 01:56:49 | 00:00:00 | |
| IW2NTF | 2026-09-05 11:32:59 | 44.30248 | 8.05910 | 47° | 29km/h | 27641m | 4.4m/s | -47.9°C | 3% | 0hPa | 2.7V | 08:30:00 | 01:56:39 | 00:00:00 | |
| AUTORXJP | 2026-09-05 11:32:53 | 44.30242 | 8.05903 | 41° | 31km/h | 27636m | 6.3m/s | -47.9°C | 0.6% | -1.0hPa | 2.6V | 00:00:00 | 00:00:00 | 00:00:00 | |
| IW2NTF | 2026-09-05 11:32:49 | 44.30176 | 8.05863 | 359° | 26km/h | 27581m | 5.5m/s | -48.2°C | 3% | 0hPa | 2.6V | 08:30:00 | 01:56:29 | 00:00:00 | |
| DO3MHA-12 | 2026-09-05 11:32:48 | 44.30202 | 8.05871 | 25° | 27km/h | 27605m | 5.7m/s | -48.1°C | 2.9% | 0hPa | 2.7V | 00:00:00 | 01:56:33 | 00:00:00 | |
| DB0UT-7 | 2026-09-05 11:32:40 | 44.30154 | 8.05857 | 33° | 26km/h | 27558m | 5.1m/s | -48.0°C | 2.9% | 0hPa | 2.7V | 00:00:00 | 00:00:00 | 00:00:00 | |
| IW2NTF | 2026-09-05 11:32:37 | 44.30097 | 8.05829 | 14° | 22km/h | 27511m | 5.2m/s | -48.2°C | 3% | 0hPa | 2.7V | 08:30:00 | 01:56:17 | 00:00:00 | |
| DO3MHA-12 | 2026-09-05 11:32:36 | 44.30127 | 8.05839 | 17° | 27km/h | 27534m | 5.6m/s | -48.2°C | 3.0% | 0hPa | 2.7V | 00:00:00 | 01:56:21 | 00:00:00 | |
| IW2NTF | 2026-09-05 11:32:27 | 44.30044 | 8.05779 | 40° | 33km/h | 27453m | 6.7m/s | -48.2°C | 3% | 0hPa | 2.6V | 08:30:00 | 01:56:07 | 00:00:00 | |
| DO3MHA-12 | 2026-09-05 11:32:26 | 44.30064 | 8.05810 | 42° | 27km/h | 27476m | 6.8m/s | -48.2°C | 2.9% | 0hPa | 2.7V | 00:00:00 | 01:56:11 | 00:00:00 | |
| AUTORXJP | 2026-09-05 11:32:22 | 44.30044 | 8.05779 | 40° | 33km/h | 27453m | 6.7m/s | -48.2°C | 0.6% | -1.0hPa | 2.7V | 00:00:00 | 00:00:00 | 00:00:00 | |
| IW2NTF | 2026-09-05 11:32:17 | 44.29986 | 8.05756 | 26° | 24km/h | 27393m | 5.2m/s | -48.4°C | 3% | 0hPa | 2.7V | 08:30:00 | 01:55:57 | 00:00:00 | |
| DO3MHA-12 | 2026-09-05 11:32:16 | 44.30007 | 8.05760 | 359° | 24km/h | 27417m | 5.5m/s | -48.1°C | 3.0% | 0hPa | 2.6V | 00:00:00 | 01:56:01 | 00:00:00 | |
| DB0UT-7 | 2026-09-05 11:32:10 | 44.29977 | 8.05746 | 50° | 20km/h | 27381m | 5.9m/s | -48.2°C | 3.0% | 0hPa | 2.6V | 00:00:00 | 01:55:55 | 00:00:00 | |
| IW2NTF | 2026-09-05 11:32:07 | 44.29930 | 8.05716 | 343° | 18km/h | 27336m | 5.9m/s | -48.3°C | 3% | 0hPa | 2.6V | 08:30:00 | 01:55:47 | 00:00:00 | |
| DO3MHA-12 | 2026-09-05 11:32:06 | 44.29956 | 8.05719 | 26° | 22km/h | 27359m | 5.5m/s | -48.2°C | 3.0% | 0hPa | 2.7V | 00:00:00 | 01:55:51 | 00:00:00 | |
| IW2NTF | 2026-09-05 11:31:58 | 44.29881 | 8.05705 | 24° | 16km/h | 27278m | 4.7m/s | -48.1°C | 3% | 0hPa | 2.6V | 08:30:00 | 01:55:37 | 00:00:00 | |
| AUTORXJP | 2026-09-05 11:31:51 | 44.29877 | 8.05702 | 29° | 16km/h | 27273m | 6.4m/s | -48.2°C | 0.6% | -1.0hPa | 2.6V | 00:00:00 | 00:00:00 | 00:00:00 | |
| IW2NTF | 2026-09-05 11:31:47 | 44.29860 | 8.05676 | 56° | 15km/h | 27220m | 5.8m/s | -48°C | 3% | 0hPa | 2.6V | 08:30:00 | 01:55:27 | 00:00:00 | |
| DO3MHA-12 | 2026-09-05 11:31:46 | 44.29863 | 8.05686 | 60° | 13km/h | 27243m | 5.5m/s | -48.0°C | 3.0% | 0hPa | 2.6V | 00:00:00 | 01:55:31 | 00:00:00 | |
| DB0UT-7 | 2026-09-05 11:31:40 | 44.29855 | 8.05669 | 25° | 13km/h | 27209m | 6.1m/s | -48.0°C | 2.9% | 0hPa | 2.6V | 00:00:00 | 00:00:00 | 00:00:00 | |
| IW2NTF | 2026-09-05 11:31:37 | 44.29817 | 8.05672 | 330° | 9km/h | 27164m | 6.7m/s | -48.3°C | 3% | 0hPa | 2.6V | 08:30:00 | 01:55:17 | 00:00:00 | |
| DO3MHA-12 | 2026-09-05 11:31:36 | 44.29834 | 8.05670 | 356° | 11km/h | 27186m | 6.1m/s | -48.1°C | 3.0% | 0hPa | 2.6V | 00:00:00 | 01:55:21 | 08:30:00 | |
| IW2NTF | 2026-09-05 11:31:27 | 44.29811 | 8.05669 | 354° | 9km/h | 27107m | 5.5m/s | -48.1°C | 3% | 0hPa | 2.7V | 08:30:00 | 01:55:07 | 00:00:00 | |
| DO3MHA-12 | 2026-09-05 11:31:26 | 44.29817 | 8.05672 | 64° | 11km/h | 27130m | 4.5m/s | -48.1°C | 3.0% | 0hPa | 2.7V | 00:00:00 | 01:55:11 | 00:00:00 | |
| AUTORXJP | 2026-09-05 11:31:21 | 44.29805 | 8.05669 | 12° | 13km/h | 27095m | 6.6m/s | -48.0°C | 0.6% | -1.0hPa | 2.7V | 00:00:00 | 00:00:00 | 00:00:00 | |
| IW2NTF | 2026-09-05 11:31:17 | 44.29781 | 8.05666 | 26° | 15km/h | 27047m | 6.3m/s | -48.2°C | 3% | 0hPa | 2.7V | 08:30:00 | 01:54:57 | 00:00:00 | |
| DO3MHA-12 | 2026-09-05 11:31:16 | 44.29792 | 8.05667 | 346° | 15km/h | 27071m | 5.6m/s | -48.1°C | 3.0% | 0hPa | 2.6V | 00:00:00 | 01:55:01 | 00:00:00 | |
| DB0UT-7 | 2026-09-05 11:31:10 | 44.29773 | 8.05661 | 23° | 18km/h | 27035m | 6.3m/s | -48.1°C | 3.0% | 0hPa | 2.6V | 00:00:00 | 01:54:55 | 00:00:00 | |
| IW2NTF | 2026-09-05 11:31:07 | 44.29735 | 8.05643 | 355° | 18km/h | 26989m | 5.5m/s | -47.9°C | 3% | 0hPa | 2.6V | 08:30:00 | 01:54:47 | 00:00:00 | |
| DO3MHA-12 | 2026-09-05 11:31:06 | 44.29755 | 8.05651 | 29° | 20km/h | 27012m | 5.8m/s | -48.0°C | 3.0% | 0hPa | 2.6V | 00:00:00 | 01:54:51 | 00:00:00 | |
| IW2NTF | 2026-09-05 11:30:57 | 44.29680 | 8.05635 | 10° | 29km/h | 26931m | 5.3m/s | -47.5°C | 2.9% | 0hPa | 2.7V | 08:30:00 | 01:54:37 | 00:00:00 | |
| AUTORXJP | 2026-09-05 11:30:50 | 44.29658 | 8.05634 | 349° | 27km/h | 26914m | 5.7m/s | -47.4°C | 0.5% | -1.0hPa | 2.7V | 00:00:00 | 00:00:00 | 00:00:00 | |
| IW2NTF | 2026-09-05 11:30:48 | 44.29615 | 8.05646 | 344° | 24km/h | 26875m | 5.1m/s | -47.4°C | 3% | 0hPa | 2.7V | 08:30:00 | 01:54:27 | 00:00:00 | |
| DO3MHA-12 | 2026-09-05 11:30:46 | 44.29638 | 8.05640 | 351° | 24km/h | 26898m | 5.8m/s | -47.2°C | 2.9% | 0hPa | 2.7V | 00:00:00 | 01:54:31 | 00:00:00 | |
| IW2NTF | 2026-09-05 11:30:38 | 44.29549 | 8.05666 | 333° | 31km/h | 26823m | 5.8m/s | -47.1°C | 2.8% | 0hPa | 2.7V | 08:30:00 | 01:54:17 | 00:00:00 | |
| DO3MHA-12 | 2026-09-05 11:30:36 | 44.29577 | 8.05649 | 353° | 29km/h | 26844m | 6.0m/s | -47.1°C | 2.9% | 0hPa | 2.7V | 00:00:00 | 01:54:21 | 00:00:00 | |
| IW2NTF | 2026-09-05 11:30:27 | 44.29485 | 8.05688 | 333° | 16km/h | 26768m | 6.5m/s | -47°C | 2.8% | 0hPa | 2.6V | 08:30:00 | 01:54:07 | 00:00:00 | |
| DO3MHA-12 | 2026-09-05 11:30:26 | 44.29506 | 8.05684 | 350° | 18km/h | 26791m | 4.7m/s | -46.8°C | 2.8% | 0hPa | 2.7V | 00:00:00 | 01:54:11 | 00:00:00 | |
| IW2NTF | 2026-09-05 11:30:19 | 44.29437 | 8.05733 | 344° | 26km/h | 26714m | 5m/s | -47.3°C | 2.8% | 0hPa | 2.7V | 08:30:00 | 01:53:57 | 00:00:00 | |
| IW2NTF | 2026-09-05 11:30:07 | 44.29407 | 8.05746 | 306° | 13km/h | 26659m | 5.2m/s | -47.8°C | 2.9% | 0hPa | 2.6V | 08:30:00 | 01:53:47 | 00:00:00 | |
| IW2NTF | 2026-09-05 11:29:57 | 44.29369 | 8.05753 | 39° | 11km/h | 26604m | 5.4m/s | -48.1°C | 3% | 0hPa | 2.6V | 08:30:00 | 01:53:37 | 00:00:00 | |
| IW2NTF | 2026-09-05 11:29:47 | 44.29345 | 8.05751 | 6° | 18km/h | 26553m | 4.7m/s | -47.9°C | 2.9% | 0hPa | 2.7V | 08:30:00 | 01:53:27 | 00:00:00 | |
| AUTORXJP | 2026-09-05 11:29:47 | 44.29360 | 8.05747 | 347° | 9km/h | 26574m | 5.1m/s | -48.0°C | 0.6% | -1.0hPa | 2.6V | 00:00:00 | 00:00:00 | 00:00:00 | |
| IW2NTF | 2026-09-05 11:29:37 | 44.29312 | 8.05727 | 11° | 24km/h | 26501m | 5.6m/s | -48°C | 2.9% | 0hPa | 2.6V | 08:30:00 | 01:53:17 | 00:00:00 | |
| IW2NTF | 2026-09-05 11:29:27 | 44.29264 | 8.05691 | 39° | 18km/h | 26449m | 5.6m/s | -48.1°C | 3.1% | 0hPa | 2.7V | 08:30:00 | 01:53:07 | 00:00:00 | |
| DB0UT-7 | 2026-09-05 11:29:26 | 44.29280 | 8.05712 | 33° | 11km/h | 26470m | 5.3m/s | -48.0°C | 3.0% | 0hPa | 2.6V | 00:00:00 | 00:00:00 | 00:00:00 | |
| IW2NTF | 2026-09-05 11:29:18 | 44.29202 | 8.05672 | 12° | 22km/h | 26396m | 4.2m/s | -48.5°C | 3% | 0hPa | 2.6V | 08:30:00 | 01:52:57 | 00:00:00 | |
| AUTORXJP | 2026-09-05 11:29:16 | 44.29221 | 8.05677 | 13° | 31km/h | 26412m | 5.2m/s | -48.6°C | 0.6% | -1.0hPa | 2.6V | 00:00:00 | 00:00:00 | 00:00:00 | |
| IW2NTF | 2026-09-05 11:29:05 | 44.29160 | 8.05648 | 357° | 26km/h | 26334m | 6m/s | -48.8°C | 3% | 0hPa | 2.6V | 08:30:00 | 01:52:45 | 00:00:00 | |
| IW2NTF | 2026-09-05 11:28:55 | 44.29129 | 8.05654 | 330° | 15km/h | 26279m | 5.7m/s | -48.9°C | 3.1% | 0hPa | 2.6V | 08:30:00 | 01:52:35 | 00:00:00 | |
| IW2NTF | 2026-09-05 11:28:46 | 44.29081 | 8.05687 | 344° | 4km/h | 26224m | 5.5m/s | -49°C | 3.2% | 0hPa | 2.7V | 08:30:00 | 01:52:25 | 00:00:00 | |
| AUTORXJP | 2026-09-05 11:28:44 | 44.29092 | 8.05676 | 322° | 24km/h | 26247m | 5.0m/s | -49.2°C | 0.7% | -1.0hPa | 2.6V | 00:00:00 | 00:00:00 | 00:00:00 | |
| IW2NTF | 2026-09-05 11:28:35 | 44.29054 | 8.05732 | 306° | 16km/h | 26172m | 4.7m/s | -48.9°C | 3.2% | 0hPa | 2.6V | 08:30:00 | 01:52:15 | 00:00:00 | |
| IW2NTF | 2026-09-05 11:28:25 | 44.29043 | 8.05754 | 307° | 18km/h | 26116m | 5.8m/s | -48.9°C | 3.1% | 0hPa | 2.7V | 08:30:00 | 01:52:05 | 00:00:00 | |
| IW2NTF | 2026-09-05 11:28:15 | 44.29030 | 8.05770 | 201° | 0km/h | 26063m | 6.1m/s | -48.9°C | 3.1% | 0hPa | 2.7V | 08:30:00 | 01:51:55 | 00:00:00 | |
| AUTORXJP | 2026-09-05 11:28:13 | 44.29031 | 8.05774 | 60° | 4km/h | 26079m | 5.9m/s | -49.0°C | 0.6% | -1.0hPa | 2.7V | 00:00:00 | 00:00:00 | 00:00:00 | |
| DB0UT-7 | 2026-09-05 11:28:07 | 44.29031 | 8.05777 | 271° | 7km/h | 26047m | 5.2m/s | -48.9°C | 3.1% | 0hPa | 2.7V | 00:00:00 | 01:51:52 | 08:30:00 | |
| IW2NTF | 2026-09-05 11:28:05 | 44.29028 | 8.05793 | 182° | 5km/h | 26009m | 4.6m/s | -48.9°C | 3% | 0hPa | 2.6V | 08:30:00 | 01:51:45 | 00:00:00 | |
| IW2NTF | 2026-09-05 11:27:55 | 44.29036 | 8.05782 | 9° | 2km/h | 25954m | 5.4m/s | -49°C | 3.1% | 0hPa | 2.6V | 08:30:00 | 01:51:35 | 00:00:00 | |
| IW2NTF | 2026-09-05 11:27:45 | 44.29045 | 8.05770 | 109° | 7km/h | 25900m | 6.3m/s | -49°C | 3% | 0hPa | 2.7V | 08:30:00 | 01:51:25 | 00:00:00 | |
| AUTORXJP | 2026-09-05 11:27:42 | 44.29043 | 8.05776 | 115° | 9km/h | 25911m | 4.7m/s | -49.1°C | 0.6% | -1.0hPa | 2.7V | 00:00:00 | 00:00:00 | 00:00:00 | |
| DB0UT-7 | 2026-09-05 11:27:37 | 44.29044 | 8.05763 | 51° | 9km/h | 25883m | 6.3m/s | -49.0°C | 3.0% | 0hPa | 2.7V | 00:00:00 | 00:00:00 | 00:00:00 | |
| IW2NTF | 2026-09-05 11:27:35 | 44.29041 | 8.05754 | 128° | 7km/h | 25844m | 6.4m/s | -49.4°C | 3.2% | 0hPa | 2.7V | 08:30:00 | 01:51:15 | 00:00:00 | |
| DO3MHA-12 | 2026-09-05 11:27:32 | 44.29038 | 8.05756 | 173° | 13km/h | 25855m | 5.2m/s | -49.2°C | 3.1% | 0hPa | 2.6V | 00:00:00 | 01:51:17 | 00:00:00 | |
| IW2NTF | 2026-09-05 11:27:25 | 44.29016 | 8.05723 | 5° | 16km/h | 25787m | 5.5m/s | -50°C | 3.2% | 0hPa | 2.6V | 08:30:00 | 01:51:05 | 00:00:00 | |
| DO3MHA-12 | 2026-09-05 11:27:22 | 44.29026 | 8.05726 | 23° | 11km/h | 25799m | 5.0m/s | -50.0°C | 3.3% | 0hPa | 2.7V | 00:00:00 | 01:51:07 | 08:30:00 | |
| IW2NTF | 2026-09-05 11:27:15 | 44.29008 | 8.05721 | 247° | 4km/h | 25732m | 5.3m/s | -50°C | 3.3% | 0hPa | 2.7V | 08:30:00 | 01:50:55 | 00:00:00 | |
| DO3MHA-12 | 2026-09-05 11:27:12 | 44.29007 | 8.05719 | 216° | 7km/h | 25745m | 6.0m/s | -49.9°C | 3.4% | 0hPa | 2.7V | 00:00:00 | 01:50:57 | 00:00:00 | |
| AUTORXJP | 2026-09-05 11:27:11 | 44.29007 | 8.05720 | 239° | 2km/h | 25738m | 6.3m/s | -50.0°C | 0.7% | -1.0hPa | 2.7V | 00:00:00 | 00:00:00 | 00:00:00 | |
| DB0UT-7 | 2026-09-05 11:27:07 | 44.29006 | 8.05720 | 27° | 13km/h | 25717m | 4.1m/s | -50.1°C | 3.3% | 0hPa | 2.7V | 00:00:00 | 01:50:52 | 00:00:00 | |
| IW2NTF | 2026-09-05 11:27:05 | 44.28984 | 8.05734 | 297° | 15km/h | 25677m | 4.8m/s | -49.7°C | 3.2% | 0hPa | 2.7V | 08:30:00 | 01:50:45 | 00:00:00 | |
| DO3MHA-12 | 2026-09-05 11:27:02 | 44.28990 | 8.05727 | 326° | 13km/h | 25688m | 5.7m/s | -49.9°C | 3.2% | 0hPa | 2.6V | 00:00:00 | 01:50:47 | 00:00:00 | |
| IW2NTF | 2026-09-05 11:26:56 | 44.28976 | 8.05765 | 325° | 11km/h | 25622m | 4.9m/s | -49.9°C | 3.2% | 0hPa | 2.6V | 08:30:00 | 01:50:35 | 00:00:00 | |
| DO3MHA-12 | 2026-09-05 11:26:52 | 44.28980 | 8.05762 | 337° | 11km/h | 25633m | 6.5m/s | -49.8°C | 3.2% | 0hPa | 2.7V | 00:00:00 | 01:50:37 | 00:00:00 | |
| IW2NTF | 2026-09-05 11:26:46 | 44.28961 | 8.05797 | 236° | 11km/h | 25567m | 5.2m/s | -50.1°C | 3.3% | 0hPa | 2.6V | 08:30:00 | 01:50:25 | 00:00:00 | |
| DO3MHA-12 | 2026-09-05 11:26:42 | 44.28960 | 8.05789 | 269° | 9km/h | 25579m | 5.3m/s | -50.1°C | 3.3% | 0hPa | 2.6V | 00:00:00 | 01:50:27 | 00:00:00 | |
| AUTORXJP | 2026-09-05 11:26:40 | 44.28961 | 8.05797 | 236° | 9km/h | 25568m | 5.2m/s | -50.1°C | 0.6% | -1.0hPa | 2.6V | 00:00:00 | 00:00:00 | 00:00:00 | |
| DB0UT-7 | 2026-09-05 11:26:37 | 44.28965 | 8.05806 | 260° | 18km/h | 25551m | 5.4m/s | -50.0°C | 3.2% | 0hPa | 2.6V | 00:00:00 | 00:00:00 | 00:00:00 | |
| IW2NTF | 2026-09-05 11:26:35 | 44.28958 | 8.05822 | 285° | 13km/h | 25512m | 5.4m/s | -50.3°C | 3.2% | 0hPa | 2.7V | 08:30:00 | 01:50:15 | 00:00:00 | |
| DO3MHA-12 | 2026-09-05 11:26:32 | 44.28961 | 8.05815 | 314° | 7km/h | 25524m | 5.2m/s | -50.1°C | 3.1% | 0hPa | 2.6V | 00:00:00 | 01:50:17 | 00:00:00 | |
| IW2NTF | 2026-09-05 11:26:25 | 44.28956 | 8.05840 | 70° | 5km/h | 25459m | 6.1m/s | -50.6°C | 3.2% | 0hPa | 2.6V | 08:30:00 | 01:50:05 | 00:00:00 | |
| DO3MHA-12 | 2026-09-05 11:26:21 | 44.28956 | 8.05840 | 359° | 7km/h | 25465m | 5.4m/s | -50.5°C | 3.2% | 0hPa | 2.6V | 00:00:00 | 01:50:06 | 00:00:00 | |
| IW2NTF | 2026-09-05 11:26:15 | 44.28944 | 8.05826 | 353° | 7km/h | 25405m | 5.6m/s | -51.1°C | 3.4% | 0hPa | 2.6V | 08:30:00 | 01:49:55 | 00:00:00 | |
| DO3MHA-12 | 2026-09-05 11:26:10 | 44.28944 | 8.05826 | 354° | 13km/h | 25405m | 5.6m/s | -51.1°C | 3.4% | 0hPa | 2.7V | 00:00:00 | 01:49:55 | 00:00:00 | |
| AUTORXJP | 2026-09-05 11:26:09 | 44.28942 | 8.05826 | 2° | 5km/h | 25400m | 4.2m/s | -51.1°C | 0.7% | -1.0hPa | 2.7V | 00:00:00 | 00:00:00 | 00:00:00 | |
| IW2NTF | 2026-09-05 11:26:05 | 44.28922 | 8.05790 | 36° | 18km/h | 25351m | 5.5m/s | -51.4°C | 3.5% | 0hPa | 2.7V | 08:30:00 | 01:49:45 | 00:00:00 | |
| IW2NTF | 2026-09-05 11:25:55 | 44.28882 | 8.05778 | 46° | 15km/h | 25297m | 5.7m/s | -51.4°C | 3.4% | 0hPa | 2.6V | 08:30:00 | 01:49:35 | 00:00:00 | |
| IW2NTF | 2026-09-05 11:25:45 | 44.28827 | 8.05758 | 346° | 24km/h | 25248m | 3.7m/s | -51.5°C | 3.5% | 0hPa | 2.6V | 08:30:00 | 01:49:25 | 00:00:00 | |
| DB0UT-7 | 2026-09-05 11:25:39 | 44.28821 | 8.05759 | 355° | 35km/h | 25244m | 4.7m/s | -51.5°C | 3.5% | 0hPa | 2.7V | 00:00:00 | 01:49:24 | 00:00:00 | |
| AUTORXJP | 2026-09-05 11:25:38 | 44.28816 | 8.05759 | 12° | 20km/h | 25238m | 5.0m/s | -51.7°C | 0.7% | -1.0hPa | 2.7V | 00:00:00 | 00:00:00 | 00:00:00 | |
| IW2NTF | 2026-09-05 11:25:35 | 44.28753 | 8.05737 | 358° | 33km/h | 25198m | 5.3m/s | -51.8°C | 3.6% | 0hPa | 2.7V | 08:30:00 | 01:49:15 | 00:00:00 | |
| IW2NTF | 2026-09-05 11:25:26 | 44.28664 | 8.05749 | 355° | 31km/h | 25149m | 4.3m/s | -51.6°C | 3.6% | 0hPa | 2.7V | 08:30:00 | 01:49:05 | 00:00:00 | |
| IW2NTF | 2026-09-05 11:25:13 | 44.28558 | 8.05774 | 347° | 27km/h | 25086m | 5.5m/s | -51.3°C | 3.6% | 0hPa | 2.7V | 08:30:00 | 01:48:53 | 00:00:00 | |
| AUTORXJP | 2026-09-05 11:25:07 | 44.28552 | 8.05776 | 344° | 26km/h | 25081m | 4.6m/s | -51.3°C | 0.8% | -1.0hPa | 2.7V | 00:00:00 | 00:00:00 | 00:00:00 | |
| IW2NTF | 2026-09-05 11:25:04 | 44.28479 | 8.05803 | 343° | 33km/h | 25035m | 5m/s | -51°C | 3.4% | 0hPa | 2.7V | 08:30:00 | 01:48:43 | 00:00:00 | |
| IW2NTF | 2026-09-05 11:24:54 | 44.28408 | 8.05837 | 329° | 31km/h | 24985m | 5.6m/s | -51.1°C | 3.4% | 0hPa | 2.6V | 08:30:00 | 01:48:33 | 00:00:00 | |
| IW2NTF | 2026-09-05 11:24:43 | 44.28348 | 8.05880 | 338° | 22km/h | 24933m | 5.8m/s | -51.2°C | 3.5% | 0hPa | 2.6V | 08:30:00 | 01:48:23 | 00:00:00 | |
| DB0UT-7 | 2026-09-05 11:24:39 | 44.28353 | 8.05878 | 343° | 22km/h | 24938m | 4.3m/s | -51.1°C | 3.4% | 0hPa | 2.7V | 00:00:00 | 01:48:24 | 00:00:00 | |
| IW2NTF | 2026-09-05 11:24:33 | 44.28304 | 8.05935 | 320° | 20km/h | 24880m | 5.9m/s | -51.3°C | 3.4% | 0hPa | 2.7V | 08:30:00 | 01:48:13 | 00:00:00 | |
| IW2NTF | 2026-09-05 11:24:24 | 44.28277 | 8.05993 | 296° | 24km/h | 24825m | 6.1m/s | -51.3°C | 3.5% | 0hPa | 2.6V | 08:30:00 | 01:48:03 | 00:00:00 | |
| IW2NTF | 2026-09-05 11:24:13 | 44.28253 | 8.06054 | 291° | 18km/h | 24774m | 5.5m/s | -51°C | 3.5% | 0hPa | 2.6V | 08:30:00 | 01:47:53 | 00:00:00 | |
| DB0UT-7 | 2026-09-05 11:24:09 | 44.28255 | 8.06048 | 296° | 18km/h | 24779m | 5.3m/s | -51.0°C | 3.5% | 0hPa | 2.7V | 00:00:00 | 00:00:00 | 00:00:00 | |
| AUTORXJP | 2026-09-05 11:24:05 | 44.28245 | 8.06080 | 299° | 24km/h | 24752m | 5.6m/s | -50.9°C | 0.7% | -1.0hPa | 2.7V | 00:00:00 | 00:00:00 | 00:00:00 | |
| IW2NTF | 2026-09-05 11:24:03 | 44.28230 | 8.06115 | 307° | 18km/h | 24721m | 5.9m/s | -50.7°C | 3.4% | 0hPa | 2.7V | 08:30:00 | 01:47:43 | 00:00:00 | |
| IW2NTF | 2026-09-05 11:23:53 | 44.28208 | 8.06161 | 302° | 18km/h | 24669m | 5.2m/s | -50.6°C | 3.3% | 0hPa | 2.6V | 08:30:00 | 01:47:33 | 00:00:00 | |
| DO3MHA-12 | 2026-09-05 11:23:47 | 44.28205 | 8.06167 | 299° | 16km/h | 24664m | 5.5m/s | -50.6°C | 3.4% | 0hPa | 2.6V | 00:00:00 | 01:47:32 | 00:00:00 | |
| IW2NTF | 2026-09-05 11:23:43 | 44.28184 | 8.06206 | 343° | 11km/h | 24616m | 4.9m/s | -50.7°C | 3.3% | 0hPa | 2.6V | 08:30:00 | 01:47:23 | 00:00:00 | |
| AUTORXJP | 2026-09-05 11:23:34 | 44.28169 | 8.06221 | 307° | 15km/h | 24588m | 5.4m/s | -50.7°C | 0.7% | -1.0hPa | 2.7V | 00:00:00 | 00:00:00 | 00:00:00 | |
| IW2NTF | 2026-09-05 11:23:33 | 44.28157 | 8.06247 | 306° | 15km/h | 24561m | 6m/s | -50.7°C | 3.3% | 0hPa | 2.7V | 08:30:00 | 01:47:13 | 00:00:00 | |
| DO3MHA-12 | 2026-09-05 11:23:29 | 44.28159 | 8.06242 | 303° | 11km/h | 24566m | 4.7m/s | -50.7°C | 3.4% | 0hPa | 2.7V | 00:00:00 | 01:47:14 | 08:30:00 | |
| IW2NTF | 2026-09-05 11:23:23 | 44.28133 | 8.06255 | 317° | 7km/h | 24507m | 4.5m/s | -51.1°C | 3.4% | 0hPa | 2.6V | 08:30:00 | 01:47:03 | 00:00:00 | |
| DO3MHA-12 | 2026-09-05 11:23:19 | 44.28135 | 8.06254 | 331° | 7km/h | 24513m | 4.8m/s | -51.0°C | 3.4% | 0hPa | 2.6V | 00:00:00 | 01:47:04 | 00:00:00 | |
| IW2NTF | 2026-09-05 11:23:08 | 44.28125 | 8.06276 | 202° | 4km/h | 24448m | 5.3m/s | -51.4°C | 3.5% | 0hPa | 2.6V | 08:30:00 | 01:46:52 | 00:00:00 | |
| AUTORXJP | 2026-09-05 11:23:03 | 44.28129 | 8.06284 | 275° | 9km/h | 24421m | 4.9m/s | -51.4°C | 0.8% | -1.0hPa | 2.7V | 00:00:00 | 00:00:00 | 00:00:00 | |
| IW2NTF | 2026-09-05 11:22:58 | 44.28129 | 8.06294 | 232° | 2km/h | 24394m | 4.9m/s | -51.4°C | 3.5% | 0hPa | 2.7V | 08:30:00 | 01:46:42 | 00:00:00 | |
| IW2NTF | 2026-09-05 11:22:48 | 44.28144 | 8.06310 | 218° | 15km/h | 24340m | 5.5m/s | -51.3°C | 3.5% | 0hPa | 2.7V | 08:30:00 | 01:46:32 | 00:00:00 | |
| IW2NTF | 2026-09-05 11:22:43 | 44.28146 | 8.06316 | 286° | 2km/h | 24284m | 5.9m/s | -51.5°C | 3.6% | 0hPa | 2.6V | 08:30:00 | 01:46:22 | 00:00:00 | |
| DO3MHA-12 | 2026-09-05 11:22:39 | 44.28147 | 8.06316 | 34° | 5km/h | 24295m | 5.2m/s | -51.4°C | 3.5% | 0hPa | 2.7V | 00:00:00 | 01:46:24 | 00:00:00 | |
| IW2NTF | 2026-09-05 11:22:32 | 44.28155 | 8.06339 | 328° | 7km/h | 24230m | 5.4m/s | -51.4°C | 3.6% | 0hPa | 2.7V | 08:30:00 | 01:46:12 | 00:00:00 | |
| AUTORXJP | 2026-09-05 11:22:31 | 44.28155 | 8.06330 | 217° | 9km/h | 24252m | 4.2m/s | -51.4°C | 0.8% | -1.0hPa | 2.6V | 00:00:00 | 00:00:00 | 00:00:00 | |
| DO3MHA-12 | 2026-09-05 11:22:24 | 44.28151 | 8.06340 | 8° | 5km/h | 24215m | 4.8m/s | -51.3°C | 3.4% | 0hPa | 2.6V | 00:00:00 | 01:46:09 | 00:00:00 | |
| IW2NTF | 2026-09-05 11:22:22 | 44.28154 | 8.06351 | 207° | 7km/h | 24177m | 4.4m/s | -51.2°C | 3.5% | 0hPa | 2.7V | 08:30:00 | 01:46:02 | 00:00:00 | |
| IW2NTF | 2026-09-05 11:22:12 | 44.28156 | 8.06363 | 228° | 7km/h | 24125m | 5.6m/s | -51.2°C | 3.4% | 0hPa | 2.6V | 08:30:00 | 01:45:52 | 00:00:00 | |
| DB0UT-7 | 2026-09-05 11:22:09 | 44.28153 | 8.06360 | 201° | 7km/h | 24136m | 4.8m/s | -51.1°C | 3.5% | 0hPa | 2.7V | 00:00:00 | 00:00:00 | 00:00:00 | |
| DO3MHA-12 | 2026-09-05 11:22:04 | 44.28162 | 8.06368 | 197° | 9km/h | 24108m | 5.4m/s | -51.1°C | 3.4% | 0hPa | 2.7V | 00:00:00 | 01:45:49 | 00:00:00 | |
| IW2NTF | 2026-09-05 11:22:02 | 44.28172 | 8.06380 | 183° | 4km/h | 24073m | 6.1m/s | -51.4°C | 3.6% | 0hPa | 2.7V | 08:30:00 | 01:45:42 | 00:00:00 | |
| AUTORXJP | 2026-09-05 11:22:00 | 44.28170 | 8.06375 | 243° | 7km/h | 24088m | 4.9m/s | -51.3°C | 0.8% | -1.0hPa | 2.7V | 00:00:00 | 00:00:00 | 00:00:00 | |
| IW2NTF | 2026-09-05 11:21:52 | 44.28191 | 8.06381 | 290° | 5km/h | 24019m | 6m/s | -51.3°C | 3.5% | 0hPa | 2.7V | 08:30:00 | 01:45:32 | 00:00:00 | |
| DO3MHA-12 | 2026-09-05 11:21:52 | 44.28184 | 8.06374 | 194° | 5km/h | 24047m | 5.9m/s | -51.3°C | 3.6% | 0hPa | 2.6V | 00:00:00 | 01:45:37 | 00:00:00 | |
| IW2NTF | 2026-09-05 11:21:43 | 44.28193 | 8.06387 | 282° | 9km/h | 23967m | 4.3m/s | -50.9°C | 3.4% | 0hPa | 2.6V | 08:30:00 | 01:45:22 | 00:00:00 | |
| DO3MHA-12 | 2026-09-05 11:21:40 | 44.28190 | 8.06382 | 175° | 5km/h | 23983m | 5.5m/s | -50.9°C | 3.4% | 0hPa | 2.7V | 00:00:00 | 01:45:25 | 08:30:00 | |
| DB0UT-7 | 2026-09-05 11:21:39 | 44.28192 | 8.06382 | 216° | 9km/h | 23978m | 5.6m/s | -50.9°C | 3.4% | 0hPa | 2.7V | 00:00:00 | 01:45:24 | 00:00:00 | |
| IW2NTF | 2026-09-05 11:21:32 | 44.28184 | 8.06395 | 64° | 7km/h | 23915m | 4.5m/s | -51.4°C | 3.4% | 0hPa | 2.7V | 08:30:00 | 01:45:12 | 00:00:00 | |
| AUTORXJP | 2026-09-05 11:21:29 | 44.28185 | 8.06398 | 12° | 2km/h | 23926m | 5.6m/s | -51.2°C | 0.8% | -1.0hPa | 2.7V | 00:00:00 | 00:00:00 | 00:00:00 | |
| DO3MHA-12 | 2026-09-05 11:21:27 | 44.28184 | 8.06395 | 65° | 11km/h | 23916m | 4.5m/s | -51.3°C | 3.4% | 0hPa | 2.7V | 00:00:00 | 01:45:12 | 00:00:00 | |
| IW2NTF | 2026-09-05 11:21:23 | 44.28162 | 8.06412 | 321° | 15km/h | 23863m | 4.6m/s | -51.7°C | 3.5% | 0hPa | 2.7V | 08:30:00 | 01:45:02 | 00:00:00 | |
| DO3MHA-12 | 2026-09-05 11:21:17 | 44.28162 | 8.06412 | 322° | 7km/h | 23863m | 4.6m/s | -51.6°C | 3.5% | 0hPa | 2.6V | 00:00:00 | 01:45:02 | 00:00:00 | |
| IW2NTF | 2026-09-05 11:21:12 | 44.28138 | 8.06441 | 308° | 24km/h | 23813m | 4.2m/s | -51.9°C | 3.7% | 0hPa | 2.6V | 08:30:00 | 01:44:52 | 00:00:00 | |
| DB0UT-7 | 2026-09-05 11:21:09 | 44.28145 | 8.06430 | 311° | 24km/h | 23823m | 5.5m/s | -51.8°C | 3.6% | 0hPa | 2.7V | 00:00:00 | 00:00:00 | 00:00:00 | |
| IW2NTF | 2026-09-05 11:21:02 | 44.28107 | 8.06500 | 300° | 22km/h | 23760m | 5.5m/s | -51.9°C | 3.6% | 0hPa | 2.7V | 08:30:00 | 01:44:42 | 00:00:00 | |
| AUTORXJP | 2026-09-05 11:20:58 | 44.28109 | 8.06493 | 301° | 20km/h | 23766m | 5.0m/s | -51.9°C | 0.8% | -1.0hPa | 2.7V | 00:00:00 | 00:00:00 | 00:00:00 | |
| IW2NTF | 2026-09-05 11:20:52 | 44.28077 | 8.06589 | 308° | 22km/h | 23710m | 4.8m/s | -51.8°C | 3.6% | 0hPa | 2.7V | 08:30:00 | 01:44:32 | 00:00:00 | |
| IW2NTF | 2026-09-05 11:20:43 | 44.28048 | 8.06647 | 287° | 29km/h | 23658m | 5.4m/s | -51.8°C | 3.6% | 0hPa | 2.6V | 08:30:00 | 01:44:22 | 00:00:00 | |
| DB0UT-7 | 2026-09-05 11:20:39 | 44.28052 | 8.06629 | 291° | 18km/h | 23669m | 5.8m/s | -51.8°C | 3.5% | 0hPa | 2.7V | 00:00:00 | 01:44:24 | 00:00:00 | |
| IW2NTF | 2026-09-05 11:20:32 | 44.28020 | 8.06705 | 313° | 13km/h | 23608m | 4.2m/s | -51.7°C | 3.5% | 0hPa | 2.7V | 08:30:00 | 01:44:12 | 00:00:00 | |
| AUTORXJP | 2026-09-05 11:20:27 | 44.28021 | 8.06705 | 313° | 13km/h | 23608m | 4.2m/s | -51.7°C | 0.8% | -1.0hPa | 2.7V | 00:00:00 | 00:00:00 | 00:00:00 | |
| IW2NTF | 2026-09-05 11:20:22 | 44.28012 | 8.06767 | 307° | 13km/h | 23556m | 4.7m/s | -51.4°C | 3.5% | 0hPa | 2.7V | 08:30:00 | 01:44:02 | 00:00:00 | |
| IW2NTF | 2026-09-05 11:20:12 | 44.28008 | 8.06813 | 238° | 16km/h | 23509m | 4.5m/s | -51.9°C | 3.7% | 0hPa | 2.6V | 08:30:00 | 01:43:52 | 00:00:00 | |
| DB0UT-7 | 2026-09-05 11:20:09 | 44.28002 | 8.06801 | 240° | 9km/h | 23519m | 4.6m/s | -51.8°C | 3.6% | 0hPa | 2.7V | 00:00:00 | 00:00:00 | 00:00:00 | |
| IW2NTF | 2026-09-05 11:20:02 | 44.27999 | 8.06834 | 268° | 5km/h | 23461m | 5.4m/s | -51.5°C | 3.5% | 0hPa | 2.7V | 08:30:00 | 01:43:42 | 00:00:00 | |
| AUTORXJP | 2026-09-05 11:19:56 | 44.28000 | 8.06836 | 258° | 7km/h | 23456m | 4.7m/s | -51.5°C | 0.8% | -1.0hPa | 2.7V | 00:00:00 | 00:00:00 | 00:00:00 | |
| IW2NTF | 2026-09-05 11:19:52 | 44.28002 | 8.06853 | 56° | 5km/h | 23410m | 5.4m/s | -51.6°C | 3.6% | 0hPa | 2.7V | 08:30:00 | 01:43:32 | 00:00:00 | |
| IW2NTF | 2026-09-05 11:19:42 | 44.28008 | 8.06855 | 206° | 4km/h | 23360m | 4.8m/s | -51.6°C | 3.6% | 0hPa | 2.6V | 08:30:00 | 01:43:22 | 00:00:00 | |
| DB0UT-7 | 2026-09-05 11:19:39 | 44.28006 | 8.06854 | 195° | 11km/h | 23370m | 4.7m/s | -51.6°C | 3.7% | 0hPa | 2.7V | 00:00:00 | 01:43:24 | 00:00:00 | |
| IW2NTF | 2026-09-05 11:19:32 | 44.27989 | 8.06838 | 3° | 5km/h | 23307m | 5.1m/s | -51.5°C | 3.5% | 0hPa | 2.7V | 08:30:00 | 01:43:12 | 00:00:00 | |
| AUTORXJP | 2026-09-05 11:19:25 | 44.27988 | 8.06839 | 284° | 4km/h | 23296m | 5.7m/s | -51.6°C | 0.8% | -1.0hPa | 2.6V | 00:00:00 | 00:00:00 | 00:00:00 | |
| IW2NTF | 2026-09-05 11:19:23 | 44.27972 | 8.06822 | 18° | 22km/h | 23255m | 4.3m/s | -51.8°C | 3.6% | 0hPa | 2.6V | 08:30:00 | 01:43:02 | 00:00:00 | |
| DO3MHA-12 | 2026-09-05 11:19:22 | 44.27987 | 8.06840 | 63° | 15km/h | 23281m | 6.0m/s | -51.6°C | 3.6% | 0hPa | 2.7V | 00:00:00 | 01:43:07 | 00:00:00 | |
| IW2NTF | 2026-09-05 11:19:12 | 44.27951 | 8.06807 | 43° | 4km/h | 23205m | 5.4m/s | -51.6°C | 3.5% | 0hPa | 2.6V | 08:30:00 | 01:42:52 | 00:00:00 | |
| DO3MHA-12 | 2026-09-05 11:19:12 | 44.27953 | 8.06810 | 52° | 5km/h | 23232m | 4.4m/s | -51.7°C | 3.5% | 0hPa | 2.7V | 00:00:00 | 01:42:57 | 00:00:00 | |
| DB0UT-7 | 2026-09-05 11:19:09 | 44.27952 | 8.06807 | 311° | 7km/h | 23216m | 4.9m/s | -51.7°C | 3.5% | 0hPa | 2.7V | 00:00:00 | 00:00:00 | 00:00:00 | |
| IW2NTF | 2026-09-05 11:19:02 | 44.27925 | 8.06806 | 6° | 4km/h | 23156m | 5.6m/s | -51.8°C | 3.5% | 0hPa | 2.7V | 08:30:00 | 01:42:42 | 00:00:00 | |
| AUTORXJP | 2026-09-05 11:18:54 | 44.27924 | 8.06810 | 268° | 5km/h | 23140m | 5.5m/s | -51.8°C | 0.8% | -1.0hPa | 2.6V | 00:00:00 | 00:00:00 | 00:00:00 | |
| IW2NTF | 2026-09-05 11:18:53 | 44.27919 | 8.06826 | 324° | 7km/h | 23104m | 5.5m/s | -52.1°C | 3.5% | 0hPa | 2.6V | 08:30:00 | 01:42:32 | 00:00:00 | |
| DO3MHA-12 | 2026-09-05 11:18:52 | 44.27925 | 8.06814 | 260° | 7km/h | 23130m | 4.3m/s | -51.8°C | 3.6% | 0hPa | 2.7V | 00:00:00 | 01:42:37 | 00:00:00 | |
| IW2NTF | 2026-09-05 11:18:42 | 44.27909 | 8.06855 | 293° | 16km/h | 23053m | 5m/s | -52°C | 3.5% | 0hPa | 2.6V | 08:30:00 | 01:42:22 | 00:00:00 | |
| DB0UT-7 | 2026-09-05 11:18:39 | 44.27910 | 8.06846 | 277° | 7km/h | 23064m | 4.3m/s | -52.0°C | 3.5% | 0hPa | 2.7V | 00:00:00 | 01:42:24 | 08:30:00 | |
| IW2NTF | 2026-09-05 11:18:33 | 44.27889 | 8.06898 | 293° | 9km/h | 23002m | 5.8m/s | -52.7°C | 3.7% | 0hPa | 2.7V | 08:30:00 | 01:42:12 | 00:00:00 | |
| AUTORXJP | 2026-09-05 11:18:23 | 44.27887 | 8.06917 | 275° | 18km/h | 22981m | 4.6m/s | -53.0°C | 0.8% | -1.0hPa | 2.6V | 00:00:00 | 00:00:00 | 00:00:00 | |
| IW2NTF | 2026-09-05 11:18:20 | 44.27885 | 8.06973 | 271° | 13km/h | 22940m | 5.9m/s | -53.1°C | 3.8% | 0hPa | 2.6V | 08:30:00 | 01:42:00 | 00:00:00 | |
| IW2NTF | 2026-09-05 11:18:10 | 44.27899 | 8.06999 | 247° | 15km/h | 22888m | 4.9m/s | -53°C | 3.8% | 0hPa | 2.7V | 08:30:00 | 01:41:50 | 00:00:00 | |
| IW2NTF | 2026-09-05 11:18:01 | 44.27913 | 8.07019 | 198° | 15km/h | 22837m | 5m/s | -53°C | 3.8% | 0hPa | 2.6V | 08:30:00 | 01:41:40 | 00:00:00 | |
| AUTORXJP | 2026-09-05 11:17:52 | 44.27921 | 8.07026 | 221° | 9km/h | 22823m | 4.0m/s | -52.9°C | 0.9% | -1.0hPa | 2.7V | 00:00:00 | 00:00:00 | 00:00:00 | |
| IW2NTF | 2026-09-05 11:17:50 | 44.27928 | 8.07027 | 1° | 2km/h | 22787m | 4.2m/s | -52.9°C | 3.7% | 0hPa | 2.7V | 08:30:00 | 01:41:30 | 00:00:00 | |
| IW2NTF | 2026-09-05 11:17:35 | 44.27937 | 8.07005 | 109° | 13km/h | 22736m | 4.8m/s | -53°C | 3.8% | 0hPa | 2.7V | 08:30:00 | 01:41:20 | 00:00:00 | |
| IW2NTF | 2026-09-05 11:17:29 | 44.27949 | 8.06948 | 104° | 22km/h | 22676m | 4m/s | -52.9°C | 3.7% | 0hPa | 2.7V | 08:30:00 | 01:41:08 | 00:00:00 | |
| DO3MHA-12 | 2026-09-05 11:17:23 | 44.27949 | 8.06948 | 105° | 13km/h | 22676m | 3.9m/s | -52.8°C | 3.7% | 0hPa | 2.7V | 00:00:00 | 01:41:08 | 00:00:00 | |
| AUTORXJP | 2026-09-05 11:17:21 | 44.27950 | 8.06931 | 82° | 11km/h | 22662m | 4.3m/s | -52.9°C | 0.9% | -1.0hPa | 2.7V | 00:00:00 | 00:00:00 | 00:00:00 | |
| IW2NTF | 2026-09-05 11:17:11 | 44.27959 | 8.06900 | 110° | 16km/h | 22617m | 4.8m/s | -53.3°C | 3.8% | 0hPa | 2.7V | 08:30:00 | 01:40:56 | 00:00:00 | |
| DO3MHA-12 | 2026-09-05 11:17:09 | 44.27961 | 8.06889 | 93° | 11km/h | 22608m | 5.4m/s | -53.3°C | 3.8% | 0hPa | 2.6V | 00:00:00 | 01:40:54 | 00:00:00 | |
| IW2NTF | 2026-09-05 11:17:05 | 44.27953 | 8.06855 | 54° | 7km/h | 22570m | 6.2m/s | -53.4°C | 3.8% | 0hPa | 2.6V | 08:30:00 | 01:40:46 | 00:00:00 | |
| DO3MHA-12 | 2026-09-05 11:16:59 | 44.27951 | 8.06852 | 37° | 7km/h | 22558m | 4.2m/s | -53.3°C | 3.9% | 0hPa | 2.7V | 00:00:00 | 01:40:44 | 08:30:00 | |
| IW2NTF | 2026-09-05 11:16:53 | 44.27945 | 8.06836 | 47° | 7km/h | 22518m | 5.5m/s | -53.7°C | 3.8% | 0hPa | 2.6V | 08:30:00 | 01:40:36 | 00:00:00 | |
| AUTORXJP | 2026-09-05 11:16:50 | 44.27942 | 8.06832 | 31° | 5km/h | 22508m | 5.1m/s | -53.8°C | 0.9% | -1.0hPa | 2.7V | 00:00:00 | 00:00:00 | 00:00:00 | |
| DO3MHA-12 | 2026-09-05 11:16:49 | 44.27942 | 8.06832 | 32° | 4km/h | 22509m | 5.1m/s | -53.7°C | 3.9% | 0hPa | 2.7V | 00:00:00 | 01:40:34 | 00:00:00 | |
| IW2NTF | 2026-09-05 11:16:46 | 44.27942 | 8.06833 | 185° | 4km/h | 22469m | 4.8m/s | -53.9°C | 3.9% | 0hPa | 2.7V | 08:30:00 | 01:40:26 | 00:00:00 | |
| DO3MHA-12 | 2026-09-05 11:16:39 | 44.27944 | 8.06833 | 159° | 5km/h | 22460m | 5.6m/s | -53.9°C | 3.9% | 0hPa | 2.6V | 00:00:00 | 01:40:24 | 00:00:00 | |
| IW2NTF | 2026-09-05 11:16:35 | 44.27955 | 8.06830 | 181° | 9km/h | 22419m | 4m/s | -54.1°C | 4.1% | 0hPa | 2.6V | 08:30:00 | 01:40:16 | 00:00:00 | |
| DB0UT-7 | 2026-09-05 11:16:31 | 44.27955 | 8.06830 | 182° | 7km/h | 22420m | 4.0m/s | -54.1°C | 4.1% | 0hPa | 2.7V | 00:00:00 | 00:00:00 | 00:00:00 | |
| DO3MHA-12 | 2026-09-05 11:16:29 | 44.27959 | 8.06831 | 205° | 9km/h | 22410m | 4.7m/s | -54.0°C | 4.0% | 0hPa | 2.7V | 00:00:00 | 01:40:14 | 00:00:00 | |
| IW2NTF | 2026-09-05 11:16:23 | 44.27972 | 8.06818 | 99° | 5km/h | 22371m | 4.8m/s | -54°C | 3.8% | 0hPa | 2.7V | 08:30:00 | 01:40:06 | 00:00:00 | |
| AUTORXJP | 2026-09-05 11:16:19 | 44.27972 | 8.06813 | 82° | 4km/h | 22355m | 4.8m/s | -53.9°C | 0.9% | -1.0hPa | 2.6V | 00:00:00 | 00:00:00 | 00:00:00 | |
| IW2NTF | 2026-09-05 11:16:16 | 44.27974 | 8.06804 | 144° | 5km/h | 22320m | 5.5m/s | -54.1°C | 4% | 0hPa | 2.6V | 08:30:00 | 01:39:56 | 00:00:00 | |
| DO3MHA-12 | 2026-09-05 11:16:09 | 44.27976 | 8.06802 | 138° | 9km/h | 22311m | 4.9m/s | -54.1°C | 4.0% | 0hPa | 2.6V | 00:00:00 | 01:39:54 | 00:00:00 | |
| IW2NTF | 2026-09-05 11:16:05 | 44.27976 | 8.06781 | 74° | 15km/h | 22270m | 4.7m/s | -54.2°C | 3.9% | 0hPa | 2.6V | 08:30:00 | 01:39:46 | 00:00:00 | |
| DB0UT-7 | 2026-09-05 11:16:01 | 44.27976 | 8.06780 | 75° | 15km/h | 22270m | 4.7m/s | -54.2°C | 3.9% | 0hPa | 2.6V | 00:00:00 | 01:39:46 | 00:00:00 | |
| DO3MHA-12 | 2026-09-05 11:15:59 | 44.27973 | 8.06771 | 68° | 15km/h | 22261m | 5.2m/s | -54.3°C | 4.0% | 0hPa | 2.6V | 00:00:00 | 01:39:44 | 00:00:00 | |
| IW2NTF | 2026-09-05 11:15:53 | 44.27961 | 8.06734 | 66° | 16km/h | 22223m | 5.4m/s | -54.3°C | 4.1% | 0hPa | 2.7V | 08:30:00 | 01:39:36 | 00:00:00 | |
| AUTORXJP | 2026-09-05 11:15:48 | 44.27954 | 8.06715 | 65° | 15km/h | 22203m | 4.5m/s | -54.3°C | 0.9% | -1.0hPa | 2.6V | 00:00:00 | 00:00:00 | 00:00:00 | |
| DO3MHA-12 | 2026-09-05 11:15:39 | 44.27930 | 8.06688 | 48° | 15km/h | 22165m | 4.2m/s | -54.0°C | 4.1% | 0hPa | 2.6V | 00:00:00 | 01:39:24 | 00:00:00 | |
| IW2NTF | 2026-09-05 11:15:36 | 44.27918 | 8.06676 | 30° | 13km/h | 22146m | 5.3m/s | -54°C | 4% | 0hPa | 2.6V | 08:30:00 | 01:39:20 | 00:00:00 | |
| DB0UT-7 | 2026-09-05 11:15:31 | 44.27905 | 8.06667 | 20° | 16km/h | 22127m | 4.5m/s | -53.8°C | 4.1% | 0hPa | 2.7V | 00:00:00 | 00:00:00 | 00:00:00 | |
| IW2NTF | 2026-09-05 11:15:30 | 44.27874 | 8.06652 | 12° | 13km/h | 22086m | 5m/s | -53.7°C | 3.9% | 0hPa | 2.6V | 08:30:00 | 01:39:08 | 00:00:00 | |
| DO3MHA-12 | 2026-09-05 11:15:29 | 44.27897 | 8.06662 | 26° | 15km/h | 22117m | 5.5m/s | -53.7°C | 4.1% | 0hPa | 2.6V | 00:00:00 | 01:39:14 | 08:30:00 | |
| IW2NTF | 2026-09-05 11:15:18 | 44.27831 | 8.06646 | 359° | 20km/h | 22037m | 4.2m/s | -53.3°C | 3.8% | 0hPa | 2.6V | 08:30:00 | 01:38:58 | 00:00:00 | |
| AUTORXJP | 2026-09-05 11:15:16 | 44.27845 | 8.06648 | 10° | 16km/h | 22051m | 4.4m/s | -53.3°C | 0.9% | -1.0hPa | 2.6V | 00:00:00 | 00:00:00 | 00:00:00 | |
| DO3MHA-12 | 2026-09-05 11:15:08 | 44.27814 | 8.06643 | 2° | 15km/h | 22012m | 5.5m/s | -53.2°C | 3.8% | 0hPa | 2.6V | 00:00:00 | 01:38:53 | 00:00:00 | |
| IW2NTF | 2026-09-05 11:15:05 | 44.27798 | 8.06645 | 352° | 16km/h | 21988m | 4.5m/s | -53.2°C | 3.8% | 0hPa | 2.6V | 08:30:00 | 01:38:48 | 00:00:00 | |
| DB0UT-7 | 2026-09-05 11:15:01 | 44.27788 | 8.06648 | 340° | 11km/h | 21978m | 4.1m/s | -53.2°C | 3.8% | 0hPa | 2.6V | 00:00:00 | 01:38:46 | 00:00:00 | |
| IW2NTF | 2026-09-05 11:14:58 | 44.27767 | 8.06656 | 333° | 2km/h | 21939m | 5.6m/s | -52.9°C | 3.6% | 0hPa | 2.6V | 08:30:00 | 01:38:38 | 00:00:00 | |
| DO3MHA-12 | 2026-09-05 11:14:58 | 44.27777 | 8.06653 | 350° | 7km/h | 21963m | 4.9m/s | -53.0°C | 3.7% | 0hPa | 2.6V | 00:00:00 | 01:38:43 | 00:00:00 | |
| DO3MHA-12 | 2026-09-05 11:14:48 | 44.27762 | 8.06668 | 302° | 11km/h | 21915m | 4.8m/s | -53.5°C | 3.7% | 0hPa | 2.7V | 00:00:00 | 01:38:33 | 00:00:00 | |
| IW2NTF | 2026-09-05 11:14:47 | 44.27750 | 8.06686 | 333° | 15km/h | 21889m | 3.8m/s | -53.8°C | 3.8% | 0hPa | 2.7V | 08:30:00 | 01:38:28 | 00:00:00 | |
| AUTORXJP | 2026-09-05 11:14:45 | 44.27756 | 8.06680 | 318° | 15km/h | 21899m | 5.1m/s | -53.8°C | 0.9% | -1.0hPa | 2.6V | 00:00:00 | 00:00:00 | 00:00:00 | |
| DO3MHA-12 | 2026-09-05 11:14:38 | 44.27740 | 8.06687 | 306° | 9km/h | 21864m | 4.9m/s | -53.9°C | 3.8% | 0hPa | 2.6V | 00:00:00 | 01:38:23 | 00:00:00 | |
| IW2NTF | 2026-09-05 11:14:35 | 44.27747 | 8.06702 | 235° | 13km/h | 21839m | 5.1m/s | -54.4°C | 4% | 0hPa | 2.6V | 08:30:00 | 01:38:18 | 00:00:00 | |
| DB0UT-7 | 2026-09-05 11:14:31 | 44.27749 | 8.06709 | 256° | 7km/h | 21830m | 3.8m/s | -54.5°C | 4.1% | 0hPa | 2.7V | 00:00:00 | 00:00:00 | 00:00:00 | |
| IW2NTF | 2026-09-05 11:14:28 | 44.27750 | 8.06705 | 94° | 5km/h | 21790m | 5.3m/s | -54.6°C | 4% | 0hPa | 2.7V | 08:30:00 | 01:38:08 | 00:00:00 | |
| DO3MHA-12 | 2026-09-05 11:14:28 | 44.27751 | 8.06714 | 146° | 5km/h | 21815m | 4.6m/s | -54.5°C | 4.0% | 0hPa | 2.6V | 00:00:00 | 01:38:13 | 00:00:00 | |
| DO3MHA-12 | 2026-09-05 11:14:18 | 44.27750 | 8.06707 | 285° | 7km/h | 21766m | 5.4m/s | -54.7°C | 4.0% | 0hPa | 2.7V | 00:00:00 | 01:38:03 | 00:00:00 | |
| IW2NTF | 2026-09-05 11:14:17 | 44.27747 | 8.06715 | 37° | 4km/h | 21741m | 4m/s | -54.8°C | 4.1% | 0hPa | 2.7V | 08:30:00 | 01:37:58 | 00:00:00 | |
| AUTORXJP | 2026-09-05 11:14:14 | 44.27748 | 8.06715 | 330° | 4km/h | 21746m | 4.8m/s | -54.8°C | 1.0% | -1.0hPa | 2.7V | 00:00:00 | 00:00:00 | 00:00:00 | |
| DO3MHA-12 | 2026-09-05 11:14:08 | 44.27750 | 8.06703 | 118° | 5km/h | 21717m | 4.8m/s | -54.8°C | 4.1% | 0hPa | 2.7V | 00:00:00 | 01:37:53 | 00:00:00 | |
| IW2NTF | 2026-09-05 11:14:05 | 44.27755 | 8.06706 | 255° | 7km/h | 21691m | 5.8m/s | -54.9°C | 4.1% | 0hPa | 2.7V | 08:30:00 | 01:37:48 | 00:00:00 | |
| IW2NTF | 2026-09-05 11:13:58 | 44.27759 | 8.06700 | 106° | 9km/h | 21643m | 5.6m/s | -55.1°C | 4.2% | 0hPa | 2.6V | 08:30:00 | 01:37:38 | 00:00:00 | |
| DO3MHA-12 | 2026-09-05 11:13:58 | 44.27757 | 8.06714 | 141° | 7km/h | 21668m | 4.7m/s | -54.9°C | 4.1% | 0hPa | 2.7V | 00:00:00 | 01:37:43 | 08:30:00 | |
| DO3MHA-12 | 2026-09-05 11:13:48 | 44.27763 | 8.06693 | 189° | 5km/h | 21620m | 4.2m/s | -55.0°C | 4.1% | 0hPa | 2.6V | 00:00:00 | 01:37:33 | 00:00:00 | |
| IW2NTF | 2026-09-05 11:13:47 | 44.27766 | 8.06693 | 28° | 5km/h | 21594m | 4.5m/s | -55.1°C | 4.1% | 0hPa | 2.6V | 08:30:00 | 01:37:28 | 00:00:00 | |
| AUTORXJP | 2026-09-05 11:13:43 | 44.27766 | 8.06693 | 28° | 4km/h | 21595m | 4.5m/s | -55.1°C | 1.0% | -1.0hPa | 2.7V | 00:00:00 | 00:00:00 | 00:00:00 | |
| DO3MHA-12 | 2026-09-05 11:13:38 | 44.27760 | 8.06686 | 19° | 7km/h | 21572m | 5.1m/s | -55.0°C | 4.1% | 0hPa | 2.7V | 00:00:00 | 01:37:23 | 00:00:00 | |
| IW2NTF | 2026-09-05 11:13:35 | 44.27752 | 8.06687 | 315° | 4km/h | 21547m | 4.3m/s | -55.2°C | 4.1% | 0hPa | 2.7V | 08:30:00 | 01:37:18 | 00:00:00 | |
| IW2NTF | 2026-09-05 11:13:28 | 44.27727 | 8.06701 | 352° | 15km/h | 21499m | 4.3m/s | -55.8°C | 4.2% | 0hPa | 2.6V | 08:30:00 | 01:37:08 | 00:00:00 | |
| DO3MHA-12 | 2026-09-05 11:13:28 | 44.27743 | 8.06694 | 339° | 13km/h | 21522m | 5.4m/s | -55.6°C | 4.2% | 0hPa | 2.6V | 00:00:00 | 01:37:13 | 00:00:00 | |
| DB0UT-7 | 2026-09-05 11:13:24 | 44.27730 | 8.06700 | 349° | 9km/h | 21503m | 3.8m/s | -55.8°C | 4.3% | 0hPa | 2.6V | 00:00:00 | 01:37:09 | 00:00:00 | |
| DO3MHA-12 | 2026-09-05 11:13:18 | 44.27713 | 8.06704 | 314° | 11km/h | 21474m | 4.6m/s | 0°C | 0% | 0hPa | 2.6V | 00:00:00 | 01:37:03 | 00:00:00 | |
| IW2NTF | 2026-09-05 11:13:17 | 44.27708 | 8.06725 | 272° | 11km/h | 21451m | 4.6m/s | -55.8°C | 4.3% | 0hPa | 2.6V | 08:30:00 | 01:36:58 | 00:00:00 | |
| AUTORXJP | 2026-09-05 11:13:12 | 44.27708 | 8.06729 | 282° | 9km/h | 21446m | 5.2m/s | -55.8°C | 1.0% | -1.0hPa | 2.6V | 00:00:00 | 00:00:00 | 00:00:00 | |
| DO3MHA-12 | 2026-09-05 11:13:08 | 44.27705 | 8.06738 | 320° | 5km/h | 21426m | 4.4m/s | 0°C | 0% | 0hPa | 2.6V | 00:00:00 | 01:36:53 | 00:00:00 | |
| IW2NTF | 2026-09-05 11:13:03 | 44.27699 | 8.06741 | 279° | 4km/h | 21402m | 4.9m/s | -55.9°C | 4.3% | 0hPa | 2.6V | 08:30:00 | 01:36:48 | 00:00:00 | |
| DO3MHA-12 | 2026-09-05 11:12:58 | 44.27703 | 8.06754 | 237° | 5km/h | 21378m | 5.4m/s | 0°C | 0% | 0hPa | 2.7V | 00:00:00 | 01:36:43 | 00:00:00 | |
| IW2NTF | 2026-09-05 11:12:57 | 44.27709 | 8.06759 | 40° | 0km/h | 21352m | 4.3m/s | -56.1°C | 4.4% | 0hPa | 2.7V | 08:30:00 | 01:36:38 | 00:00:00 | |
| DB0UT-7 | 2026-09-05 11:12:54 | 44.27709 | 8.06759 | 202° | 7km/h | 21357m | 5.4m/s | -56.0°C | 4.3% | 0hPa | 2.6V | 00:00:00 | 00:00:00 | 00:00:00 | |
| DO3MHA-12 | 2026-09-05 11:12:48 | 44.27711 | 8.06757 | 204° | 5km/h | 21327m | 5.0m/s | 0°C | 0% | 0hPa | 2.6V | 00:00:00 | 01:36:33 | 00:00:00 | |
| IW2NTF | 2026-09-05 11:12:45 | 44.27719 | 8.06761 | 195° | 7km/h | 21301m | 5.3m/s | -56.2°C | 4.4% | 0hPa | 2.6V | 08:30:00 | 01:36:28 | 00:00:00 | |
| AUTORXJP | 2026-09-05 11:12:41 | 44.27722 | 8.06762 | 201° | 2km/h | 21292m | 3.4m/s | -56.2°C | 1.1% | -1.0hPa | 2.7V | 00:00:00 | 00:00:00 | 00:00:00 | |
| IW2NTF | 2026-09-05 11:12:38 | 44.27727 | 8.06746 | 110° | 7km/h | 21252m | 5m/s | -56.9°C | 4.3% | 0hPa | 2.7V | 08:30:00 | 01:36:18 | 00:00:00 | |
| DO3MHA-12 | 2026-09-05 11:12:38 | 44.27724 | 8.06760 | 127° | 9km/h | 21277m | 5.2m/s | 0°C | 0% | 0hPa | 2.6V | 00:00:00 | 01:36:23 | 00:00:00 | |
| DO3MHA-12 | 2026-09-05 11:12:28 | 44.27739 | 8.06740 | 185° | 13km/h | 21228m | 5.2m/s | 0°C | 0% | 0hPa | 2.6V | 00:00:00 | 01:36:13 | 00:00:00 | |
| IW2NTF | 2026-09-05 11:12:27 | 44.27755 | 8.06734 | 143° | 20km/h | 21204m | 4.1m/s | -57.4°C | 4.6% | 0hPa | 2.6V | 08:30:00 | 01:36:08 | 00:00:00 | |
| IW2NTF | 2026-09-05 11:12:15 | 44.27794 | 8.06696 | 157° | 18km/h | 21154m | 4.2m/s | -57.5°C | 4.6% | 0hPa | 2.6V | 08:30:00 | 01:35:58 | 00:00:00 | |
| AUTORXJP | 2026-09-05 11:12:10 | 44.27810 | 8.06677 | 126° | 22km/h | 21135m | 4.7m/s | -57.6°C | 1.1% | -1.0hPa | 2.7V | 00:00:00 | 00:00:00 | 00:00:00 | |
| IW2NTF | 2026-09-05 11:12:08 | 44.27827 | 8.06636 | 118° | 22km/h | 21103m | 4.4m/s | -57.8°C | 4.7% | 0hPa | 2.7V | 08:30:00 | 01:35:48 | 00:00:00 | |
| IW2NTF | 2026-09-05 11:11:57 | 44.27845 | 8.06567 | 106° | 24km/h | 21052m | 5.5m/s | -57.8°C | 4.8% | 0hPa | 2.6V | 08:30:00 | 01:35:38 | 00:00:00 | |
| DB0UT-7 | 2026-09-05 11:11:54 | 44.27844 | 8.06575 | 104° | 20km/h | 21058m | 5.9m/s | -57.8°C | 4.7% | 0hPa | 2.6V | 00:00:00 | 00:00:00 | 08:30:00 | |
| IW2NTF | 2026-09-05 11:11:45 | 44.27853 | 8.06496 | 73° | 22km/h | 21000m | 4.8m/s | -57.7°C | 4.7% | 0hPa | 2.7V | 08:30:00 | 01:35:28 | 00:00:00 | |
| AUTORXJP | 2026-09-05 11:11:39 | 44.27849 | 8.06461 | 84° | 24km/h | 20980m | 5.8m/s | -57.7°C | 1.2% | -1.0hPa | 2.6V | 00:00:00 | 00:00:00 | 00:00:00 | |
| IW2NTF | 2026-09-05 11:11:38 | 44.27850 | 8.06418 | 79° | 15km/h | 20950m | 5.3m/s | -57.5°C | 4.7% | 0hPa | 2.6V | 08:30:00 | 01:35:18 | 00:00:00 | |
| IW2NTF | 2026-09-05 11:11:25 | 44.27835 | 8.06364 | 95° | 18km/h | 20900m | 4.9m/s | -57.6°C | 4.7% | 0hPa | 2.6V | 08:30:00 | 01:35:08 | 00:00:00 | |
| DB0UT-7 | 2026-09-05 11:11:24 | 44.27834 | 8.06369 | 83° | 15km/h | 20905m | 5.8m/s | -57.6°C | 4.7% | 0hPa | 2.7V | 00:00:00 | 01:35:09 | 00:00:00 | |
| IW2NTF | 2026-09-05 11:11:18 | 44.27819 | 8.06315 | 39° | 18km/h | 20850m | 5.5m/s | -57.4°C | 4.7% | 0hPa | 2.7V | 08:30:00 | 01:34:58 | 00:00:00 | |
| IW2NTF | 2026-09-05 11:11:07 | 44.27791 | 8.06275 | 54° | 13km/h | 20801m | 4.8m/s | -57°C | 4.6% | 0hPa | 2.6V | 08:30:00 | 01:34:48 | 00:00:00 | |
| IW2NTF | 2026-09-05 11:10:55 | 44.27771 | 8.06252 | 64° | 11km/h | 20750m | 5.8m/s | -56.8°C | 4.5% | 0hPa | 2.7V | 08:30:00 | 01:34:38 | 00:00:00 | |
| IW2NTF | 2026-09-05 11:10:48 | 44.27753 | 8.06238 | 346° | 7km/h | 20699m | 4.5m/s | -56.7°C | 4.5% | 0hPa | 2.6V | 08:30:00 | 01:34:28 | 00:00:00 | |
| IW2NTF | 2026-09-05 11:10:37 | 44.27726 | 8.06239 | 292° | 9km/h | 20639m | 4.3m/s | -56.5°C | 4.6% | 0hPa | 2.6V | 08:30:00 | 01:34:16 | 00:00:00 | |
| AUTORXJP | 2026-09-05 11:10:37 | 44.27733 | 8.06235 | 11° | 11km/h | 20660m | 5.2m/s | -56.6°C | 1.1% | -1.0hPa | 2.6V | 00:00:00 | 00:00:00 | 00:00:00 | |
| IW2NTF | 2026-09-05 11:10:25 | 44.27711 | 8.06268 | 329° | 11km/h | 20591m | 5.4m/s | -56.1°C | 4.5% | 0hPa | 2.6V | 08:30:00 | 01:34:06 | 00:00:00 | |
| DB0UT-7 | 2026-09-05 11:10:24 | 44.27719 | 8.06262 | 319° | 7km/h | 20605m | 5.4m/s | -56.1°C | 4.4% | 0hPa | 2.7V | 00:00:00 | 01:34:09 | 00:00:00 | |
| IW2NTF | 2026-09-05 11:10:13 | 44.27703 | 8.06294 | 260° | 5km/h | 20542m | 5.6m/s | -55.9°C | 4.4% | 0hPa | 2.6V | 08:30:00 | 01:33:56 | 00:00:00 | |
| IW2NTF | 2026-09-05 11:10:06 | 44.27706 | 8.06309 | 244° | 9km/h | 20490m | 4.5m/s | -56.1°C | 4.3% | 0hPa | 2.6V | 08:30:00 | 01:33:46 | 00:00:00 | |
| AUTORXJP | 2026-09-05 11:10:06 | 44.27707 | 8.06311 | 226° | 7km/h | 20484m | 5.8m/s | -56.0°C | 1.1% | -1.0hPa | 2.6V | 00:00:00 | 00:00:00 | 00:00:00 | |
| IW2NTF | 2026-09-05 11:09:55 | 44.27723 | 8.06318 | 209° | 7km/h | 20440m | 4.1m/s | -55.9°C | 4.3% | 0hPa | 2.6V | 08:30:00 | 01:33:36 | 00:00:00 | |
| DB0UT-7 | 2026-09-05 11:09:54 | 44.27717 | 8.06317 | 173° | 16km/h | 20455m | 5.2m/s | -55.9°C | 4.4% | 0hPa | 2.7V | 00:00:00 | 00:00:00 | 00:00:00 | |
| IW2NTF | 2026-09-05 11:09:43 | 44.27760 | 8.06331 | 156° | 18km/h | 20393m | 4.9m/s | -56°C | 4.5% | 0hPa | 2.7V | 08:30:00 | 01:33:26 | 00:00:00 | |
| IW2NTF | 2026-09-05 11:09:36 | 44.27799 | 8.06312 | 184° | 24km/h | 20345m | 5.1m/s | -56°C | 4.3% | 0hPa | 2.7V | 08:30:00 | 01:33:16 | 00:00:00 | |
| AUTORXJP | 2026-09-05 11:09:35 | 44.27783 | 8.06311 | 171° | 18km/h | 20359m | 4.6m/s | -56.2°C | 1.1% | -1.0hPa | 2.7V | 00:00:00 | 00:00:00 | 00:00:00 | |
| IW2NTF | 2026-09-05 11:09:25 | 44.27854 | 8.06274 | 149° | 24km/h | 20297m | 5.2m/s | -55.7°C | 4.4% | 0hPa | 2.7V | 08:30:00 | 01:33:06 | 00:00:00 | |
| DB0UT-7 | 2026-09-05 11:09:24 | 44.27838 | 8.06292 | 137° | 26km/h | 20311m | 5.2m/s | -55.7°C | 4.4% | 0hPa | 2.7V | 00:00:00 | 01:33:09 | 00:00:00 | |
| IW2NTF | 2026-09-05 11:09:13 | 44.27909 | 8.06251 | 145° | 27km/h | 20251m | 5.7m/s | -55.5°C | 4.3% | 0hPa | 2.7V | 08:30:00 | 01:32:56 | 00:00:00 | |
| IW2NTF | 2026-09-05 11:09:06 | 44.27966 | 8.06199 | 151° | 15km/h | 20203m | 3.9m/s | -55.5°C | 4.2% | 0hPa | 2.6V | 08:30:00 | 01:32:46 | 00:00:00 | |
| AUTORXJP | 2026-09-05 11:09:04 | 44.27958 | 8.06205 | 150° | 22km/h | 20214m | 5.0m/s | -55.5°C | 1.0% | -1.0hPa | 2.7V | 00:00:00 | 00:00:00 | 00:00:00 | |
| IW2NTF | 2026-09-05 11:08:55 | 44.28012 | 8.06141 | 137° | 26km/h | 20156m | 4.4m/s | -55.6°C | 4.2% | 0hPa | 2.7V | 08:30:00 | 01:32:36 | 00:00:00 | |
| DB0UT-7 | 2026-09-05 11:08:54 | 44.27998 | 8.06162 | 131° | 20km/h | 20170m | 4.4m/s | -55.4°C | 4.2% | 0hPa | 2.6V | 00:00:00 | 00:00:00 | 00:00:00 | |
| IW2NTF | 2026-09-05 11:08:43 | 44.28038 | 8.06085 | 118° | 26km/h | 20108m | 4m/s | -55.5°C | 4.1% | 0hPa | 2.6V | 08:30:00 | 01:32:26 | 00:00:00 | |
| IW2NTF | 2026-09-05 11:08:36 | 44.28043 | 8.06036 | 86° | 9km/h | 20060m | 5m/s | -56.2°C | 4.3% | 0hPa | 2.6V | 08:30:00 | 01:32:16 | 00:00:00 | |
| AUTORXJP | 2026-09-05 11:08:33 | 44.28044 | 8.06039 | 70° | 7km/h | 20065m | 3.8m/s | -56.0°C | 1.1% | -1.0hPa | 2.6V | 00:00:00 | 00:00:00 | 00:00:00 | |
| IW2NTF | 2026-09-05 11:08:25 | 44.28074 | 8.05979 | 109° | 15km/h | 20014m | 5m/s | -56.8°C | 4.4% | 0hPa | 2.6V | 08:30:00 | 01:32:06 | 00:00:00 | |
| DB0UT-7 | 2026-09-05 11:08:24 | 44.28066 | 8.05997 | 129° | 16km/h | 20029m | 4.2m/s | -56.7°C | 4.4% | 0hPa | 2.6V | 00:00:00 | 01:32:09 | 00:00:00 | |
| IW2NTF | 2026-09-05 11:08:13 | 44.28084 | 8.05928 | 122° | 13km/h | 19966m | 5.1m/s | -56.9°C | 4.4% | 0hPa | 2.6V | 08:30:00 | 01:31:56 | 00:00:00 | |
| IW2NTF | 2026-09-05 11:08:06 | 44.28077 | 8.05886 | 78° | 18km/h | 19919m | 5.1m/s | -57.5°C | 4.6% | 0hPa | 2.7V | 08:30:00 | 01:31:46 | 00:00:00 | |
| AUTORXJP | 2026-09-05 11:08:01 | 44.28077 | 8.05886 | 78° | 16km/h | 19919m | 5.1m/s | -57.5°C | 1.2% | -1.0hPa | 2.6V | 00:00:00 | 00:00:00 | 00:00:00 | |
| IW2NTF | 2026-09-05 11:07:55 | 44.28064 | 8.05831 | 42° | 22km/h | 19874m | 5.1m/s | -57.5°C | 4.6% | 0hPa | 2.6V | 08:30:00 | 01:31:36 | 00:00:00 | |
| DB0UT-7 | 2026-09-05 11:07:54 | 44.28073 | 8.05844 | 61° | 16km/h | 19887m | 5.1m/s | 0°C | 0% | 0hPa | 2.7V | 00:00:00 | 00:00:00 | 00:00:00 | |
| IW2NTF | 2026-09-05 11:07:43 | 44.28033 | 8.05775 | 36° | 18km/h | 19828m | 4.4m/s | -57.4°C | 4.6% | 0hPa | 2.7V | 08:30:00 | 01:31:26 | 00:00:00 | |
| IW2NTF | 2026-09-05 11:07:36 | 44.28004 | 8.05727 | 91° | 11km/h | 19781m | 5.8m/s | -57.2°C | 4.6% | 0hPa | 2.7V | 08:30:00 | 01:31:16 | 00:00:00 | |
| AUTORXJP | 2026-09-05 11:07:30 | 44.28004 | 8.05724 | 78° | 5km/h | 19775m | 5.7m/s | -57.2°C | 1.2% | -1.0hPa | 2.7V | 00:00:00 | 00:00:00 | 00:00:00 | |
| IW2NTF | 2026-09-05 11:07:25 | 44.27990 | 8.05708 | 42° | 9km/h | 19731m | 4.8m/s | -57.6°C | 4.5% | 0hPa | 2.7V | 08:30:00 | 01:31:06 | 00:00:00 | |
| DB0UT-7 | 2026-09-05 11:07:24 | 44.27995 | 8.05713 | 40° | 9km/h | 19746m | 5.3m/s | 0°C | 0% | 0hPa | 2.6V | 00:00:00 | 01:31:09 | 00:00:00 | |
| IW2NTF | 2026-09-05 11:07:11 | 44.27989 | 8.05687 | 156° | 7km/h | 19671m | 5.6m/s | -58°C | 4.7% | 0hPa | 2.6V | 08:30:00 | 01:30:54 | 00:00:00 | |
| IW2NTF | 2026-09-05 11:07:04 | 44.28015 | 8.05669 | 161° | 15km/h | 19621m | 6m/s | -58°C | 4.8% | 0hPa | 2.7V | 08:30:00 | 01:30:44 | 00:00:00 | |
| AUTORXJP | 2026-09-05 11:06:59 | 44.28015 | 8.05669 | 161° | 15km/h | 19621m | 6.0m/s | -58.0°C | 1.2% | -1.0hPa | 2.7V | 00:00:00 | 00:00:00 | 00:00:00 | |
| IW2NTF | 2026-09-05 11:06:53 | 44.28061 | 8.05637 | 147° | 24km/h | 19570m | 5.2m/s | -57.8°C | 4.7% | 0hPa | 2.7V | 08:30:00 | 01:30:34 | 00:00:00 | |
| AUTORXJP | 2026-09-05 11:06:28 | 44.28165 | 8.05509 | 128° | 29km/h | 19463m | 5.3m/s | -57.8°C | 1.2% | -1.0hPa | 2.7V | 00:00:00 | 00:00:00 | 00:00:00 | |
| AUTORXJP | 2026-09-05 11:05:57 | 44.28274 | 8.05270 | 128° | 20km/h | 19308m | 4.9m/s | -58.1°C | 1.3% | -1.0hPa | 2.7V | 00:00:00 | 00:00:00 | 00:00:00 | |
| AUTORXJP | 2026-09-05 11:05:26 | 44.28332 | 8.05028 | 88° | 16km/h | 19157m | 4.9m/s | -58.4°C | 1.3% | -1.0hPa | 2.7V | 00:00:00 | 00:00:00 | 00:00:00 | |
| AUTORXJP | 2026-09-05 11:04:55 | 44.28349 | 8.04881 | 150° | 15km/h | 19014m | 4.6m/s | -59.9°C | 1.4% | -1.0hPa | 2.7V | 00:00:00 | 00:00:00 | 00:00:00 | |
| AUTORXJP | 2026-09-05 11:04:24 | 44.28507 | 8.04729 | 123° | 33km/h | 18874m | 4.1m/s | -60.7°C | 1.6% | -1.0hPa | 2.7V | 00:00:00 | 00:00:00 | 00:00:00 | |
| AUTORXJP | 2026-09-05 11:03:53 | 44.28648 | 8.04487 | 132° | 31km/h | 18732m | 4.2m/s | -60.0°C | 1.5% | -1.0hPa | 2.7V | 00:00:00 | 00:00:00 | 00:00:00 | |
| AUTORXJP | 2026-09-05 11:03:22 | 44.28741 | 8.04229 | 113° | 22km/h | 18580m | 5.3m/s | -59.3°C | 1.4% | -1.0hPa | 2.7V | 00:00:00 | 00:00:00 | 00:00:00 | |
| IW2NTF | 2026-09-05 11:03:15 | 44.28751 | 8.04159 | 117° | 20km/h | 18532m | 4.6m/s | -59.2°C | 5.2% | 0hPa | 2.7V | 08:30:00 | 01:26:56 | 00:00:00 | |
| IW2NTF | 2026-09-05 11:03:04 | 44.28771 | 8.04098 | 128° | 13km/h | 18485m | 5.1m/s | -58.9°C | 5.2% | 0hPa | 2.7V | 08:30:00 | 01:26:46 | 00:00:00 | |
| IW2NTF | 2026-09-05 11:02:56 | 44.28795 | 8.04052 | 101° | 20km/h | 18439m | 4.8m/s | -58.5°C | 5% | 0hPa | 2.6V | 08:30:00 | 01:26:36 | 00:00:00 | |
| AUTORXJP | 2026-09-05 11:02:51 | 44.28795 | 8.04046 | 96° | 16km/h | 18434m | 4.4m/s | -58.4°C | 1.4% | -1.0hPa | 2.7V | 00:00:00 | 00:00:00 | 00:00:00 | |
| IW2NTF | 2026-09-05 11:02:45 | 44.28806 | 8.04013 | 129° | 15km/h | 18393m | 4m/s | -58.1°C | 4.9% | 0hPa | 2.7V | 08:30:00 | 01:26:26 | 00:00:00 | |
| IW2NTF | 2026-09-05 11:02:36 | 44.28811 | 8.03971 | 69° | 5km/h | 18347m | 4.9m/s | -57.9°C | 4.9% | 0hPa | 2.6V | 08:30:00 | 01:26:16 | 00:00:00 | |
| IW2NTF | 2026-09-05 11:02:27 | 44.28810 | 8.03959 | 92° | 13km/h | 18301m | 5m/s | -57.6°C | 4.8% | 0hPa | 2.6V | 08:30:00 | 01:26:06 | 00:00:00 | |
| AUTORXJP | 2026-09-05 11:02:20 | 44.28810 | 8.03948 | 95° | 15km/h | 18292m | 5.0m/s | -57.5°C | 1.3% | -1.0hPa | 2.6V | 00:00:00 | 00:00:00 | 00:00:00 | |
| IW2NTF | 2026-09-05 11:02:17 | 44.28820 | 8.03920 | 123° | 7km/h | 18257m | 4.1m/s | -57.4°C | 4.7% | 0hPa | 2.6V | 08:30:00 | 01:25:56 | 00:00:00 | |
| IW2NTF | 2026-09-05 11:02:07 | 44.28829 | 8.03876 | 127° | 18km/h | 18212m | 3.7m/s | -57.4°C | 4.8% | 0hPa | 2.7V | 08:30:00 | 01:25:46 | 00:00:00 | |
| IW2NTF | 2026-09-05 11:01:56 | 44.28861 | 8.03833 | 136° | 18km/h | 18172m | 3.6m/s | -57.1°C | 4.6% | 0hPa | 2.7V | 08:30:00 | 01:25:36 | 00:00:00 | |
| AUTORXJP | 2026-09-05 11:01:48 | 44.28874 | 8.03820 | 148° | 22km/h | 18159m | 3.7m/s | -57.1°C | 1.3% | -1.0hPa | 2.6V | 00:00:00 | 00:00:00 | 00:00:00 | |
| IW2NTF | 2026-09-05 11:01:46 | 44.28905 | 8.03787 | 140° | 22km/h | 18128m | 4m/s | -56.8°C | 4.7% | 0hPa | 2.6V | 08:30:00 | 01:25:26 | 00:00:00 | |
| IW2NTF | 2026-09-05 11:01:36 | 44.28954 | 8.03755 | 151° | 20km/h | 18083m | 4.2m/s | -56.6°C | 4.5% | 0hPa | 2.6V | 08:30:00 | 01:25:16 | 00:00:00 | |
| IW2NTF | 2026-09-05 11:01:27 | 44.28999 | 8.03707 | 142° | 22km/h | 18037m | 5.1m/s | -56.4°C | 4.5% | 0hPa | 2.7V | 08:30:00 | 01:25:06 | 00:00:00 | |
| AUTORXJP | 2026-09-05 11:01:17 | 44.29017 | 8.03687 | 149° | 22km/h | 18020m | 4.6m/s | -56.8°C | 1.3% | -1.0hPa | 2.7V | 00:00:00 | 00:00:00 | 00:00:00 | |
| IW2NTF | 2026-09-05 11:01:16 | 44.29041 | 8.03660 | 138° | 15km/h | 17992m | 4.2m/s | -57.4°C | 4.8% | 0hPa | 2.7V | 08:30:00 | 01:24:56 | 00:00:00 | |
| IW2NTF | 2026-09-05 11:01:06 | 44.29074 | 8.03605 | 119° | 29km/h | 17948m | 3.3m/s | -57.6°C | 4.8% | 0hPa | 2.6V | 08:30:00 | 01:24:46 | 00:00:00 | |
| IW2NTF | 2026-09-05 11:00:59 | 44.29126 | 8.03443 | 103° | 37km/h | 17874m | 4.4m/s | -58°C | 4.8% | 0hPa | 2.7V | 08:30:00 | 01:24:30 | 00:00:00 | |
| IW2NTF | 2026-09-05 11:00:49 | 44.29149 | 8.03328 | 110° | 29km/h | 17828m | 4.6m/s | -58.9°C | 5.3% | 0hPa | 2.7V | 08:30:00 | 01:24:20 | 00:00:00 | |
| IW2NTF | 2026-09-05 11:00:38 | 44.29169 | 8.03157 | 88° | 42km/h | 17764m | 4.7m/s | -59.4°C | 5.3% | 0hPa | 2.6V | 08:30:00 | 01:24:06 | 00:00:00 | |
| IW2NTF | 2026-09-05 11:00:28 | 44.29171 | 8.03063 | 97° | 46km/h | 17735m | 4m/s | -59.8°C | 5.6% | 0hPa | 2.6V | 08:30:00 | 01:24:00 | 00:00:00 | |
| AUTORXJP | 2026-09-05 11:00:17 | 44.29171 | 8.03063 | 97° | 44km/h | 17735m | 4.1m/s | -59.8°C | 1.9% | -1.0hPa | 2.6V | 00:00:00 | 00:00:00 | 00:00:00 | |
| IW2NTF | 2026-09-05 11:00:10 | 44.29160 | 8.02907 | 76° | 53km/h | 17688m | 4.8m/s | -60.6°C | 5.7% | 0hPa | 2.6V | 08:30:00 | 01:23:50 | 00:00:00 | |
| IW2NTF | 2026-09-05 11:00:00 | 44.29131 | 8.02750 | 66° | 37km/h | 17639m | 6m/s | -61.1°C | 6.1% | 0hPa | 2.7V | 08:30:00 | 01:23:40 | 00:00:00 | |
| IW2NTF | 2026-09-05 10:59:50 | 44.29103 | 8.02614 | 83° | 37km/h | 17588m | 4.2m/s | -61.8°C | 6.6% | 0hPa | 2.7V | 08:30:00 | 01:23:30 | 00:00:00 | |
| AUTORXJP | 2026-09-05 10:59:45 | 44.29097 | 8.02577 | 74° | 37km/h | 17574m | 4.5m/s | -61.8°C | 2.3% | -1.0hPa | 2.7V | 00:00:00 | 00:00:00 | 00:00:00 | |
| IW2NTF | 2026-09-05 10:59:40 | 44.29077 | 8.02493 | 69° | 33km/h | 17539m | 5.6m/s | -61.5°C | 6.6% | 0hPa | 2.7V | 08:30:00 | 01:23:20 | 00:00:00 | |
| IW2NTF | 2026-09-05 10:59:30 | 44.29056 | 8.02405 | 66° | 26km/h | 17489m | 5m/s | -61.3°C | 6.5% | 0hPa | 2.7V | 08:30:00 | 01:23:10 | 00:00:00 | |
| IW2NTF | 2026-09-05 10:59:20 | 44.29034 | 8.02318 | 78° | 22km/h | 17440m | 4.5m/s | -61.1°C | 6.5% | 0hPa | 2.7V | 08:30:00 | 01:23:00 | 00:00:00 | |
| AUTORXJP | 2026-09-05 10:59:13 | 44.29033 | 8.02304 | 86° | 18km/h | 17430m | 5.2m/s | -61.1°C | 2.5% | -1.0hPa | 2.6V | 00:00:00 | 00:00:00 | 00:00:00 | |
| IW2NTF | 2026-09-05 10:59:10 | 44.29018 | 8.02242 | 63° | 31km/h | 17392m | 3.3m/s | -61.1°C | 6.8% | 0hPa | 2.6V | 08:30:00 | 01:22:50 | 00:00:00 | |
| IW2NTF | 2026-09-05 10:59:00 | 44.29011 | 8.02179 | 98° | 18km/h | 17344m | 3.8m/s | -61.1°C | 6.6% | 0hPa | 2.6V | 08:30:00 | 01:22:40 | 00:00:00 | |
| IW2NTF | 2026-09-05 10:58:51 | 44.29014 | 8.02104 | 101° | 16km/h | 17296m | 4.8m/s | -61.5°C | 7% | 0hPa | 2.6V | 08:30:00 | 01:22:30 | 00:00:00 | |
| IW2NTF | 2026-09-05 10:58:40 | 44.29031 | 8.02038 | 115° | 20km/h | 17248m | 5.3m/s | -62.4°C | 7.4% | 0hPa | 2.7V | 08:30:00 | 01:22:20 | 00:00:00 | |
| IW2NTF | 2026-09-05 10:58:30 | 44.29066 | 8.01954 | 119° | 38km/h | 17200m | 4.7m/s | -62.5°C | 7.8% | 0hPa | 2.7V | 08:30:00 | 01:22:10 | 00:00:00 | |
| IW2NTF | 2026-09-05 10:58:20 | 44.29126 | 8.01831 | 121° | 44km/h | 17157m | 4.1m/s | -62.4°C | 7.7% | 0hPa | 2.7V | 08:30:00 | 01:22:00 | 00:00:00 | |
| AUTORXJP | 2026-09-05 10:58:11 | 44.29149 | 8.01779 | 119° | 44km/h | 17140m | 4.8m/s | -62.6°C | 3.2% | -1.0hPa | 2.7V | 00:00:00 | 00:00:00 | 00:00:00 | |
| IW2NTF | 2026-09-05 10:58:10 | 44.29182 | 8.01700 | 124° | 44km/h | 17114m | 5.2m/s | -62.4°C | 7.8% | 0hPa | 2.7V | 08:30:00 | 01:21:50 | 00:00:00 | |
| IW2NTF | 2026-09-05 10:58:00 | 44.29240 | 8.01570 | 110° | 40km/h | 17070m | 2.8m/s | -63.5°C | 8.3% | 0hPa | 2.7V | 08:30:00 | 01:21:40 | 00:00:00 | |
| IW2NTF | 2026-09-05 10:57:50 | 44.29297 | 8.01430 | 124° | 49km/h | 17026m | 4.8m/s | -63.6°C | 8.5% | 0hPa | 2.8V | 08:30:00 | 01:21:30 | 00:00:00 | |
| IW2NTF | 2026-09-05 10:57:40 | 44.29368 | 8.01285 | 128° | 53km/h | 16983m | 3.6m/s | -63.5°C | 8.5% | 0hPa | 2.7V | 08:30:00 | 01:21:20 | 00:00:00 | |
| AUTORXJP | 2026-09-05 10:57:40 | 44.29332 | 8.01358 | 122° | 47km/h | 17004m | 4.6m/s | -63.6°C | 3.7% | -1.0hPa | 2.8V | 00:00:00 | 00:00:00 | 00:00:00 | |
| IW2NTF | 2026-09-05 10:57:30 | 44.29443 | 8.01153 | 121° | 49km/h | 16940m | 4.1m/s | -63.9°C | 8.5% | 0hPa | 2.8V | 08:30:00 | 01:21:10 | 00:00:00 | |
| IW2NTF | 2026-09-05 10:57:21 | 44.29522 | 8.01009 | 121° | 49km/h | 16898m | 4.2m/s | -64.2°C | 9.3% | 0hPa | 2.7V | 08:30:00 | 01:21:00 | 00:00:00 | |
| IW2NTF | 2026-09-05 10:57:10 | 44.29587 | 8.00849 | 119° | 47km/h | 16853m | 3.8m/s | -64°C | 8.9% | 0hPa | 2.7V | 08:30:00 | 01:20:50 | 00:00:00 | |
| AUTORXJP | 2026-09-05 10:57:09 | 44.29559 | 8.00913 | 120° | 53km/h | 16871m | 5.4m/s | -64.0°C | 3.8% | -1.0hPa | 2.7V | 00:00:00 | 00:00:00 | 00:00:00 | |
| IW2NTF | 2026-09-05 10:57:00 | 44.29636 | 8.00686 | 117° | 51km/h | 16806m | 5m/s | -63.8°C | 8.9% | 0hPa | 2.7V | 08:30:00 | 01:20:40 | 00:00:00 | |
| IW2NTF | 2026-09-05 10:56:50 | 44.29686 | 8.00523 | 109° | 51km/h | 16761m | 5m/s | -63.8°C | 8.8% | 0hPa | 2.7V | 08:30:00 | 01:20:30 | 00:00:00 | |
| IW2NTF | 2026-09-05 10:56:40 | 44.29747 | 8.00360 | 116° | 53km/h | 16716m | 3.8m/s | -63.7°C | 8.4% | 0hPa | 2.7V | 08:30:00 | 01:20:20 | 00:00:00 | |
| AUTORXJP | 2026-09-05 10:56:38 | 44.29735 | 8.00392 | 120° | 49km/h | 16725m | 4.1m/s | -63.7°C | 3.7% | -1.0hPa | 2.7V | 00:00:00 | 00:00:00 | 00:00:00 | |
| IW2NTF | 2026-09-05 10:56:30 | 44.29798 | 8.00201 | 117° | 49km/h | 16671m | 4.5m/s | -64.1°C | 9.1% | 0hPa | 2.7V | 08:30:00 | 01:20:10 | 00:00:00 | |
| IW2NTF | 2026-09-05 10:56:20 | 44.29850 | 8.00047 | 107° | 49km/h | 16627m | 5m/s | -64.2°C | 9.1% | 0hPa | 2.7V | 08:30:00 | 01:20:00 | 00:00:00 | |
| IW2NTF | 2026-09-05 10:56:10 | 44.29896 | 7.99898 | 114° | 42km/h | 16583m | 3.7m/s | -64°C | 9.1% | 0hPa | 2.8V | 08:30:00 | 01:19:50 | 00:00:00 | |
| AUTORXJP | 2026-09-05 10:56:07 | 44.29892 | 7.99912 | 115° | 42km/h | 16587m | 4.3m/s | -64.0°C | 3.9% | -1.0hPa | 2.8V | 00:00:00 | 00:00:00 | 00:00:00 | |
| IW2NTF | 2026-09-05 10:56:00 | 44.29950 | 7.99757 | 118° | 46km/h | 16538m | 5m/s | -63.6°C | 8.8% | 0hPa | 2.8V | 08:30:00 | 01:19:40 | 00:00:00 | |
| IW2NTF | 2026-09-05 10:55:50 | 44.29989 | 7.99618 | 116° | 42km/h | 16492m | 5.2m/s | -63.4°C | 8.9% | 0hPa | 2.8V | 08:30:00 | 01:19:30 | 00:00:00 | |
| IW2NTF | 2026-09-05 10:55:40 | 44.30030 | 7.99475 | 105° | 42km/h | 16446m | 4m/s | -63.1°C | 8.9% | 0hPa | 2.7V | 08:30:00 | 01:19:20 | 00:00:00 | |
| AUTORXJP | 2026-09-05 10:55:36 | 44.30030 | 7.99475 | 105° | 42km/h | 16446m | 4.0m/s | -63.1°C | 4.0% | -1.0hPa | 2.7V | 00:00:00 | 00:00:00 | 00:00:00 | |
| IW2NTF | 2026-09-05 10:55:30 | 44.30069 | 7.99338 | 106° | 44km/h | 16402m | 5.2m/s | -62.7°C | 8.8% | 0hPa | 2.7V | 08:30:00 | 01:19:10 | 00:00:00 | |
| IW2NTF | 2026-09-05 10:55:20 | 44.30091 | 7.99190 | 100° | 44km/h | 16356m | 4.5m/s | -62.4°C | 8.3% | 0hPa | 2.8V | 08:30:00 | 01:19:00 | 00:00:00 | |
| IW2NTF | 2026-09-05 10:55:11 | 44.30107 | 7.99041 | 98° | 40km/h | 16309m | 4.3m/s | -62.2°C | 8.1% | 0hPa | 2.7V | 08:30:00 | 01:18:50 | 00:00:00 | |
| AUTORXJP | 2026-09-05 10:55:05 | 44.30108 | 7.99026 | 99° | 42km/h | 16304m | 5.2m/s | -62.3°C | 3.6% | -1.0hPa | 2.7V | 00:00:00 | 00:00:00 | 00:00:00 | |
| IW2NTF | 2026-09-05 10:55:00 | 44.30121 | 7.98886 | 96° | 42km/h | 16263m | 5.2m/s | -62.9°C | 8.8% | 0hPa | 2.7V | 08:30:00 | 01:18:40 | 00:00:00 | |
| IW2NTF | 2026-09-05 10:54:51 | 44.30134 | 7.98751 | 98° | 38km/h | 16215m | 4.6m/s | -62.9°C | 8.9% | 0hPa | 2.7V | 08:30:00 | 01:18:30 | 00:00:00 | |
| IW2NTF | 2026-09-05 10:54:40 | 44.30145 | 7.98616 | 97° | 42km/h | 16168m | 4.2m/s | -62.7°C | 8.8% | 0hPa | 2.7V | 08:30:00 | 01:18:20 | 00:00:00 | |
| IW2NTF | 2026-09-05 10:54:30 | 44.30157 | 7.98474 | 99° | 46km/h | 16120m | 5m/s | -62.7°C | 8.9% | 0hPa | 2.7V | 08:30:00 | 01:18:10 | 00:00:00 | |
| IW2NTF | 2026-09-05 10:54:21 | 44.30180 | 7.98323 | 107° | 46km/h | 16075m | 4.8m/s | -62.7°C | 8.9% | 0hPa | 2.7V | 08:30:00 | 01:18:00 | 00:00:00 | |
| IW2NTF | 2026-09-05 10:54:10 | 44.30202 | 7.98153 | 98° | 51km/h | 16029m | 4.5m/s | -62.4°C | 8.9% | 0hPa | 2.8V | 08:30:00 | 01:17:50 | 00:00:00 | |
| AUTORXJP | 2026-09-05 10:54:03 | 44.30208 | 7.98104 | 100° | 42km/h | 16016m | 4.3m/s | -62.4°C | 4.0% | -1.0hPa | 2.8V | 00:00:00 | 00:00:00 | 00:00:00 | |
| IW2NTF | 2026-09-05 10:54:00 | 44.30224 | 7.97996 | 98° | 47km/h | 15986m | 4.7m/s | -62.4°C | 8.7% | 0hPa | 2.8V | 08:30:00 | 01:17:40 | 00:00:00 | |
| IW2NTF | 2026-09-05 10:53:51 | 44.30235 | 7.97841 | 97° | 42km/h | 15940m | 3.5m/s | -62.4°C | 8.8% | 0hPa | 2.7V | 08:30:00 | 01:17:30 | 00:00:00 | |
| IW2NTF | 2026-09-05 10:53:41 | 44.30237 | 7.97685 | 90° | 49km/h | 15898m | 4.1m/s | -62.5°C | 9% | 0hPa | 2.8V | 08:30:00 | 01:17:20 | 00:00:00 | |
| IW2NTF | 2026-09-05 10:53:31 | 44.30255 | 7.97517 | 97° | 49km/h | 15857m | 4.4m/s | -62.4°C | 8.6% | 0hPa | 2.7V | 08:30:00 | 01:17:10 | 00:00:00 | |
| IW2NTF | 2026-09-05 10:53:20 | 44.30259 | 7.97343 | 90° | 42km/h | 15813m | 4.2m/s | -62.3°C | 8.3% | 0hPa | 2.7V | 08:30:00 | 01:17:00 | 00:00:00 | |
| IW2NTF | 2026-09-05 10:53:10 | 44.30259 | 7.97172 | 93° | 55km/h | 15771m | 4.1m/s | -62.4°C | 8.6% | 0hPa | 2.8V | 08:30:00 | 01:16:50 | 00:00:00 | |
| AUTORXJP | 2026-09-05 10:53:00 | 44.30259 | 7.97093 | 80° | 40km/h | 15749m | 5.5m/s | -62.2°C | 3.6% | -1.0hPa | 2.8V | 00:00:00 | 00:00:00 | 00:00:00 | |
| IW2NTF | 2026-09-05 10:52:58 | 44.30249 | 7.96982 | 87° | 44km/h | 15719m | 4.7m/s | -61.9°C | 8.8% | 0hPa | 2.8V | 08:30:00 | 01:16:38 | 00:00:00 | |
| IW2NTF | 2026-09-05 10:52:47 | 44.30243 | 7.96808 | 90° | 49km/h | 15667m | 4.5m/s | -61.5°C | 8.3% | 0hPa | 2.8V | 08:30:00 | 01:16:26 | 00:00:00 | |
| IW2NTF | 2026-09-05 10:52:37 | 44.30246 | 7.96677 | 86° | 44km/h | 15619m | 4.5m/s | -61.1°C | 8.6% | 0hPa | 2.8V | 08:30:00 | 01:16:16 | 00:00:00 | |
| AUTORXJP | 2026-09-05 10:52:29 | 44.30244 | 7.96645 | 82° | 46km/h | 15610m | 4.1m/s | -61.1°C | 3.9% | -1.0hPa | 2.7V | 00:00:00 | 00:00:00 | 00:00:00 | |
| IW2NTF | 2026-09-05 10:52:26 | 44.30213 | 7.96521 | 96° | 44km/h | 15573m | 6.2m/s | -60.9°C | 8.8% | 0hPa | 2.7V | 08:30:00 | 01:16:06 | 00:00:00 | |
| IW2NTF | 2026-09-05 10:52:17 | 44.30218 | 7.96416 | 82° | 38km/h | 15505m | 7.4m/s | -61.2°C | 8.4% | 0hPa | 2.7V | 08:30:00 | 01:15:56 | 00:00:00 | |
| IW2NTF | 2026-09-05 10:52:06 | 44.30239 | 7.96279 | 104° | 42km/h | 15448m | 4.1m/s | -61.1°C | 9% | 0hPa | 2.8V | 08:30:00 | 01:15:46 | 00:00:00 | |
| AUTORXJP | 2026-09-05 10:51:58 | 44.30246 | 7.96236 | 105° | 40km/h | 15435m | 4.7m/s | -61.1°C | 4.7% | -1.0hPa | 2.7V | 00:00:00 | 00:00:00 | 00:00:00 | |
| IW2NTF | 2026-09-05 10:51:56 | 44.30265 | 7.96135 | 103° | 46km/h | 15406m | 3m/s | -61.4°C | 9.6% | 0hPa | 2.7V | 08:30:00 | 01:15:36 | 00:00:00 | |
| IW2NTF | 2026-09-05 10:51:47 | 44.30284 | 7.95973 | 102° | 47km/h | 15366m | 3.7m/s | -61.6°C | 10.1% | 0hPa | 2.7V | 08:30:00 | 01:15:26 | 00:00:00 | |
| IW2NTF | 2026-09-05 10:51:36 | 44.30310 | 7.95812 | 100° | 49km/h | 15324m | 2.9m/s | -61.8°C | 10.4% | 0hPa | 2.8V | 08:30:00 | 01:15:16 | 00:00:00 | |
| AUTORXJP | 2026-09-05 10:51:28 | 44.30319 | 7.95746 | 104° | 47km/h | 15309m | 4.3m/s | -61.9°C | 5.8% | -1.0hPa | 2.7V | 00:00:00 | 00:00:00 | 00:00:00 | |
| IW2NTF | 2026-09-05 10:51:26 | 44.30344 | 7.95650 | 109° | 49km/h | 15285m | 2.9m/s | -62°C | 10.9% | 0hPa | 2.7V | 08:30:00 | 01:15:06 | 00:00:00 | |
| IW2NTF | 2026-09-05 10:51:16 | 44.30375 | 7.95492 | 112° | 44km/h | 15247m | 2.8m/s | -62.9°C | 12.4% | 0hPa | 2.7V | 08:30:00 | 01:14:56 | 00:00:00 | |
| IW2NTF | 2026-09-05 10:51:06 | 44.30402 | 7.95342 | 103° | 44km/h | 15211m | 4.5m/s | -63.1°C | 13.1% | 0hPa | 2.8V | 08:30:00 | 01:14:46 | 00:00:00 | |
| IW2NTF | 2026-09-05 10:50:56 | 44.30432 | 7.95187 | 108° | 47km/h | 15173m | 3.7m/s | -62.9°C | 13% | 0hPa | 2.7V | 08:30:00 | 01:14:36 | 00:00:00 | |
| AUTORXJP | 2026-09-05 10:50:56 | 44.30415 | 7.95267 | 105° | 46km/h | 15191m | 4.3m/s | -63.0°C | 7.6% | -1.0hPa | 2.7V | 00:00:00 | 00:00:00 | 00:00:00 | |
| IW2NTF | 2026-09-05 10:50:45 | 44.30486 | 7.95012 | 112° | 49km/h | 15130m | 3.7m/s | -62.9°C | 13.5% | 0hPa | 2.7V | 08:30:00 | 01:14:24 | 00:00:00 | |
| IW2NTF | 2026-09-05 10:50:34 | 44.30526 | 7.94861 | 118° | 44km/h | 15094m | 4.2m/s | -64°C | 14.5% | 0hPa | 2.7V | 08:30:00 | 01:14:14 | 00:00:00 | |
| AUTORXJP | 2026-09-05 10:50:25 | 44.30550 | 7.94801 | 119° | 49km/h | 15079m | 3.0m/s | -64.0°C | 8.4% | -1.0hPa | 2.7V | 00:00:00 | 00:00:00 | 00:00:00 | |
| IW2NTF | 2026-09-05 10:50:25 | 44.30592 | 7.94704 | 126° | 55km/h | 15057m | 2.1m/s | -63.9°C | 14.6% | 0hPa | 2.8V | 08:30:00 | 01:14:04 | 00:00:00 | |
| IW2NTF | 2026-09-05 10:50:15 | 44.30677 | 7.94547 | 122° | 55km/h | 15025m | 3m/s | -63.9°C | 14.4% | 0hPa | 2.7V | 08:30:00 | 01:13:54 | 00:00:00 | |
| IW2NTF | 2026-09-05 10:50:04 | 44.30767 | 7.94384 | 130° | 58km/h | 14991m | 3.8m/s | -64°C | 14.8% | 0hPa | 2.7V | 08:30:00 | 01:13:44 | 00:00:00 | |
| IW2NTF | 2026-09-05 10:49:54 | 44.30865 | 7.94222 | 129° | 57km/h | 14954m | 3.2m/s | -64°C | 14.9% | 0hPa | 2.8V | 08:30:00 | 01:13:34 | 00:00:00 | |
| AUTORXJP | 2026-09-05 10:49:54 | 44.30815 | 7.94306 | 130° | 58km/h | 14973m | 4.1m/s | -64.1°C | 8.7% | -1.0hPa | 2.7V | 00:00:00 | 00:00:00 | 00:00:00 | |
| IW2NTF | 2026-09-05 10:49:44 | 44.30948 | 7.94058 | 125° | 55km/h | 14911m | 4.6m/s | -63.6°C | 14.8% | 0hPa | 2.7V | 08:30:00 | 01:13:24 | 00:00:00 | |
| IW2NTF | 2026-09-05 10:49:34 | 44.31015 | 7.93890 | 119° | 57km/h | 14871m | 4.2m/s | -63.2°C | 15.1% | 0hPa | 2.7V | 08:30:00 | 01:13:14 | 00:00:00 | |
| IW2NTF | 2026-09-05 10:49:24 | 44.31083 | 7.93720 | 114° | 53km/h | 14832m | 2.7m/s | -63.2°C | 16.4% | 0hPa | 2.8V | 08:30:00 | 01:13:04 | 00:00:00 | |
| IW2NTF | 2026-09-05 10:49:16 | 44.31150 | 7.93553 | 120° | 58km/h | 14792m | 5.1m/s | -63.2°C | 17.3% | 0hPa | 2.8V | 08:30:00 | 01:12:54 | 00:00:00 | |
| IW2NTF | 2026-09-05 10:49:04 | 44.31221 | 7.93375 | 126° | 53km/h | 14754m | 4.4m/s | -63.1°C | 17.6% | 0hPa | 2.7V | 08:30:00 | 01:12:44 | 00:00:00 | |
| IW2NTF | 2026-09-05 10:48:54 | 44.31300 | 7.93204 | 108° | 53km/h | 14715m | 3.5m/s | -63.7°C | 19.4% | 0hPa | 2.8V | 08:30:00 | 01:12:34 | 00:00:00 | |
| AUTORXJP | 2026-09-05 10:48:52 | 44.31289 | 7.93241 | 117° | 57km/h | 14724m | 4.7m/s | -63.5°C | 12.5% | -1.0hPa | 2.7V | 00:00:00 | 00:00:00 | 00:00:00 | |
| IW2NTF | 2026-09-05 10:48:44 | 44.31362 | 7.93049 | 110° | 51km/h | 14651m | 7.6m/s | -65.5°C | 22.7% | 0hPa | 2.7V | 08:30:00 | 01:12:24 | 00:00:00 | |
| IW2NTF | 2026-09-05 10:48:34 | 44.31453 | 7.92838 | 124° | 68km/h | 14595m | 5.5m/s | -65.3°C | 25% | 0hPa | 2.7V | 08:30:00 | 01:12:14 | 00:00:00 | |
| IW2NTF | 2026-09-05 10:48:24 | 44.31521 | 7.92670 | 109° | 78km/h | 14530m | 6.8m/s | -64.9°C | 24.7% | 0hPa | 2.7V | 08:30:00 | 01:12:04 | 00:00:00 | |
| AUTORXJP | 2026-09-05 10:48:21 | 44.31515 | 7.92694 | 111° | 69km/h | 14538m | 8.4m/s | -65.0°C | 17.1% | -1.0hPa | 2.8V | 00:00:00 | 00:00:00 | 00:00:00 | |
| IW2NTF | 2026-09-05 10:48:14 | 44.31606 | 7.92439 | 111° | 64km/h | 14452m | 8.2m/s | -66.1°C | 27.8% | 0hPa | 2.8V | 08:30:00 | 01:11:54 | 00:00:00 | |
| IW2NTF | 2026-09-05 10:48:04 | 44.31648 | 7.92230 | 98° | 66km/h | 14398m | 4.8m/s | -65.7°C | 28.8% | 0hPa | 2.8V | 08:30:00 | 01:11:44 | 00:00:00 | |
| IW2NTF | 2026-09-05 10:47:54 | 44.31680 | 7.92002 | 101° | 60km/h | 14349m | 4.2m/s | -65.5°C | 30.7% | 0hPa | 2.7V | 08:30:00 | 01:11:34 | 00:00:00 | |
| AUTORXJP | 2026-09-05 10:47:50 | 44.31679 | 7.92002 | 101° | 58km/h | 14349m | 4.2m/s | -65.6°C | 21.6% | -1.0hPa | 2.8V | 00:00:00 | 00:00:00 | 00:00:00 | |
| IW2NTF | 2026-09-05 10:47:45 | 44.31697 | 7.91784 | 96° | 64km/h | 14305m | 4.2m/s | -65.4°C | 32.1% | 0hPa | 2.8V | 08:30:00 | 01:11:24 | 00:00:00 | |
| IW2NTF | 2026-09-05 10:47:32 | 44.31711 | 7.91524 | 94° | 64km/h | 14250m | 3.7m/s | -65°C | 33.6% | 0hPa | 2.8V | 08:30:00 | 01:11:12 | 00:00:00 | |
| IW2NTF | 2026-09-05 10:47:23 | 44.31717 | 7.91310 | 93° | 58km/h | 14207m | 4.2m/s | -64.6°C | 34.4% | 0hPa | 2.8V | 08:30:00 | 01:11:02 | 00:00:00 | |
| AUTORXJP | 2026-09-05 10:47:19 | 44.31716 | 7.91330 | 92° | 57km/h | 14212m | 4.3m/s | -64.7°C | 25.0% | -1.0hPa | 2.8V | 00:00:00 | 00:00:00 | 00:00:00 | |
| IW2NTF | 2026-09-05 10:47:13 | 44.31725 | 7.91098 | 92° | 62km/h | 14166m | 5.1m/s | -64.7°C | 35.3% | 0hPa | 2.8V | 08:30:00 | 01:10:52 | 00:00:00 | |
| IW2NTF | 2026-09-05 10:47:03 | 44.31746 | 7.90893 | 97° | 51km/h | 14122m | 4.8m/s | -65.3°C | 39.2% | 0hPa | 2.8V | 08:30:00 | 01:10:42 | 00:00:00 | |
| IW2NTF | 2026-09-05 10:46:53 | 44.31768 | 7.90706 | 106° | 55km/h | 14083m | 2.7m/s | -65.2°C | 38.7% | 0hPa | 2.8V | 08:30:00 | 01:10:32 | 00:00:00 | |
| AUTORXJP | 2026-09-05 10:46:47 | 44.31768 | 7.90706 | 106° | 53km/h | 14083m | 2.7m/s | -65.2°C | 28.7% | -1.0hPa | 2.7V | 00:00:00 | 00:00:00 | 00:00:00 | |
| IW2NTF | 2026-09-05 10:46:43 | 44.31805 | 7.90541 | 104° | 51km/h | 14045m | 3.9m/s | -65.1°C | 39.6% | 0hPa | 2.7V | 08:30:00 | 01:10:22 | 00:00:00 | |
| IW2NTF | 2026-09-05 10:46:32 | 44.31840 | 7.90378 | 110° | 46km/h | 14007m | 4m/s | -65.6°C | 41.3% | 0hPa | 2.7V | 08:30:00 | 01:10:12 | 00:00:00 | |
| IW2NTF | 2026-09-05 10:46:22 | 44.31882 | 7.90204 | 113° | 53km/h | 13968m | 3.8m/s | -65.9°C | 42% | 0hPa | 2.8V | 08:30:00 | 01:10:02 | 00:00:00 | |
| AUTORXJP | 2026-09-05 10:46:17 | 44.31887 | 7.90187 | 113° | 51km/h | 13964m | 3.6m/s | -65.9°C | 31.1% | -1.0hPa | 2.8V | 00:00:00 | 00:00:00 | 00:00:00 | |
| IW2NTF | 2026-09-05 10:46:12 | 44.31931 | 7.90036 | 102° | 58km/h | 13931m | 3m/s | -66°C | 41.3% | 0hPa | 2.8V | 08:30:00 | 01:09:52 | 00:00:00 | |
| IW2NTF | 2026-09-05 10:46:02 | 44.31972 | 7.89868 | 105° | 44km/h | 13896m | 4.4m/s | -65.8°C | 40% | 0hPa | 2.7V | 08:30:00 | 01:09:42 | 00:00:00 | |
| IW2NTF | 2026-09-05 10:45:52 | 44.32016 | 7.89695 | 108° | 42km/h | 13854m | 5m/s | -65.5°C | 39.3% | 0hPa | 2.8V | 08:30:00 | 01:09:32 | 00:00:00 | |
| AUTORXJP | 2026-09-05 10:45:47 | 44.32022 | 7.89670 | 110° | 37km/h | 13845m | 5.7m/s | -65.5°C | -1.0% | -1.0hPa | 2.7V | 00:00:00 | 00:00:00 | 00:00:00 | |
| IW2NTF | 2026-09-05 10:45:43 | 44.32054 | 7.89565 | 119° | 51km/h | 13804m | 5.2m/s | -65.2°C | 37.4% | 0hPa | 2.7V | 08:30:00 | 01:09:22 | 00:00:00 | |
| IW2NTF | 2026-09-05 10:45:33 | 44.32128 | 7.89413 | 116° | 44km/h | 13749m | 6.5m/s | -64.7°C | 36.5% | 0hPa | 2.8V | 08:30:00 | 01:09:12 | 00:00:00 | |
| IW2NTF | 2026-09-05 10:45:23 | 44.32176 | 7.89279 | 134° | 35km/h | 13683m | 4.4m/s | -64.3°C | 34.8% | 0hPa | 2.7V | 08:30:00 | 01:09:02 | 00:00:00 | |
| AUTORXJP | 2026-09-05 10:45:14 | 44.32201 | 7.89259 | 162° | 42km/h | 13667m | 5.0m/s | -64.2°C | -1.0% | -1.0hPa | 2.8V | 00:00:00 | 00:00:00 | 00:00:00 | |
| IW2NTF | 2026-09-05 10:45:13 | 44.32259 | 7.89206 | 121° | 47km/h | 13627m | 6.3m/s | -64°C | 34.3% | 0hPa | 2.8V | 08:30:00 | 01:08:52 | 00:00:00 | |
| IW2NTF | 2026-09-05 10:45:03 | 44.32327 | 7.89078 | 144° | 46km/h | 13574m | 4.2m/s | -63.6°C | 35.5% | 0hPa | 2.7V | 08:30:00 | 01:08:42 | 00:00:00 | |
| IW2NTF | 2026-09-05 10:44:52 | 44.32421 | 7.88967 | 134° | 35km/h | 13518m | 4.9m/s | -63.3°C | 35.5% | 0hPa | 2.8V | 08:30:00 | 01:08:32 | 00:00:00 | |
| IW2NTF | 2026-09-05 10:44:43 | 44.32506 | 7.88820 | 140° | 55km/h | 13464m | 6.8m/s | -63.3°C | 37.1% | 0hPa | 2.7V | 08:30:00 | 01:08:22 | 00:00:00 | |
| IW2NTF | 2026-09-05 10:44:32 | 44.32628 | 7.88686 | 147° | 55km/h | 13402m | 6.5m/s | -63.6°C | 37.3% | 0hPa | 2.8V | 08:30:00 | 01:08:12 | 00:00:00 | |
| IW2NTF | 2026-09-05 10:44:22 | 44.32772 | 7.88566 | 147° | 71km/h | 13352m | 5.2m/s | -63.4°C | 41.5% | 0hPa | 2.8V | 08:30:00 | 01:08:02 | 00:00:00 | |
| IW2NTF | 2026-09-05 10:44:12 | 44.32914 | 7.88430 | 146° | 68km/h | 13305m | 4.6m/s | -63.8°C | 45.5% | 0hPa | 2.8V | 08:30:00 | 01:07:52 | 00:00:00 | |
| IW2NTF | 2026-09-05 10:44:02 | 44.33058 | 7.88284 | 139° | 73km/h | 13262m | 4.3m/s | -63.7°C | 49.4% | 0hPa | 2.8V | 08:30:00 | 01:07:42 | 00:00:00 | |
| IW2NTF | 2026-09-05 10:43:52 | 44.33192 | 7.88131 | 138° | 69km/h | 13217m | 4.5m/s | -63.5°C | 49.4% | 0hPa | 2.8V | 08:30:00 | 01:07:32 | 00:00:00 | |
| IW2NTF | 2026-09-05 10:43:43 | 44.33328 | 7.87967 | 136° | 68km/h | 13174m | 4.4m/s | -63.1°C | 49.3% | 0hPa | 2.8V | 08:30:00 | 01:07:22 | 00:00:00 | |
| IW2NTF | 2026-09-05 10:43:33 | 44.33453 | 7.87803 | 138° | 66km/h | 13133m | 5m/s | -62.7°C | 47.2% | 0hPa | 2.8V | 08:30:00 | 01:07:12 | 00:00:00 | |
| IW2NTF | 2026-09-05 10:43:23 | 44.33583 | 7.87640 | 133° | 68km/h | 13092m | 3.3m/s | -62.4°C | 46.1% | 0hPa | 2.8V | 08:30:00 | 01:07:02 | 00:00:00 | |
| IW2NTF | 2026-09-05 10:43:13 | 44.33709 | 7.87473 | 138° | 69km/h | 13055m | 3.6m/s | -62.2°C | 47.6% | 0hPa | 2.8V | 08:30:00 | 01:06:52 | 00:00:00 | |
| IW2NTF | 2026-09-05 10:43:03 | 44.33829 | 7.87302 | 135° | 69km/h | 13014m | 5m/s | -61.8°C | 44.7% | 0hPa | 2.8V | 08:30:00 | 01:06:42 | 00:00:00 | |
| IW2NTF | 2026-09-05 10:42:52 | 44.33960 | 7.87143 | 136° | 68km/h | 12974m | 4m/s | -61.5°C | 44.8% | 0hPa | 2.8V | 08:30:00 | 01:06:32 | 00:00:00 | |
| IW2NTF | 2026-09-05 10:42:42 | 44.34082 | 7.86974 | 138° | 69km/h | 12938m | 3.2m/s | -61.3°C | 45.4% | 0hPa | 2.8V | 08:30:00 | 01:06:22 | 00:00:00 | |
| IW2NTF | 2026-09-05 10:42:33 | 44.34211 | 7.86820 | 137° | 68km/h | 12901m | 4.2m/s | -61.2°C | 44.2% | 0hPa | 2.8V | 08:30:00 | 01:06:12 | 00:00:00 | |
| IW2NTF | 2026-09-05 10:42:22 | 44.34344 | 7.86658 | 144° | 68km/h | 12864m | 4.3m/s | -60.9°C | 46.1% | 0hPa | 2.8V | 08:30:00 | 01:06:02 | 00:00:00 | |
| IW2NTF | 2026-09-05 10:42:12 | 44.34479 | 7.86514 | 143° | 66km/h | 12827m | 3.5m/s | -60.8°C | 47.5% | 0hPa | 2.8V | 08:30:00 | 01:05:52 | 00:00:00 | |
| IW2NTF | 2026-09-05 10:42:02 | 44.34619 | 7.86383 | 144° | 62km/h | 12786m | 2.9m/s | -60.5°C | 47.3% | 0hPa | 2.8V | 08:30:00 | 01:05:42 | 00:00:00 | |
| IW2NTF | 2026-09-05 10:41:52 | 44.34752 | 7.86250 | 146° | 66km/h | 12749m | 4.1m/s | -60.2°C | 47.7% | 0hPa | 2.8V | 08:30:00 | 01:05:32 | 00:00:00 | |
| IW2NTF | 2026-09-05 10:41:42 | 44.34889 | 7.86121 | 148° | 62km/h | 12709m | 5.2m/s | -60°C | 48.3% | 0hPa | 2.8V | 08:30:00 | 01:05:22 | 00:00:00 | |
| IW2NTF | 2026-09-05 10:41:32 | 44.35028 | 7.86005 | 147° | 60km/h | 12669m | 3.9m/s | -59.8°C | 48.5% | 0hPa | 2.9V | 08:30:00 | 01:05:12 | 00:00:00 | |
| IW2NTF | 2026-09-05 10:41:23 | 44.35167 | 7.85899 | 152° | 68km/h | 12630m | 3m/s | -59.7°C | 50.5% | 0hPa | 2.9V | 08:30:00 | 01:05:02 | 00:00:00 | |
| IW2NTF | 2026-09-05 10:41:12 | 44.35306 | 7.85794 | 154° | 68km/h | 12589m | 4.2m/s | -59.3°C | 55.3% | 0hPa | 2.9V | 08:30:00 | 01:04:52 | 00:00:00 | |
| IW2NTF | 2026-09-05 10:41:02 | 44.35463 | 7.85678 | 152° | 62km/h | 12551m | 4.1m/s | -59.1°C | 57.7% | 0hPa | 2.8V | 08:30:00 | 01:04:42 | 00:00:00 | |
| IW2NTF | 2026-09-05 10:40:52 | 44.35614 | 7.85573 | 151° | 69km/h | 12512m | 3.8m/s | -58.7°C | 59.2% | 0hPa | 2.8V | 08:30:00 | 01:04:32 | 00:00:00 | |
| IW2NTF | 2026-09-05 10:40:43 | 44.35772 | 7.85464 | 154° | 66km/h | 12470m | 4.3m/s | -58.3°C | 59% | 0hPa | 2.9V | 08:30:00 | 01:04:22 | 00:00:00 | |
| IW2NTF | 2026-09-05 10:40:32 | 44.35926 | 7.85356 | 153° | 71km/h | 12428m | 3.4m/s | -58°C | 53.4% | 0hPa | 2.9V | 08:30:00 | 01:04:12 | 00:00:00 | |
| IW2NTF | 2026-09-05 10:40:22 | 44.36077 | 7.85254 | 147° | 68km/h | 12386m | 5m/s | -57.5°C | 51.8% | 0hPa | 2.8V | 08:30:00 | 01:04:02 | 00:00:00 | |
| IW2NTF | 2026-09-05 10:40:12 | 44.36234 | 7.85156 | 155° | 68km/h | 12342m | 4.3m/s | -57.1°C | 50.3% | 0hPa | 2.9V | 08:30:00 | 01:03:52 | 00:00:00 | |
| IW2NTF | 2026-09-05 10:40:02 | 44.36393 | 7.85039 | 153° | 68km/h | 12295m | 4.4m/s | -56.9°C | 51.1% | 0hPa | 2.9V | 08:30:00 | 01:03:42 | 00:00:00 | |
| IW2NTF | 2026-09-05 10:39:52 | 44.36551 | 7.84930 | 156° | 69km/h | 12253m | 5.7m/s | -56.5°C | 51.9% | 0hPa | 2.8V | 08:30:00 | 01:03:32 | 00:00:00 | |
| IW2NTF | 2026-09-05 10:39:44 | 44.36715 | 7.84819 | 154° | 69km/h | 12206m | 4.5m/s | -56.1°C | 54.6% | 0hPa | 2.9V | 08:30:00 | 01:03:22 | 00:00:00 | |
| IW2NTF | 2026-09-05 10:39:32 | 44.36878 | 7.84712 | 155° | 66km/h | 12160m | 3.9m/s | -55.7°C | 52% | 0hPa | 2.9V | 08:30:00 | 01:03:12 | 00:00:00 | |
| IW2NTF | 2026-09-05 10:39:22 | 44.37026 | 7.84599 | 152° | 71km/h | 12111m | 4m/s | -55.4°C | 51.3% | 0hPa | 2.8V | 08:30:00 | 01:03:02 | 00:00:00 | |
| IW2NTF | 2026-09-05 10:39:12 | 44.37193 | 7.84495 | 152° | 64km/h | 12063m | 5.8m/s | -55.1°C | 49.9% | 0hPa | 2.9V | 08:30:00 | 01:02:52 | 00:00:00 | |
| IW2NTF | 2026-09-05 10:39:03 | 44.37343 | 7.84396 | 152° | 68km/h | 12017m | 5m/s | -54.6°C | 51.8% | 0hPa | 2.9V | 08:30:00 | 01:02:42 | 00:00:00 | |
| IW2NTF | 2026-09-05 10:38:52 | 44.37489 | 7.84286 | 155° | 66km/h | 11974m | 4.9m/s | -54.3°C | 52.3% | 0hPa | 2.8V | 08:30:00 | 01:02:32 | 00:00:00 | |
| IW2NTF | 2026-09-05 10:38:42 | 44.37630 | 7.84175 | 152° | 69km/h | 11931m | 4.2m/s | -53.9°C | 52.3% | 0hPa | 2.9V | 08:30:00 | 01:02:22 | 00:00:00 | |
| IW2NTF | 2026-09-05 10:38:32 | 44.37780 | 7.84072 | 151° | 64km/h | 11889m | 4.7m/s | -53.5°C | 51.8% | 0hPa | 2.8V | 08:30:00 | 01:02:12 | 00:00:00 | |
| IW2NTF | 2026-09-05 10:38:22 | 44.37926 | 7.83961 | 152° | 62km/h | 11846m | 4.1m/s | -53.2°C | 47.9% | 0hPa | 2.9V | 08:30:00 | 01:02:02 | 00:00:00 | |
| IW2NTF | 2026-09-05 10:38:12 | 44.38079 | 7.83858 | 150° | 68km/h | 11803m | 5.2m/s | -52.8°C | 49% | 0hPa | 2.9V | 08:30:00 | 01:01:52 | 00:00:00 | |
| IW2NTF | 2026-09-05 10:38:02 | 44.38221 | 7.83746 | 151° | 62km/h | 11760m | 5.4m/s | -52.4°C | 46.8% | 0hPa | 2.9V | 08:30:00 | 01:01:42 | 00:00:00 | |
| IW2NTF | 2026-09-05 10:37:52 | 44.38369 | 7.83645 | 152° | 62km/h | 11715m | 5.1m/s | -52°C | 48.8% | 0hPa | 2.9V | 08:30:00 | 01:01:32 | 00:00:00 | |
| IW2NTF | 2026-09-05 10:37:42 | 44.38516 | 7.83549 | 152° | 68km/h | 11671m | 4.2m/s | -51.7°C | 46.3% | 0hPa | 2.9V | 08:30:00 | 01:01:22 | 00:00:00 | |
| IW2NTF | 2026-09-05 10:37:33 | 44.38661 | 7.83447 | 151° | 66km/h | 11627m | 5m/s | -51.3°C | 44.7% | 0hPa | 2.9V | 08:30:00 | 01:01:12 | 00:00:00 | |
| IW2NTF | 2026-09-05 10:37:22 | 44.38808 | 7.83347 | 155° | 55km/h | 11587m | 3.8m/s | -51.1°C | 39.5% | 0hPa | 2.9V | 08:30:00 | 01:01:02 | 00:00:00 | |
| IW2NTF | 2026-09-05 10:37:12 | 44.38953 | 7.83248 | 152° | 66km/h | 11545m | 4.5m/s | -50.6°C | 37.2% | 0hPa | 2.8V | 08:30:00 | 01:00:52 | 00:00:00 | |
| IW2NTF | 2026-09-05 10:37:02 | 44.39091 | 7.83153 | 151° | 60km/h | 11501m | 4.6m/s | -50.2°C | 35.2% | 0hPa | 2.9V | 08:30:00 | 01:00:42 | 00:00:00 | |
| IW2NTF | 2026-09-05 10:36:53 | 44.39226 | 7.83050 | 156° | 58km/h | 11457m | 2.7m/s | -49.7°C | 34% | 0hPa | 2.8V | 08:30:00 | 01:00:32 | 00:00:00 | |
| IW2NTF | 2026-09-05 10:36:42 | 44.39359 | 7.82952 | 152° | 57km/h | 11418m | 4.8m/s | -49.4°C | 31.8% | 0hPa | 2.9V | 08:30:00 | 01:00:22 | 00:00:00 | |
| IW2NTF | 2026-09-05 10:36:32 | 44.39494 | 7.82853 | 150° | 58km/h | 11380m | 4.2m/s | -49°C | 32.2% | 0hPa | 2.9V | 08:30:00 | 01:00:12 | 00:00:00 | |
| IW2NTF | 2026-09-05 10:36:22 | 44.39626 | 7.82752 | 150° | 60km/h | 11340m | 4.4m/s | -48.7°C | 31.9% | 0hPa | 2.9V | 08:30:00 | 01:00:02 | 00:00:00 | |
| IW2NTF | 2026-09-05 10:36:12 | 44.39760 | 7.82651 | 153° | 58km/h | 11298m | 3.9m/s | -48.3°C | 32.1% | 0hPa | 2.9V | 08:30:00 | 00:59:52 | 00:00:00 | |
| IW2NTF | 2026-09-05 10:36:02 | 44.39888 | 7.82546 | 150° | 60km/h | 11254m | 5.6m/s | -48°C | 30.7% | 0hPa | 2.8V | 08:30:00 | 00:59:42 | 00:00:00 | |
| IW2NTF | 2026-09-05 10:35:53 | 44.40013 | 7.82438 | 147° | 58km/h | 11213m | 4.4m/s | -47.6°C | 29.3% | 0hPa | 2.9V | 08:30:00 | 00:59:32 | 00:00:00 | |
| IW2NTF | 2026-09-05 10:35:42 | 44.40138 | 7.82330 | 144° | 57km/h | 11172m | 3.3m/s | -47.1°C | 29.5% | 0hPa | 2.9V | 08:30:00 | 00:59:22 | 00:00:00 | |
| IW2NTF | 2026-09-05 10:35:32 | 44.40258 | 7.82227 | 148° | 53km/h | 11133m | 4.8m/s | -46.8°C | 29.9% | 0hPa | 2.9V | 08:30:00 | 00:59:12 | 00:00:00 | |
| IW2NTF | 2026-09-05 10:35:22 | 44.40377 | 7.82111 | 141° | 51km/h | 11087m | 4.6m/s | -46.5°C | 30.3% | 0hPa | 2.9V | 08:30:00 | 00:59:02 | 00:00:00 | |
| IW2NTF | 2026-09-05 10:35:13 | 44.40489 | 7.82006 | 149° | 57km/h | 11043m | 5.9m/s | -46.1°C | 30.1% | 0hPa | 2.9V | 08:30:00 | 00:58:52 | 00:00:00 | |
| IW2NTF | 2026-09-05 10:35:03 | 44.40602 | 7.81889 | 141° | 53km/h | 10994m | 3.4m/s | -45.6°C | 28.5% | 0hPa | 2.8V | 08:30:00 | 00:58:42 | 00:00:00 | |
| IW2NTF | 2026-09-05 10:34:52 | 44.40719 | 7.81764 | 142° | 57km/h | 10944m | 4.7m/s | -45.2°C | 26.7% | 0hPa | 2.9V | 08:30:00 | 00:58:32 | 00:00:00 | |
| IW2NTF | 2026-09-05 10:34:44 | 44.40839 | 7.81639 | 145° | 57km/h | 10896m | 4.7m/s | -44.7°C | 26.5% | 0hPa | 2.9V | 08:30:00 | 00:58:22 | 00:00:00 | |
| IW2NTF | 2026-09-05 10:34:33 | 44.40953 | 7.81512 | 144° | 64km/h | 10847m | 3.7m/s | -44.3°C | 26% | 0hPa | 2.9V | 08:30:00 | 00:58:12 | 00:00:00 | |
| IW2NTF | 2026-09-05 10:34:22 | 44.41068 | 7.81382 | 145° | 58km/h | 10793m | 4.3m/s | -43.8°C | 25.9% | 0hPa | 2.8V | 08:30:00 | 00:58:02 | 00:00:00 | |
| IW2NTF | 2026-09-05 10:34:13 | 44.41172 | 7.81256 | 136° | 55km/h | 10739m | 6.6m/s | -43.3°C | 25.1% | 0hPa | 2.8V | 08:30:00 | 00:57:52 | 00:00:00 | |
| IW2NTF | 2026-09-05 10:34:02 | 44.41286 | 7.81125 | 141° | 57km/h | 10685m | 3.3m/s | -42.7°C | 24.6% | 0hPa | 2.9V | 08:30:00 | 00:57:42 | 00:00:00 | |
| IW2NTF | 2026-09-05 10:33:50 | 44.41413 | 7.80962 | 139° | 58km/h | 10621m | 6.8m/s | -42.1°C | 23.3% | 0hPa | 2.8V | 08:30:00 | 00:57:30 | 00:00:00 | |
| IW2NTF | 2026-09-05 10:33:40 | 44.41526 | 7.80840 | 143° | 58km/h | 10564m | 5.7m/s | -41.6°C | 22.2% | 0hPa | 2.9V | 08:30:00 | 00:57:20 | 00:00:00 | |
| IW2NTF | 2026-09-05 10:33:30 | 44.41633 | 7.80704 | 143° | 60km/h | 10514m | 4.3m/s | -41.1°C | 21.6% | 0hPa | 2.9V | 08:30:00 | 00:57:10 | 00:00:00 | |
| IW2NTF | 2026-09-05 10:33:20 | 44.41742 | 7.80577 | 136° | 55km/h | 10461m | 4.9m/s | -40.6°C | 20.1% | 0hPa | 2.9V | 08:30:00 | 00:57:00 | 00:00:00 | |
| IW2NTF | 2026-09-05 10:33:10 | 44.41861 | 7.80450 | 141° | 57km/h | 10418m | 5.1m/s | -40.2°C | 19.5% | 0hPa | 2.9V | 08:30:00 | 00:56:50 | 00:00:00 | |
| IW2NTF | 2026-09-05 10:33:00 | 44.41973 | 7.80322 | 141° | 57km/h | 10371m | 8.2m/s | -39.7°C | 18.8% | 0hPa | 2.9V | 08:30:00 | 00:56:40 | 00:00:00 | |
| IW2NTF | 2026-09-05 10:32:50 | 44.42089 | 7.80196 | 145° | 58km/h | 10315m | 5m/s | -39.2°C | 18.1% | 0hPa | 2.9V | 08:30:00 | 00:56:30 | 00:00:00 | |
| IW2NTF | 2026-09-05 10:32:41 | 44.42204 | 7.80072 | 142° | 62km/h | 10266m | 4.5m/s | -38.7°C | 17.6% | 0hPa | 2.9V | 08:30:00 | 00:56:20 | 00:00:00 | |
| IW2NTF | 2026-09-05 10:32:28 | 44.42339 | 7.79914 | 136° | 57km/h | 10212m | 5.9m/s | -38.3°C | 17.4% | 0hPa | 2.9V | 08:30:00 | 00:56:08 | 00:00:00 | |
| IW2NTF | 2026-09-05 10:32:18 | 44.42453 | 7.79789 | 139° | 53km/h | 10165m | 3.3m/s | -37.9°C | 17.7% | 0hPa | 2.9V | 08:30:00 | 00:55:58 | 00:00:00 | |
| IW2NTF | 2026-09-05 10:32:09 | 44.42567 | 7.79668 | 143° | 66km/h | 10113m | 4.6m/s | -37.5°C | 17% | 0hPa | 2.9V | 08:30:00 | 00:55:48 | 00:00:00 | |
| IW2NTF | 2026-09-05 10:31:59 | 44.42698 | 7.79543 | 143° | 64km/h | 10068m | 3.6m/s | -37°C | 17.1% | 0hPa | 2.8V | 08:30:00 | 00:55:38 | 00:00:00 | |
| IW2NTF | 2026-09-05 10:31:48 | 44.42821 | 7.79411 | 142° | 58km/h | 10025m | 4.8m/s | -36.8°C | 18.6% | 0hPa | 2.8V | 08:30:00 | 00:55:28 | 00:00:00 | |
| IW2NTF | 2026-09-05 10:31:38 | 44.42950 | 7.79303 | 147° | 58km/h | 9977m | 5.8m/s | -36.5°C | 19.3% | 0hPa | 2.9V | 08:30:00 | 00:55:18 | 00:00:00 | |
| IW2NTF | 2026-09-05 10:31:28 | 44.43084 | 7.79175 | 146° | 60km/h | 9929m | 5m/s | -36.2°C | 18.8% | 0hPa | 2.9V | 08:30:00 | 00:55:08 | 00:00:00 | |
| IW2NTF | 2026-09-05 10:31:18 | 44.43222 | 7.79065 | 152° | 64km/h | 9879m | 4.1m/s | -35.7°C | 18.3% | 0hPa | 2.9V | 08:30:00 | 00:54:58 | 00:00:00 | |
| IW2NTF | 2026-09-05 10:31:08 | 44.43362 | 7.78959 | 146° | 60km/h | 9829m | 4.8m/s | -35.4°C | 18.9% | 0hPa | 2.8V | 08:30:00 | 00:54:48 | 00:00:00 | |
| IW2NTF | 2026-09-05 10:30:59 | 44.43504 | 7.78844 | 145° | 62km/h | 9779m | 6m/s | -35.1°C | 22.3% | 0hPa | 2.9V | 08:30:00 | 00:54:38 | 00:00:00 | |
| IW2NTF | 2026-09-05 10:30:49 | 44.43634 | 7.78719 | 150° | 62km/h | 9726m | 4.4m/s | -34.7°C | 23.8% | 0hPa | 2.9V | 08:30:00 | 00:54:28 | 00:00:00 | |
| IW2NTF | 2026-09-05 10:30:38 | 44.43756 | 7.78602 | 143° | 55km/h | 9681m | 4.7m/s | -34.4°C | 25.8% | 0hPa | 2.8V | 08:30:00 | 00:54:18 | 00:00:00 | |
| IW2NTF | 2026-09-05 10:30:29 | 44.43880 | 7.78475 | 143° | 55km/h | 9637m | 5.2m/s | -34°C | 27.2% | 0hPa | 2.9V | 08:30:00 | 00:54:08 | 00:00:00 | |
| IW2NTF | 2026-09-05 10:30:19 | 44.43998 | 7.78347 | 138° | 64km/h | 9593m | 5m/s | -33.7°C | 28% | 0hPa | 2.8V | 08:30:00 | 00:53:58 | 00:00:00 | |
| IW2NTF | 2026-09-05 10:30:08 | 44.44112 | 7.78219 | 144° | 57km/h | 9550m | 4.3m/s | -33.3°C | 28.9% | 0hPa | 2.9V | 08:30:00 | 00:53:48 | 00:00:00 | |
| IW2NTF | 2026-09-05 10:29:58 | 44.44225 | 7.78091 | 133° | 57km/h | 9506m | 6.2m/s | -33.2°C | 30.8% | 0hPa | 2.8V | 08:30:00 | 00:53:38 | 00:00:00 | |
| IW2NTF | 2026-09-05 10:29:48 | 44.44338 | 7.77949 | 132° | 62km/h | 9457m | 4.4m/s | -32.9°C | 31.4% | 0hPa | 2.9V | 08:30:00 | 00:53:28 | 00:00:00 | |
| IW2NTF | 2026-09-05 10:29:38 | 44.44443 | 7.77798 | 139° | 58km/h | 9411m | 5.2m/s | -32.7°C | 35% | 0hPa | 2.9V | 08:30:00 | 00:53:18 | 00:00:00 | |
| IW2NTF | 2026-09-05 10:29:28 | 44.44556 | 7.77636 | 136° | 62km/h | 9369m | 4.9m/s | -32.5°C | 38.3% | 0hPa | 2.9V | 08:30:00 | 00:53:08 | 00:00:00 | |
| IW2NTF | 2026-09-05 10:29:18 | 44.44668 | 7.77491 | 133° | 64km/h | 9316m | 5.2m/s | -32.1°C | 39.5% | 0hPa | 2.9V | 08:30:00 | 00:52:58 | 00:00:00 | |
| IW2NTF | 2026-09-05 10:29:08 | 44.44774 | 7.77339 | 129° | 58km/h | 9268m | 5.9m/s | -31.9°C | 44.8% | 0hPa | 2.9V | 08:30:00 | 00:52:48 | 00:00:00 | |
| IW2NTF | 2026-09-05 10:28:58 | 44.44875 | 7.77200 | 138° | 53km/h | 9216m | 4.1m/s | -31.5°C | 44.3% | 0hPa | 2.9V | 08:30:00 | 00:52:38 | 00:00:00 | |
| IW2NTF | 2026-09-05 10:28:48 | 44.44986 | 7.77060 | 130° | 66km/h | 9160m | 5m/s | -31.2°C | 49.6% | 0hPa | 2.9V | 08:30:00 | 00:52:28 | 00:00:00 | |
| IW2NTF | 2026-09-05 10:28:38 | 44.45089 | 7.76912 | 134° | 49km/h | 9110m | 5.2m/s | -30.9°C | 55% | 0hPa | 2.9V | 08:30:00 | 00:52:18 | 00:00:00 | |
| IW2NTF | 2026-09-05 10:28:28 | 44.45187 | 7.76776 | 132° | 57km/h | 9061m | 2.4m/s | -30.5°C | 53.1% | 0hPa | 2.9V | 08:30:00 | 00:52:08 | 00:00:00 | |
| IW2NTF | 2026-09-05 10:28:18 | 44.45285 | 7.76639 | 132° | 55km/h | 9015m | 5.3m/s | -30.1°C | 51.8% | 0hPa | 2.9V | 08:30:00 | 00:51:58 | 00:00:00 | |
| IW2NTF | 2026-09-05 10:28:08 | 44.45388 | 7.76503 | 132° | 62km/h | 8968m | 5.6m/s | -29.7°C | 50.4% | 0hPa | 2.9V | 08:30:00 | 00:51:48 | 00:00:00 | |
| IW2NTF | 2026-09-05 10:27:58 | 44.45492 | 7.76364 | 138° | 53km/h | 8920m | 6.6m/s | -29.3°C | 48.1% | 0hPa | 2.9V | 08:30:00 | 00:51:38 | 00:00:00 | |
| IW2NTF | 2026-09-05 10:27:48 | 44.45590 | 7.76229 | 137° | 55km/h | 8866m | 3.4m/s | -28.9°C | 49.9% | 0hPa | 2.9V | 08:30:00 | 00:51:28 | 00:00:00 | |
| IW2NTF | 2026-09-05 10:27:38 | 44.45699 | 7.76090 | 143° | 58km/h | 8814m | 4.7m/s | -28.5°C | 52% | 0hPa | 3V | 08:30:00 | 00:51:18 | 00:00:00 | |
| IW2NTF | 2026-09-05 10:27:28 | 44.45813 | 7.75959 | 143° | 60km/h | 8770m | 4.6m/s | -28.1°C | 52.9% | 0hPa | 2.9V | 08:30:00 | 00:51:08 | 00:00:00 | |
| IW2NTF | 2026-09-05 10:27:18 | 44.45927 | 7.75824 | 137° | 53km/h | 8725m | 6.7m/s | -27.8°C | 51.8% | 0hPa | 3V | 08:30:00 | 00:50:58 | 00:00:00 | |
| IW2NTF | 2026-09-05 10:27:08 | 44.46049 | 7.75690 | 137° | 64km/h | 8680m | 4.8m/s | -27.6°C | 59.3% | 0hPa | 3V | 08:30:00 | 00:50:48 | 00:00:00 | |
| IW2NTF | 2026-09-05 10:26:58 | 44.46162 | 7.75548 | 141° | 62km/h | 8626m | 5.6m/s | -27.2°C | 59.5% | 0hPa | 3V | 08:30:00 | 00:50:38 | 00:00:00 | |
| IW2NTF | 2026-09-05 10:26:48 | 44.46275 | 7.75405 | 140° | 55km/h | 8580m | 5m/s | -26.7°C | 57.1% | 0hPa | 3V | 08:30:00 | 00:50:28 | 00:00:00 | |
| IW2NTF | 2026-09-05 10:26:39 | 44.46392 | 7.75267 | 139° | 64km/h | 8530m | 6m/s | -26.4°C | 58.6% | 0hPa | 3V | 08:30:00 | 00:50:18 | 00:00:00 | |
| IW2NTF | 2026-09-05 10:26:28 | 44.46491 | 7.75127 | 130° | 53km/h | 8478m | 6.4m/s | -25.9°C | 56.9% | 0hPa | 3V | 08:30:00 | 00:50:08 | 00:00:00 | |
| IW2NTF | 2026-09-05 10:26:18 | 44.46595 | 7.74989 | 139° | 53km/h | 8418m | 7.9m/s | -25.4°C | 56.8% | 0hPa | 3V | 08:30:00 | 00:49:58 | 00:00:00 | |
| IW2NTF | 2026-09-05 10:26:08 | 44.46700 | 7.74856 | 137° | 55km/h | 8365m | 7m/s | -25°C | 57.7% | 0hPa | 3V | 08:30:00 | 00:49:48 | 00:00:00 | |
| IW2NTF | 2026-09-05 10:25:58 | 44.46794 | 7.74729 | 136° | 57km/h | 8312m | 5m/s | -24.5°C | 56.6% | 0hPa | 2.9V | 08:30:00 | 00:49:38 | 00:00:00 | |
| IW2NTF | 2026-09-05 10:25:48 | 44.46912 | 7.74596 | 143° | 58km/h | 8260m | 6.6m/s | -24°C | 54.8% | 0hPa | 3V | 08:30:00 | 00:49:28 | 00:00:00 | |
| IW2NTF | 2026-09-05 10:25:38 | 44.47022 | 7.74464 | 138° | 64km/h | 8216m | 5.2m/s | -23.7°C | 54.1% | 0hPa | 3V | 08:30:00 | 00:49:18 | 00:00:00 | |
| IW2NTF | 2026-09-05 10:25:29 | 44.47137 | 7.74337 | 144° | 58km/h | 8162m | 8.1m/s | -23.2°C | 52.7% | 0hPa | 3V | 08:30:00 | 00:49:08 | 00:00:00 | |
| IW2NTF | 2026-09-05 10:25:18 | 44.47242 | 7.74212 | 136° | 49km/h | 8104m | 4.9m/s | -22.9°C | 56.8% | 0hPa | 3V | 08:30:00 | 00:48:58 | 00:00:00 | |
| IW2NTF | 2026-09-05 10:25:09 | 44.47342 | 7.74095 | 142° | 51km/h | 8054m | 5.1m/s | -22.5°C | 59.4% | 0hPa | 3V | 08:30:00 | 00:48:48 | 00:00:00 | |
| IW2NTF | 2026-09-05 10:24:58 | 44.47439 | 7.73991 | 129° | 47km/h | 8009m | 3.3m/s | -22.2°C | 59.1% | 0hPa | 3V | 08:30:00 | 00:48:38 | 00:00:00 | |
| IW2NTF | 2026-09-05 10:24:48 | 44.47538 | 7.73890 | 139° | 47km/h | 7967m | 5m/s | -21.8°C | 58.9% | 0hPa | 3V | 08:30:00 | 00:48:28 | 00:00:00 | |
| IW2NTF | 2026-09-05 10:24:38 | 44.47630 | 7.73787 | 138° | 47km/h | 7926m | 3.6m/s | -21.4°C | 57.8% | 0hPa | 3V | 08:30:00 | 00:48:18 | 00:00:00 | |
| IW2NTF | 2026-09-05 10:24:28 | 44.47712 | 7.73676 | 137° | 42km/h | 7884m | 4.1m/s | -21.1°C | 58.9% | 0hPa | 3V | 08:30:00 | 00:48:08 | 00:00:00 | |
| IW2NTF | 2026-09-05 10:24:18 | 44.47810 | 7.73581 | 147° | 47km/h | 7844m | 4.9m/s | -20.8°C | 58% | 0hPa | 3V | 08:30:00 | 00:47:58 | 00:00:00 | |
| IW2NTF | 2026-09-05 10:24:08 | 44.47890 | 7.73472 | 148° | 51km/h | 7801m | 6.5m/s | -20.5°C | 59.4% | 0hPa | 3V | 08:30:00 | 00:47:48 | 00:00:00 | |
| IW2NTF | 2026-09-05 10:23:59 | 44.47987 | 7.73381 | 142° | 44km/h | 7749m | 5m/s | -20.1°C | 59.6% | 0hPa | 3V | 08:30:00 | 00:47:38 | 00:00:00 | |
| IW2NTF | 2026-09-05 10:23:48 | 44.48074 | 7.73298 | 138° | 40km/h | 7703m | 4.5m/s | -19.9°C | 58.5% | 0hPa | 3V | 08:30:00 | 00:47:28 | 00:00:00 | |
| IW2NTF | 2026-09-05 10:23:39 | 44.48160 | 7.73205 | 141° | 37km/h | 7665m | 5.1m/s | -19.9°C | 64% | 0hPa | 3V | 08:30:00 | 00:47:18 | 00:00:00 | |
| IW2NTF | 2026-09-05 10:23:28 | 44.48230 | 7.73090 | 139° | 47km/h | 7621m | 6.2m/s | -19.8°C | 67.8% | 0hPa | 3V | 08:30:00 | 00:47:08 | 00:00:00 | |
| IW2NTF | 2026-09-05 10:23:18 | 44.48321 | 7.72963 | 130° | 55km/h | 7575m | 3.6m/s | -19.4°C | 67% | 0hPa | 3V | 08:30:00 | 00:46:58 | 00:00:00 | |
| IW2NTF | 2026-09-05 10:23:08 | 44.48407 | 7.72826 | 132° | 53km/h | 7533m | 4.3m/s | -19.3°C | 66.8% | 0hPa | 3V | 08:30:00 | 00:46:48 | 00:00:00 | |
| IW2NTF | 2026-09-05 10:22:58 | 44.48483 | 7.72667 | 122° | 49km/h | 7488m | 6.7m/s | -19°C | 73.2% | 0hPa | 3V | 08:30:00 | 00:46:38 | 00:00:00 | |
| IW2NTF | 2026-09-05 10:22:48 | 44.48545 | 7.72535 | 123° | 51km/h | 7437m | 4.8m/s | -18.6°C | 70.4% | 0hPa | 3V | 08:30:00 | 00:46:28 | 00:00:00 | |
| IW2NTF | 2026-09-05 10:22:38 | 44.48610 | 7.72383 | 127° | 40km/h | 7394m | 3.6m/s | -18.2°C | 68.5% | 0hPa | 3V | 08:30:00 | 00:46:18 | 00:00:00 | |
| IW2NTF | 2026-09-05 10:22:28 | 44.48672 | 7.72249 | 115° | 47km/h | 7353m | 3.9m/s | -17.8°C | 66.8% | 0hPa | 3V | 08:30:00 | 00:46:08 | 00:00:00 | |
| IW2NTF | 2026-09-05 10:22:18 | 44.48734 | 7.72112 | 130° | 49km/h | 7313m | 3.2m/s | -17.6°C | 63.8% | 0hPa | 3V | 08:30:00 | 00:45:58 | 00:00:00 | |
| IW2NTF | 2026-09-05 10:22:09 | 44.48795 | 7.71969 | 117° | 49km/h | 7262m | 3.9m/s | -17.1°C | 63.2% | 0hPa | 3V | 08:30:00 | 00:45:48 | 00:00:00 | |
| IW2NTF | 2026-09-05 10:21:58 | 44.48862 | 7.71826 | 123° | 53km/h | 7215m | 5.5m/s | -16.7°C | 61% | 0hPa | 3V | 08:30:00 | 00:45:38 | 00:00:00 | |
| IW2NTF | 2026-09-05 10:21:48 | 44.48925 | 7.71679 | 118° | 46km/h | 7170m | 4.6m/s | -16.3°C | 61.5% | 0hPa | 3V | 08:30:00 | 00:45:28 | 00:00:00 | |
| IW2NTF | 2026-09-05 10:21:39 | 44.48986 | 7.71540 | 124° | 47km/h | 7127m | 4.5m/s | -15.9°C | 59.2% | 0hPa | 3V | 08:30:00 | 00:45:18 | 00:00:00 | |
| IW2NTF | 2026-09-05 10:21:28 | 44.49046 | 7.71397 | 114° | 42km/h | 7084m | 5.5m/s | -15.6°C | 56.8% | 0hPa | 3V | 08:30:00 | 00:45:08 | 00:00:00 | |
| IW2NTF | 2026-09-05 10:21:18 | 44.49109 | 7.71249 | 118° | 46km/h | 7030m | 5.6m/s | -15.2°C | 57.4% | 0hPa | 3V | 08:30:00 | 00:44:58 | 00:00:00 | |
| IW2NTF | 2026-09-05 10:21:07 | 44.49155 | 7.71091 | 115° | 49km/h | 6960m | 4.7m/s | -14.7°C | 40.2% | 0hPa | 3V | 08:30:00 | 00:44:46 | 00:00:00 | |
| IW2NTF | 2026-09-05 10:20:56 | 44.49197 | 7.70945 | 110° | 47km/h | 6912m | 6.3m/s | -14.3°C | 35.8% | 0hPa | 3V | 08:30:00 | 00:44:36 | 00:00:00 | |
| IW2NTF | 2026-09-05 10:20:44 | 44.49230 | 7.70755 | 106° | 44km/h | 6842m | 4.7m/s | -13.8°C | 33.6% | 0hPa | 3V | 08:30:00 | 00:44:24 | 00:00:00 | |
| IW2NTF | 2026-09-05 10:20:32 | 44.49268 | 7.70594 | 115° | 46km/h | 6771m | 4.3m/s | -13.5°C | 31.8% | 0hPa | 3V | 08:30:00 | 00:44:12 | 00:00:00 | |
| IW2NTF | 2026-09-05 10:20:22 | 44.49310 | 7.70452 | 106° | 42km/h | 6719m | 5.3m/s | -13.1°C | 23.6% | 0hPa | 3V | 08:30:00 | 00:44:02 | 00:00:00 | |
| IW2NTF | 2026-09-05 10:20:09 | 44.49363 | 7.70267 | 116° | 38km/h | 6655m | 6.2m/s | -12.5°C | 20.9% | 0hPa | 3V | 08:30:00 | 00:43:49 | 00:00:00 | |
| IW2NTF | 2026-09-05 10:19:59 | 44.49403 | 7.70105 | 114° | 49km/h | 6606m | 4.8m/s | -12.2°C | 19.6% | 0hPa | 3V | 08:30:00 | 00:43:39 | 00:00:00 | |
| IW2NTF | 2026-09-05 10:19:50 | 44.49439 | 7.69978 | 116° | 47km/h | 6550m | 6.6m/s | -11.8°C | 20.1% | 0hPa | 3V | 08:30:00 | 00:43:29 | 00:00:00 | |
| IW2NTF | 2026-09-05 10:19:39 | 44.49479 | 7.69842 | 98° | 42km/h | 6485m | 2.8m/s | -11.3°C | 20% | 0hPa | 3V | 08:30:00 | 00:43:19 | 00:00:00 | |
| IW2NTF | 2026-09-05 10:19:29 | 44.49516 | 7.69708 | 117° | 44km/h | 6433m | 9.5m/s | -11.1°C | 19.5% | 0hPa | 3V | 08:30:00 | 00:43:09 | 00:00:00 | |
| IW2NTF | 2026-09-05 10:19:19 | 44.49552 | 7.69549 | 104° | 44km/h | 6373m | 5.8m/s | -10.7°C | 19.5% | 0hPa | 3V | 08:30:00 | 00:42:59 | 00:00:00 | |
| IW2NTF | 2026-09-05 10:19:09 | 44.49591 | 7.69396 | 108° | 47km/h | 6330m | 4.5m/s | -10.3°C | 20.2% | 0hPa | 3V | 08:30:00 | 00:42:49 | 00:00:00 | |
| IW2NTF | 2026-09-05 10:18:59 | 44.49621 | 7.69226 | 108° | 38km/h | 6282m | 7.4m/s | -10.1°C | 21.3% | 0hPa | 3V | 08:30:00 | 00:42:39 | 00:00:00 | |
| IW2NTF | 2026-09-05 10:18:49 | 44.49645 | 7.69081 | 112° | 44km/h | 6226m | 5.6m/s | -9.7°C | 20.9% | 0hPa | 3V | 08:30:00 | 00:42:29 | 00:00:00 | |
| IW2NTF | 2026-09-05 10:18:39 | 44.49667 | 7.68926 | 104° | 47km/h | 6180m | 4.8m/s | -9.2°C | 20.1% | 0hPa | 3V | 08:30:00 | 00:42:19 | 00:00:00 | |
| IW2NTF | 2026-09-05 10:18:29 | 44.49694 | 7.68776 | 110° | 40km/h | 6120m | 5.4m/s | -8.7°C | 18.6% | 0hPa | 3V | 08:30:00 | 00:42:09 | 00:00:00 | |
| IW2NTF | 2026-09-05 10:18:19 | 44.49723 | 7.68629 | 108° | 42km/h | 6074m | 3.9m/s | -8.3°C | 17.3% | 0hPa | 3V | 08:30:00 | 00:41:59 | 00:00:00 | |
| IW2NTF | 2026-09-05 10:18:09 | 44.49753 | 7.68489 | 108° | 40km/h | 6024m | 5.7m/s | -7.8°C | 16.7% | 0hPa | 3V | 08:30:00 | 00:41:49 | 00:00:00 | |
| IW2NTF | 2026-09-05 10:17:59 | 44.49775 | 7.68351 | 104° | 44km/h | 5975m | 3.6m/s | -7.5°C | 14.1% | 0hPa | 3V | 08:30:00 | 00:41:39 | 00:00:00 | |
| IW2NTF | 2026-09-05 10:17:49 | 44.49789 | 7.68206 | 101° | 46km/h | 5918m | 6.7m/s | -7.1°C | 15.4% | 0hPa | 3V | 08:30:00 | 00:41:29 | 00:00:00 | |
| IW2NTF | 2026-09-05 10:17:39 | 44.49805 | 7.68045 | 101° | 40km/h | 5867m | 6.7m/s | -6.8°C | 20.8% | 0hPa | 3V | 08:30:00 | 00:41:19 | 00:00:00 | |
| IW2NTF | 2026-09-05 10:17:29 | 44.49823 | 7.67879 | 114° | 44km/h | 5821m | 5.3m/s | -6.3°C | 23.1% | 0hPa | 3V | 08:30:00 | 00:41:09 | 00:00:00 | |
| IW2NTF | 2026-09-05 10:17:19 | 44.49852 | 7.67725 | 113° | 46km/h | 5764m | 6.1m/s | -6.1°C | 27.2% | 0hPa | 3V | 08:30:00 | 00:40:59 | 00:00:00 | |
| IW2NTF | 2026-09-05 10:17:09 | 44.49886 | 7.67574 | 92° | 44km/h | 5714m | 4.9m/s | -5.6°C | 25.3% | 0hPa | 3V | 08:30:00 | 00:40:49 | 00:00:00 | |
| IW2NTF | 2026-09-05 10:16:59 | 44.49914 | 7.67431 | 110° | 44km/h | 5673m | 3.6m/s | -5.2°C | 24.6% | 0hPa | 3V | 08:30:00 | 00:40:39 | 00:00:00 | |
| IW2NTF | 2026-09-05 10:16:49 | 44.49944 | 7.67271 | 101° | 42km/h | 5629m | 5.7m/s | -4.8°C | 26.5% | 0hPa | 3V | 08:30:00 | 00:40:29 | 00:00:00 | |
| IW2NTF | 2026-09-05 10:16:39 | 44.49962 | 7.67120 | 103° | 53km/h | 5586m | 5.3m/s | -4.5°C | 27.2% | 0hPa | 3V | 08:30:00 | 00:40:19 | 00:00:00 | |
| IW2NTF | 2026-09-05 10:16:30 | 44.49988 | 7.66967 | 108° | 47km/h | 5525m | 6.3m/s | -4.1°C | 26.6% | 0hPa | 3V | 08:30:00 | 00:40:09 | 00:00:00 | |
| IW2NTF | 2026-09-05 10:16:19 | 44.50031 | 7.66811 | 100° | 51km/h | 5475m | 7.9m/s | -3.7°C | 25.9% | 0hPa | 3V | 08:30:00 | 00:39:59 | 00:00:00 | |
| IW2NTF | 2026-09-05 10:16:09 | 44.50071 | 7.66647 | 126° | 44km/h | 5428m | 3.5m/s | -3.3°C | 25.3% | 0hPa | 3V | 08:30:00 | 00:39:49 | 00:00:00 | |
| IW2NTF | 2026-09-05 10:15:59 | 44.50121 | 7.66498 | 110° | 40km/h | 5369m | 5.9m/s | -2.8°C | 24.2% | 0hPa | 3V | 08:30:00 | 00:39:39 | 00:00:00 | |
| IW2NTF | 2026-09-05 10:15:50 | 44.50167 | 7.66372 | 109° | 44km/h | 5320m | 8.2m/s | -2.4°C | 22.7% | 0hPa | 3V | 08:30:00 | 00:39:29 | 00:00:00 | |
| IW2NTF | 2026-09-05 10:15:40 | 44.50219 | 7.66223 | 116° | 46km/h | 5257m | 6.2m/s | -1.8°C | 19.5% | 0hPa | 3V | 08:30:00 | 00:39:19 | 00:00:00 | |
| IW2NTF | 2026-09-05 10:15:29 | 44.50280 | 7.66083 | 132° | 42km/h | 5202m | 5m/s | -1.5°C | 10.3% | 0hPa | 3V | 08:30:00 | 00:39:09 | 00:00:00 | |
| IW2NTF | 2026-09-05 10:15:20 | 44.50344 | 7.65951 | 125° | 51km/h | 5148m | 5.1m/s | -1.2°C | 13.3% | 0hPa | 3V | 08:30:00 | 00:38:59 | 00:00:00 | |
| IW2NTF | 2026-09-05 10:15:09 | 44.50412 | 7.65836 | 130° | 38km/h | 5092m | 5.7m/s | -0.7°C | 11.5% | 0hPa | 3V | 08:30:00 | 00:38:49 | 00:00:00 | |
| IW2NTF | 2026-09-05 10:15:00 | 44.50487 | 7.65705 | 120° | 55km/h | 5045m | 4.3m/s | -0.3°C | 10.9% | 0hPa | 3V | 08:30:00 | 00:38:39 | 00:00:00 | |
| IW2NTF | 2026-09-05 10:14:49 | 44.50541 | 7.65568 | 126° | 40km/h | 4986m | 6.1m/s | -0.1°C | 16.2% | 0hPa | 3V | 08:30:00 | 00:38:29 | 00:00:00 | |
| IW2NTF | 2026-09-05 10:14:43 | 44.50571 | 7.65504 | 129° | 38km/h | 4952m | 7.1m/s | 0.2°C | 15.6% | 0hPa | 3V | 08:30:00 | 00:38:23 | 00:00:00 | |
| IW2NTF | 2026-09-05 10:14:37 | 44.50613 | 7.65425 | 117° | 47km/h | 4921m | 6.6m/s | 0.5°C | 14.3% | 0hPa | 3V | 08:30:00 | 00:38:17 | 00:00:00 | |
| IW2NTF | 2026-09-05 10:14:31 | 44.50644 | 7.65347 | 122° | 40km/h | 4883m | 6.5m/s | 0.8°C | 13.6% | 0hPa | 3V | 08:30:00 | 00:38:11 | 00:00:00 | |
| IW2NTF | 2026-09-05 10:14:25 | 44.50682 | 7.65266 | 120° | 49km/h | 4848m | 2.9m/s | 1.1°C | 15.1% | 0hPa | 3V | 08:30:00 | 00:38:05 | 00:00:00 | |
| IW2NTF | 2026-09-05 10:14:19 | 44.50723 | 7.65179 | 126° | 47km/h | 4814m | 5.7m/s | 0.8°C | 35.6% | 0hPa | 3V | 08:30:00 | 00:37:59 | 00:00:00 | |
| IW2NTF | 2026-09-05 10:14:13 | 44.50759 | 7.65101 | 129° | 38km/h | 4782m | 5.2m/s | 0.9°C | 53.6% | 0hPa | 3V | 08:30:00 | 00:37:53 | 00:00:00 | |
| IW2NTF | 2026-09-05 10:14:07 | 44.50793 | 7.65041 | 136° | 35km/h | 4750m | 4.6m/s | 1.2°C | 39.1% | 0hPa | 3V | 08:30:00 | 00:37:47 | 00:00:00 | |
| IW2NTF | 2026-09-05 10:14:01 | 44.50834 | 7.64986 | 128° | 37km/h | 4724m | 5m/s | 1.4°C | 31.4% | 0hPa | 3V | 08:30:00 | 00:37:41 | 00:00:00 | |
| IW2NTF | 2026-09-05 10:13:55 | 44.50866 | 7.64926 | 134° | 35km/h | 4697m | 3.8m/s | 1.4°C | 42.4% | 0hPa | 3V | 08:30:00 | 00:37:35 | 00:00:00 | |
| IW2NTF | 2026-09-05 10:13:49 | 44.50911 | 7.64864 | 139° | 44km/h | 4670m | 5.6m/s | 1.4°C | 55.9% | 0hPa | 3V | 08:30:00 | 00:37:29 | 00:00:00 | |
| IW2NTF | 2026-09-05 10:13:43 | 44.50961 | 7.64794 | 130° | 42km/h | 4639m | 6.3m/s | 1.7°C | 51.5% | 0hPa | 3V | 08:30:00 | 00:37:23 | 00:00:00 | |
| IW2NTF | 2026-09-05 10:13:37 | 44.50998 | 7.64719 | 126° | 47km/h | 4603m | 5.9m/s | 2°C | 50.2% | 0hPa | 3V | 08:30:00 | 00:37:17 | 00:00:00 | |
| IW2NTF | 2026-09-05 10:13:31 | 44.51047 | 7.64652 | 139° | 37km/h | 4572m | 6.1m/s | 2.3°C | 41% | 0hPa | 3V | 08:30:00 | 00:37:11 | 00:00:00 | |
| IW2NTF | 2026-09-05 10:13:26 | 44.51088 | 7.64607 | 142° | 38km/h | 4545m | 4.8m/s | 2.4°C | 29.6% | 0hPa | 3V | 08:30:00 | 00:37:05 | 00:00:00 | |
| IW2NTF | 2026-09-05 10:13:19 | 44.51130 | 7.64554 | 140° | 38km/h | 4509m | 8.3m/s | 2°C | 28% | 0hPa | 3V | 08:30:00 | 00:36:59 | 00:00:00 | |
| IW2NTF | 2026-09-05 10:13:13 | 44.51178 | 7.64500 | 137° | 47km/h | 4466m | 6.2m/s | 2°C | 21.4% | 0hPa | 3V | 08:30:00 | 00:36:53 | 00:00:00 | |
| IW2NTF | 2026-09-05 10:13:07 | 44.51237 | 7.64426 | 141° | 57km/h | 4432m | 6.2m/s | 2.1°C | 22.5% | 0hPa | 3V | 08:30:00 | 00:36:47 | 00:00:00 | |
| IW2NTF | 2026-09-05 10:13:01 | 44.51302 | 7.64346 | 132° | 53km/h | 4398m | 6.5m/s | 2.4°C | 22.3% | 0hPa | 3V | 08:30:00 | 00:36:41 | 00:00:00 | |
| IW2NTF | 2026-09-05 10:12:55 | 44.51365 | 7.64272 | 142° | 57km/h | 4360m | 9.3m/s | 2.6°C | 21.5% | 0hPa | 3V | 08:30:00 | 00:36:35 | 00:00:00 | |
| IW2NTF | 2026-09-05 10:12:49 | 44.51442 | 7.64192 | 145° | 66km/h | 4316m | 8.6m/s | 2.9°C | 23.3% | 0hPa | 3V | 08:30:00 | 00:36:29 | 00:00:00 | |
| IW2NTF | 2026-09-05 10:12:43 | 44.51526 | 7.64123 | 153° | 64km/h | 4279m | 5.3m/s | 3.2°C | 23.3% | 0hPa | 3V | 08:30:00 | 00:36:23 | 00:00:00 | |
| IW2NTF | 2026-09-05 10:12:37 | 44.51617 | 7.64050 | 146° | 69km/h | 4240m | 7.6m/s | 3.3°C | 25.9% | 0hPa | 3V | 08:30:00 | 00:36:17 | 00:00:00 | |
| IW2NTF | 2026-09-05 10:12:31 | 44.51698 | 7.63966 | 144° | 66km/h | 4197m | 8m/s | 3.4°C | 26.4% | 0hPa | 3V | 08:30:00 | 00:36:11 | 00:00:00 | |
| IW2NTF | 2026-09-05 10:12:25 | 44.51777 | 7.63895 | 146° | 55km/h | 4156m | 6.1m/s | 3.7°C | 25.6% | 0hPa | 3V | 08:30:00 | 00:36:05 | 00:00:00 | |
| IW2NTF | 2026-09-05 10:12:19 | 44.51850 | 7.63825 | 143° | 62km/h | 4120m | 4.8m/s | 3.7°C | 23.5% | 0hPa | 3V | 08:30:00 | 00:35:59 | 00:00:00 | |
| IW2NTF | 2026-09-05 10:12:13 | 44.51923 | 7.63751 | 148° | 62km/h | 4091m | 4.7m/s | 3.8°C | 26.2% | 0hPa | 3V | 08:30:00 | 00:35:53 | 00:00:00 | |
| IW2NTF | 2026-09-05 10:12:07 | 44.52000 | 7.63686 | 155° | 57km/h | 4064m | 4.4m/s | 3.8°C | 33.2% | 0hPa | 3V | 08:30:00 | 00:35:47 | 00:00:00 | |
| IW2NTF | 2026-09-05 10:12:02 | 44.52084 | 7.63638 | 156° | 62km/h | 4041m | 5.4m/s | 4°C | 31.5% | 0hPa | 3V | 08:30:00 | 00:35:41 | 00:00:00 | |
| IW2NTF | 2026-09-05 10:11:55 | 44.52158 | 7.63574 | 136° | 46km/h | 4009m | 5.5m/s | 4°C | 37.1% | 0hPa | 3V | 08:30:00 | 00:35:35 | 00:00:00 | |
| IW2NTF | 2026-09-05 10:11:50 | 44.52208 | 7.63511 | 146° | 47km/h | 3982m | 4.2m/s | 4.2°C | 38% | 0hPa | 3V | 08:30:00 | 00:35:29 | 00:00:00 | |
| IW2NTF | 2026-09-05 10:11:43 | 44.52266 | 7.63478 | 158° | 31km/h | 3949m | 5.4m/s | 4.5°C | 37% | 0hPa | 3V | 08:30:00 | 00:35:23 | 00:00:00 | |
| IW2NTF | 2026-09-05 10:11:37 | 44.52323 | 7.63444 | 157° | 57km/h | 3922m | 4.9m/s | 4.8°C | 36.4% | 0hPa | 3V | 08:30:00 | 00:35:17 | 00:00:00 | |
| IW2NTF | 2026-09-05 10:11:31 | 44.52391 | 7.63395 | 137° | 40km/h | 3896m | 6.4m/s | 4.7°C | 35.4% | 0hPa | 3V | 08:30:00 | 00:35:11 | 00:00:00 | |
| IW2NTF | 2026-09-05 10:11:25 | 44.52442 | 7.63330 | 154° | 51km/h | 3871m | 4.6m/s | 5°C | 35.3% | 0hPa | 3V | 08:30:00 | 00:35:05 | 00:00:00 | |
| IW2NTF | 2026-09-05 10:11:19 | 44.52493 | 7.63303 | 143° | 22km/h | 3837m | 8m/s | 4.9°C | 31.9% | 0hPa | 3V | 08:30:00 | 00:34:59 | 00:00:00 | |
| IW2NTF | 2026-09-05 10:11:14 | 44.52540 | 7.63262 | 164° | 44km/h | 3801m | 6.4m/s | 5.3°C | 31.6% | 0hPa | 3V | 08:30:00 | 00:34:53 | 00:00:00 | |
| IW2NTF | 2026-09-05 10:11:07 | 44.52588 | 7.63240 | 137° | 20km/h | 3766m | 5.9m/s | 5.6°C | 29.2% | 0hPa | 3V | 08:30:00 | 00:34:47 | 00:00:00 | |
| IW2NTF | 2026-09-05 10:11:01 | 44.52619 | 7.63231 | 182° | 31km/h | 3731m | 6.5m/s | 5.9°C | 24.6% | 0hPa | 3V | 08:30:00 | 00:34:41 | 00:00:00 | |
| IW2NTF | 2026-09-05 10:10:55 | 44.52655 | 7.63228 | 186° | 9km/h | 3699m | 5.3m/s | 6.2°C | 23.9% | 0hPa | 3V | 08:30:00 | 00:34:35 | 00:00:00 | |
| IW2NTF | 2026-09-05 10:10:49 | 44.52671 | 7.63223 | 169° | 20km/h | 3667m | 7m/s | 6.5°C | 24.1% | 0hPa | 3V | 08:30:00 | 00:34:29 | 00:00:00 | |
| IW2NTF | 2026-09-05 10:10:43 | 44.52703 | 7.63218 | 167° | 24km/h | 3629m | 7.4m/s | 6.9°C | 22.4% | 0hPa | 3V | 08:30:00 | 00:34:23 | 00:00:00 | |
| IW2NTF | 2026-09-05 10:10:37 | 44.52731 | 7.63218 | 156° | 9km/h | 3593m | 6.6m/s | 7.2°C | 21.7% | 0hPa | 3V | 08:30:00 | 00:34:17 | 00:00:00 | |
| IW2NTF | 2026-09-05 10:10:29 | 44.52758 | 7.63194 | 151° | 20km/h | 3550m | 6.4m/s | 7.6°C | 21.9% | 0hPa | 3V | 08:30:00 | 00:34:09 | 00:00:00 | |
| IW2NTF | 2026-09-05 10:10:23 | 44.52784 | 7.63192 | 186° | 26km/h | 3512m | 6.5m/s | 8°C | 20.4% | 0hPa | 3V | 08:30:00 | 00:34:03 | 00:00:00 | |
| IW2NTF | 2026-09-05 10:10:17 | 44.52817 | 7.63188 | 165° | 24km/h | 3480m | 5.7m/s | 8.3°C | 19.3% | 0hPa | 3V | 08:30:00 | 00:33:57 | 00:00:00 | |
| IW2NTF | 2026-09-05 10:10:12 | 44.52837 | 7.63159 | 106° | 13km/h | 3445m | 5.9m/s | 8.7°C | 19.1% | 0hPa | 3V | 08:30:00 | 00:33:51 | 00:00:00 | |
| IW2NTF | 2026-09-05 10:10:05 | 44.52855 | 7.63146 | 158° | 18km/h | 3414m | 7.1m/s | 8.9°C | 16.5% | 0hPa | 3V | 08:30:00 | 00:33:45 | 00:00:00 | |
| IW2NTF | 2026-09-05 10:09:59 | 44.52879 | 7.63152 | 197° | 26km/h | 3377m | 6.6m/s | 9.3°C | 15.6% | 0hPa | 3V | 08:30:00 | 00:33:39 | 00:00:00 | |
| IW2NTF | 2026-09-05 10:09:53 | 44.52907 | 7.63159 | 227° | 15km/h | 3346m | 6m/s | 9.6°C | 17.2% | 0hPa | 3V | 08:30:00 | 00:33:33 | 00:00:00 | |
| IW2NTF | 2026-09-05 10:09:45 | 44.52928 | 7.63149 | 171° | 18km/h | 3310m | 4.7m/s | 9.8°C | 13% | 0hPa | 3V | 08:30:00 | 00:33:25 | 00:00:00 | |
| IW2NTF | 2026-09-05 10:09:39 | 44.52959 | 7.63146 | 166° | 22km/h | 3282m | 4m/s | 10°C | 12.2% | 0hPa | 3V | 08:30:00 | 00:33:19 | 00:00:00 | |
| IW2NTF | 2026-09-05 10:09:32 | 44.52994 | 7.63134 | 132° | 11km/h | 3242m | 5.1m/s | 10°C | 12.6% | 0hPa | 3V | 08:30:00 | 00:33:11 | 00:00:00 | |
| IW2NTF | 2026-09-05 10:09:25 | 44.53013 | 7.63132 | 203° | 15km/h | 3213m | 3.9m/s | 10.3°C | 12.4% | 0hPa | 3V | 08:30:00 | 00:33:05 | 00:00:00 | |
| IW2NTF | 2026-09-05 10:09:19 | 44.53027 | 7.63111 | 116° | 20km/h | 3181m | 6.5m/s | 10.5°C | 12.7% | 0hPa | 3V | 08:30:00 | 00:32:59 | 00:00:00 | |
| IW2NTF | 2026-09-05 10:09:13 | 44.53038 | 7.63095 | 170° | 13km/h | 3149m | 3.4m/s | 10.4°C | 13% | 0hPa | 3V | 08:30:00 | 00:32:53 | 00:00:00 | |
| IW2NTF | 2026-09-05 10:09:07 | 44.53047 | 7.63079 | 71° | 13km/h | 3118m | 5.5m/s | 10.3°C | 14.2% | 0hPa | 3V | 08:30:00 | 00:32:47 | 00:00:00 | |
| IW2NTF | 2026-09-05 10:09:01 | 44.53049 | 7.63050 | 107° | 24km/h | 3088m | 4.6m/s | 10.5°C | 14.6% | 0hPa | 3V | 08:30:00 | 00:32:41 | 00:00:00 | |
| IW2NTF | 2026-09-05 10:08:55 | 44.53067 | 7.63003 | 126° | 22km/h | 3063m | 3.2m/s | 10.6°C | 16.7% | 0hPa | 3V | 08:30:00 | 00:32:35 | 00:00:00 | |
| IW2NTF | 2026-09-05 10:08:49 | 44.53077 | 7.62972 | 91° | 22km/h | 3036m | 4.9m/s | 10.7°C | 17.2% | 0hPa | 3V | 08:30:00 | 00:32:29 | 00:00:00 | |
| IW2NTF | 2026-09-05 10:08:43 | 44.53087 | 7.62920 | 120° | 24km/h | 3006m | 6.7m/s | 10.9°C | 16.1% | 0hPa | 3V | 08:30:00 | 00:32:23 | 00:00:00 | |
| IW2NTF | 2026-09-05 10:08:38 | 44.53099 | 7.62887 | 85° | 7km/h | 2972m | 4.2m/s | 11.1°C | 16% | 0hPa | 3V | 08:30:00 | 00:32:17 | 00:00:00 | |
| IW2NTF | 2026-09-05 10:08:31 | 44.53108 | 7.62868 | 140° | 15km/h | 2950m | 4.8m/s | 11.3°C | 16.1% | 0hPa | 3V | 08:30:00 | 00:32:11 | 00:00:00 | |
| IW2NTF | 2026-09-05 10:08:25 | 44.53115 | 7.62840 | 80° | 16km/h | 2914m | 5.3m/s | 11.6°C | 16.6% | 0hPa | 3V | 08:30:00 | 00:32:05 | 00:00:00 | |
| IW2NTF | 2026-09-05 10:08:17 | 44.53118 | 7.62798 | 94° | 24km/h | 2875m | 5.2m/s | 11.8°C | 17.8% | 0hPa | 3V | 08:30:00 | 00:31:57 | 00:00:00 | |
| IW2NTF | 2026-09-05 10:08:11 | 44.53127 | 7.62759 | 137° | 13km/h | 2843m | 5.2m/s | 12°C | 18.1% | 0hPa | 3V | 08:30:00 | 00:31:51 | 00:00:00 | |
| IW2NTF | 2026-09-05 10:08:05 | 44.53148 | 7.62723 | 126° | 29km/h | 2810m | 8.3m/s | 12.3°C | 17.9% | 0hPa | 3V | 08:30:00 | 00:31:45 | 00:00:00 | |
| IW2NTF | 2026-09-05 10:07:59 | 44.53171 | 7.62685 | 133° | 18km/h | 2773m | 4.9m/s | 12.6°C | 18.6% | 0hPa | 3V | 08:30:00 | 00:31:39 | 00:00:00 | |
| IW2NTF | 2026-09-05 10:07:53 | 44.53190 | 7.62651 | 117° | 26km/h | 2739m | 7.7m/s | 12.8°C | 21.3% | 0hPa | 3V | 08:30:00 | 00:31:33 | 00:00:00 | |
| IW2NTF | 2026-09-05 10:07:47 | 44.53199 | 7.62602 | 104° | 16km/h | 2704m | 4.9m/s | 13.1°C | 22.7% | 0hPa | 3V | 08:30:00 | 00:31:27 | 00:00:00 | |
| IW2NTF | 2026-09-05 10:07:41 | 44.53209 | 7.62558 | 91° | 27km/h | 2671m | 3.8m/s | 13.3°C | 24.1% | 0hPa | 3V | 08:30:00 | 00:31:21 | 00:00:00 | |
| IW2NTF | 2026-09-05 10:07:35 | 44.53209 | 7.62507 | 104° | 24km/h | 2644m | 6.5m/s | 13.6°C | 25.7% | 0hPa | 3V | 08:30:00 | 00:31:15 | 00:00:00 | |
| IW2NTF | 2026-09-05 10:07:29 | 44.53228 | 7.62449 | 113° | 24km/h | 2611m | 5.4m/s | 14°C | 21.9% | 0hPa | 3V | 08:30:00 | 00:31:09 | 00:00:00 | |
| IW2NTF | 2026-09-05 10:07:23 | 44.53236 | 7.62417 | 112° | 18km/h | 2585m | 4.5m/s | 14.1°C | 25.6% | 0hPa | 3V | 08:30:00 | 00:31:03 | 00:00:00 | |
| IW2NTF | 2026-09-05 10:07:17 | 44.53259 | 7.62374 | 125° | 26km/h | 2551m | 3.9m/s | 14.4°C | 26.2% | 0hPa | 3V | 08:30:00 | 00:30:57 | 00:00:00 | |
| IW2NTF | 2026-09-05 10:07:11 | 44.53271 | 7.62324 | 109° | 26km/h | 2519m | 4.3m/s | 14.6°C | 27% | 0hPa | 3V | 08:30:00 | 00:30:51 | 00:00:00 | |
| IW2NTF | 2026-09-05 10:07:05 | 44.53279 | 7.62276 | 117° | 18km/h | 2491m | 4.9m/s | 14.9°C | 26.4% | 0hPa | 3V | 08:30:00 | 00:30:45 | 00:00:00 | |
| IW2NTF | 2026-09-05 10:06:59 | 44.53301 | 7.62245 | 145° | 18km/h | 2466m | 4.5m/s | 15.2°C | 25.9% | 0hPa | 3V | 08:30:00 | 00:30:39 | 00:00:00 | |
| IW2NTF | 2026-09-05 10:06:53 | 44.53315 | 7.62210 | 105° | 29km/h | 2437m | 4.9m/s | 15.4°C | 25.4% | 0hPa | 3V | 08:30:00 | 00:30:33 | 00:00:00 | |
| IW2NTF | 2026-09-05 10:06:47 | 44.53336 | 7.62154 | 126° | 27km/h | 2406m | 7.1m/s | 15.7°C | 25.4% | 0hPa | 3V | 08:30:00 | 00:30:27 | 00:00:00 | |
| IW2NTF | 2026-09-05 10:06:41 | 44.53349 | 7.62105 | 95° | 15km/h | 2372m | 4.5m/s | 16°C | 26.3% | 0hPa | 3V | 08:30:00 | 00:30:21 | 00:00:00 | |
| IW2NTF | 2026-09-05 10:06:35 | 44.53352 | 7.62067 | 104° | 27km/h | 2345m | 6.3m/s | 16.3°C | 26.3% | 0hPa | 3V | 08:30:00 | 00:30:15 | 00:00:00 | |
| IW2NTF | 2026-09-05 10:06:29 | 44.53372 | 7.62019 | 131° | 24km/h | 2317m | 5m/s | 16.6°C | 25.5% | 0hPa | 3V | 08:30:00 | 00:30:09 | 00:00:00 | |
| IW2NTF | 2026-09-05 10:06:23 | 44.53391 | 7.61976 | 98° | 20km/h | 2288m | 5.5m/s | 16.8°C | 24.9% | 0hPa | 3V | 08:30:00 | 00:30:03 | 00:00:00 | |
| IW2NTF | 2026-09-05 10:06:17 | 44.53386 | 7.61941 | 69° | 20km/h | 2261m | 4.5m/s | 17.1°C | 23.8% | 0hPa | 3V | 08:30:00 | 00:29:57 | 00:00:00 | |
| IW2NTF | 2026-09-05 10:06:12 | 44.53385 | 7.61894 | 112° | 31km/h | 2232m | 6.9m/s | 17.4°C | 21.7% | 0hPa | 3V | 08:30:00 | 00:29:51 | 00:00:00 | |
| IW2NTF | 2026-09-05 10:06:03 | 44.53415 | 7.61827 | 108° | 26km/h | 2191m | 7.7m/s | 17.7°C | 20.7% | 0hPa | 3V | 00:00:00 | 00:29:43 | 00:00:00 | |
| IW2NTF | 2026-09-05 10:05:57 | 44.53416 | 7.61782 | 103° | 15km/h | 2157m | 4.4m/s | 18°C | 20.5% | 0hPa | 3V | 00:00:00 | 00:29:37 | 00:00:00 | |
| IW2NTF | 2026-09-05 10:05:51 | 44.53429 | 7.61748 | 103° | 20km/h | 2134m | 5.6m/s | 18.2°C | 19.9% | 0hPa | 3V | 00:00:00 | 00:29:31 | 00:00:00 | |
| IW2NTF | 2026-09-05 10:05:45 | 44.53433 | 7.61700 | 100° | 24km/h | 2106m | 4.7m/s | 18.5°C | 20.6% | 0hPa | 3V | 00:00:00 | 00:29:25 | 00:00:00 | |
| IW2NTF | 2026-09-05 10:05:39 | 44.53439 | 7.61666 | 124° | 20km/h | 2079m | 5.9m/s | 18.7°C | 20.6% | 0hPa | 3V | 00:00:00 | 00:29:19 | 00:00:00 | |
| IW2NTF | 2026-09-05 10:05:33 | 44.53456 | 7.61627 | 93° | 15km/h | 2050m | 6m/s | 18.9°C | 23.6% | 0hPa | 3V | 00:00:00 | 00:29:13 | 00:00:00 | |
| IW2NTF | 2026-09-05 10:05:27 | 44.53447 | 7.61585 | 85° | 27km/h | 2025m | 4.5m/s | 19°C | 25.9% | 0hPa | 3V | 00:00:00 | 00:29:07 | 00:00:00 | |
| IW2NTF | 2026-09-05 10:05:19 | 44.53453 | 7.61547 | 123° | 9km/h | 1998m | 4.5m/s | 19.3°C | 0% | 0hPa | 3V | 00:00:00 | 00:29:01 | 00:00:00 | |
| IW2NTF | 2026-09-05 10:05:19 | 44.53454 | 7.61540 | 85° | 9km/h | 1989m | 2.9m/s | 19.4°C | 0% | 0hPa | 3V | 00:00:00 | 00:28:59 | 00:00:00 | |
| IW2NTF | 2026-09-05 10:05:13 | 44.53452 | 7.61531 | 70° | 16km/h | 1982m | 4.8m/s | 0°C | 0% | 0hPa | 3V | 00:00:00 | 00:28:57 | 00:00:00 | |
| IW2NTF | 2026-09-05 10:05:13 | 44.53450 | 7.61518 | 79° | 20km/h | 1971m | 5.3m/s | 0°C | 0% | 0hPa | 3V | 00:00:00 | 00:28:55 | 00:00:00 | |
| IW2NTF | 2026-09-05 10:05:13 | 44.53449 | 7.61504 | 89° | 20km/h | 1962m | 5.5m/s | 0°C | 0% | 0hPa | 3V | 00:00:00 | 00:28:53 | 00:00:00 | |
| IW2NTF | 2026-09-05 10:04:57 | 44.53462 | 7.61386 | 84° | 22km/h | 1899m | 4.8m/s | 0°C | 0% | 0hPa | 3V | 00:00:00 | 00:28:37 | 00:00:00 | |
| IW2NTF | 2026-09-05 10:04:51 | 44.53461 | 7.61371 | 90° | 18km/h | 1888m | 5.7m/s | 0°C | 0% | 0hPa | 3V | 00:00:00 | 00:28:35 | 00:00:00 | |
| IW2NTF | 2026-09-05 10:04:51 | 44.53463 | 7.61360 | 116° | 16km/h | 1877m | 5.4m/s | 0°C | 0% | 0hPa | 3V | 00:00:00 | 00:28:33 | 00:00:00 | |
| IW2NTF | 2026-09-05 10:04:51 | 44.53468 | 7.61352 | 145° | 15km/h | 1868m | 4m/s | 0°C | 0% | 0hPa | 3V | 00:00:00 | 00:28:31 | 00:00:00 | |
| IW2NTF | 2026-09-05 10:04:45 | 44.53474 | 7.61347 | 159° | 15km/h | 1860m | 3.5m/s | 0°C | 0% | 0hPa | 3V | 00:00:00 | 00:28:29 | 00:00:00 | |
| IW2NTF | 2026-09-05 10:04:45 | 44.53481 | 7.61342 | 151° | 18km/h | 1853m | 4.1m/s | 0°C | 0% | 0hPa | 3V | 00:00:00 | 00:28:27 | 00:00:00 | |
| IW2NTF | 2026-09-05 10:04:45 | 44.53490 | 7.61333 | 135° | 24km/h | 1846m | 3.7m/s | 0°C | 0% | 0hPa | 3V | 00:00:00 | 00:28:25 | 00:00:00 | |
| IW2NTF | 2026-09-05 10:04:39 | 44.53498 | 7.61320 | 125° | 26km/h | 1838m | 4.8m/s | 0°C | 0% | 0hPa | 3V | 00:00:00 | 00:28:23 | 00:00:00 | |
| IW2NTF | 2026-09-05 10:04:39 | 44.53504 | 7.61307 | 123° | 20km/h | 1829m | 5.2m/s | 0°C | 0% | 0hPa | 3V | 00:00:00 | 00:28:21 | 00:00:00 | |
| IW2NTF | 2026-09-05 10:04:39 | 44.53510 | 7.61297 | 127° | 16km/h | 1819m | 6.8m/s | 0°C | 0% | 0hPa | 3V | 00:00:00 | 00:28:19 | 00:00:00 | |
| IW2NTF | 2026-09-05 10:04:33 | 44.53515 | 7.61287 | 125° | 18km/h | 1806m | 6.8m/s | 0°C | 0% | 0hPa | 3V | 00:00:00 | 00:28:17 | 00:00:00 | |
| IW2NTF | 2026-09-05 10:04:33 | 44.53518 | 7.61276 | 102° | 13km/h | 1795m | 5.2m/s | 0°C | 0% | 0hPa | 3V | 00:00:00 | 00:28:15 | 00:00:00 | |
| IW2NTF | 2026-09-05 10:04:33 | 44.53519 | 7.61269 | 75° | 7km/h | 1784m | 4.5m/s | 0°C | 0% | 0hPa | 3V | 00:00:00 | 00:28:13 | 00:00:00 | |
| IW2NTF | 2026-09-05 10:04:27 | 44.53518 | 7.61263 | 74° | 9km/h | 1777m | 4.5m/s | 0°C | 0% | 0hPa | 3V | 00:00:00 | 00:28:11 | 00:00:00 | |
| IW2NTF | 2026-09-05 10:04:27 | 44.53517 | 7.61256 | 71° | 13km/h | 1769m | 4.5m/s | 0°C | 0% | 0hPa | 3V | 00:00:00 | 00:28:09 | 00:00:00 | |
| IW2NTF | 2026-09-05 10:04:27 | 44.53514 | 7.61249 | 66° | 9km/h | 1762m | 3.8m/s | 0°C | 0% | 0hPa | 3V | 00:00:00 | 00:28:07 | 00:00:00 | |
| IW2NTF | 2026-09-05 10:04:21 | 44.53513 | 7.61243 | 78° | 9km/h | 1755m | 3.7m/s | 0°C | 0% | 0hPa | 3V | 00:00:00 | 00:28:05 | 00:00:00 | |
| IW2NTF | 2026-09-05 10:04:21 | 44.53513 | 7.61238 | 105° | 5km/h | 1746m | 6.8m/s | 0°C | 0% | 0hPa | 3V | 00:00:00 | 00:28:03 | 00:00:00 | |
| IW2NTF | 2026-09-05 10:04:21 | 44.53515 | 7.61234 | 134° | 9km/h | 1733m | 6.8m/s | 0°C | 0% | 0hPa | 3V | 00:00:00 | 00:28:01 | 00:00:00 | |
| IW2NTF | 2026-09-05 10:04:15 | 44.53521 | 7.61227 | 146° | 20km/h | 1723m | 4.5m/s | 0°C | 0% | 0hPa | 3V | 00:00:00 | 00:27:59 | 00:00:00 | |
| IW2NTF | 2026-09-05 10:04:15 | 44.53531 | 7.61219 | 155° | 24km/h | 1711m | 6.3m/s | 0°C | 0% | 0hPa | 3V | 00:00:00 | 00:27:57 | 00:00:00 | |
| IW2NTF | 2026-09-05 10:04:15 | 44.53542 | 7.61213 | 154° | 22km/h | 1701m | 4.4m/s | 0°C | 0% | 0hPa | 3V | 00:00:00 | 00:27:55 | 00:00:00 | |
| IW2NTF | 2026-09-05 10:04:09 | 44.53552 | 7.61205 | 144° | 22km/h | 1693m | 6.1m/s | 0°C | 0% | 0hPa | 3V | 00:00:00 | 00:27:53 | 00:00:00 | |
| IW2NTF | 2026-09-05 10:04:09 | 44.53561 | 7.61195 | 138° | 24km/h | 1683m | 5.1m/s | 0°C | 0% | 0hPa | 3V | 00:00:00 | 00:27:51 | 00:00:00 | |
| IW2NTF | 2026-09-05 10:04:09 | 44.53571 | 7.61185 | 150° | 26km/h | 1673m | 4.4m/s | 0°C | 0% | 0hPa | 3V | 00:00:00 | 00:27:49 | 00:00:00 | |
| IW2NTF | 2026-09-05 10:04:03 | 44.53582 | 7.61177 | 157° | 22km/h | 1665m | 4.2m/s | 0°C | 0% | 0hPa | 3V | 00:00:00 | 00:27:47 | 00:00:00 | |
| IW2NTF | 2026-09-05 10:04:03 | 44.53592 | 7.61171 | 158° | 18km/h | 1655m | 5.1m/s | 0°C | 0% | 0hPa | 3V | 00:00:00 | 00:27:45 | 00:00:00 | |
| IW2NTF | 2026-09-05 10:04:03 | 44.53598 | 7.61169 | 174° | 13km/h | 1644m | 5m/s | 0°C | 0% | 0hPa | 3V | 00:00:00 | 00:27:43 | 00:00:00 | |
| IW2NTF | 2026-09-05 10:03:57 | 44.53604 | 7.61168 | 164° | 13km/h | 1634m | 6.4m/s | 0°C | 0% | 0hPa | 3V | 00:00:00 | 00:27:41 | 00:00:00 | |
| IW2NTF | 2026-09-05 10:03:57 | 44.53612 | 7.61164 | 158° | 20km/h | 1623m | 4.9m/s | 0°C | 0% | 0hPa | 3V | 00:00:00 | 00:27:39 | 00:00:00 | |
| IW2NTF | 2026-09-05 10:03:57 | 44.53621 | 7.61160 | 164° | 18km/h | 1615m | 4.8m/s | 0°C | 0% | 0hPa | 3V | 00:00:00 | 00:27:37 | 00:00:00 | |
| IW2NTF | 2026-09-05 10:03:51 | 44.53627 | 7.61156 | 136° | 11km/h | 1607m | 4.8m/s | 0°C | 0% | 0hPa | 3V | 00:00:00 | 00:27:35 | 00:00:00 | |
| IW2NTF | 2026-09-05 10:03:51 | 44.53630 | 7.61150 | 105° | 11km/h | 1599m | 4.3m/s | 0°C | 0% | 0hPa | 3V | 00:00:00 | 00:27:33 | 00:00:00 | |
| IW2NTF | 2026-09-05 10:03:51 | 44.53633 | 7.61144 | 149° | 15km/h | 1590m | 4.4m/s | 0°C | 0% | 0hPa | 3V | 00:00:00 | 00:27:31 | 00:00:00 | |
| IW2NTF | 2026-09-05 10:03:45 | 44.53641 | 7.61139 | 165° | 18km/h | 1583m | 4.3m/s | 0°C | 0% | 0hPa | 3V | 00:00:00 | 00:27:29 | 00:00:00 | |
| IW2NTF | 2026-09-05 10:03:45 | 44.53651 | 7.61138 | 180° | 22km/h | 1575m | 4.8m/s | 0°C | 0% | 0hPa | 3V | 00:00:00 | 00:27:27 | 00:00:00 | |
| IW2NTF | 2026-09-05 10:03:45 | 44.53662 | 7.61138 | 171° | 18km/h | 1568m | 3.4m/s | 0°C | 0% | 0hPa | 3V | 00:00:00 | 00:27:25 | 00:00:00 | |
| IW2NTF | 2026-09-05 10:03:39 | 44.53680 | 7.61126 | 139° | 20km/h | 1548m | 6.2m/s | 0°C | 0% | 0hPa | 3V | 00:00:00 | 00:27:21 | 00:00:00 | |
| IW2NTF | 2026-09-05 10:03:39 | 44.53685 | 7.61116 | 117° | 16km/h | 1538m | 5m/s | 0°C | 0% | 0hPa | 3V | 00:00:00 | 00:27:19 | 00:00:00 |